Provisional Data: Susquehanna River near Danville, PA


Please select a monitoring station.
Please select start date.
Please select start date.

Toggle Unit: C/F Toggle Unit: C/F
Sample Time Temperature (C) Temperature (F) Specific Conductivity (mS/cm) pH   Turbidity (NTU+) DO (mg/L)
8/9/2021 12:00:00 AM 24.86 76.748 0.288 8.1 0.8 7.31
8/9/2021 12:15:00 AM 24.85 76.73 0.288 8.1 0.8 7.24
8/9/2021 12:30:00 AM 24.85 76.73 0.288 8.09 0.85 7.2
8/9/2021 12:45:00 AM 24.84 76.712 0.288 8.1 0.83 7.18
8/9/2021 1:00:00 AM 24.84 76.712 0.288 8.07 0.74 7.15
8/9/2021 1:15:00 AM 24.83 76.694 0.288 8.07 0.83 7.1
8/9/2021 1:30:00 AM 24.82 76.676 0.288 8.08 0.68 7.05
8/9/2021 1:45:00 AM 24.82 76.676 0.288 8.08 0.78 7.06
8/9/2021 2:00:00 AM 24.81 76.658 0.288 8.07 0.79 7.01
8/9/2021 2:15:00 AM 24.81 76.658 0.289 8.07 0.65 6.97
8/9/2021 2:30:00 AM 24.8 76.64 0.289 8.06 0.71 6.9
8/9/2021 2:45:00 AM 24.79 76.622 0.288 8.05 0.7 6.87
8/9/2021 3:00:00 AM 24.78 76.604 0.289 8.04 0.72 6.89
8/9/2021 3:15:00 AM 24.78 76.604 0.289 8.04 1.1 6.82
8/9/2021 3:30:00 AM 24.77 76.586 0.289 8.03 0.65 6.78
8/9/2021 3:45:00 AM 24.77 76.586 0.289 8 0.66 6.73
8/9/2021 4:00:00 AM 24.76 76.568 0.289 8 0.67 6.72
8/9/2021 4:15:00 AM 24.75 76.55 0.289 7.99 0.6 6.64
8/9/2021 4:30:00 AM 24.75 76.55 0.289 8.01 0.66 6.66
8/9/2021 4:45:00 AM 24.74 76.532 0.289 8 0.63 6.67
8/9/2021 5:00:00 AM 24.74 76.532 0.289 7.95 0.65 6.51
8/9/2021 5:15:00 AM 24.73 76.514 0.289 8 0.65 6.56
8/9/2021 5:30:00 AM 24.72 76.496 0.289 7.99 0.63 6.55
8/9/2021 5:45:00 AM 24.44 75.992 0 7.18 0.63 8.52
8/9/2021 6:00:00 AM 24.21 75.578 0 7.36 0.72 8.75
8/9/2021 6:15:00 AM 24.18 75.524 0 7.46 0.71 8.79
8/9/2021 6:30:00 AM 24.19 75.542 0 7.49 0.69 8.8
8/9/2021 6:45:00 AM 24.21 75.578 0 7.52 0.66 8.79
8/9/2021 7:00:00 AM 24.23 75.614 0 7.56 0.71 8.8
8/9/2021 7:15:00 AM 24.21 75.578 0 7.56 0.71 8.82
8/9/2021 7:30:00 AM 24.46 76.028 0 7.56 0.68 8.77
8/9/2021 7:45:00 AM 24.39 75.902 0 7.57 0.73 8.79
8/9/2021 8:00:00 AM 24.21 75.578 0 7.58 0.7 8.81
8/9/2021 8:15:00 AM 24.87 76.766 0.294 6.48 124.46 8.67
8/9/2021 8:30:00 AM 25.52 77.936 0.299 8.21 1.32 8.07
8/9/2021 8:45:00 AM 25.57 78.026 0.3 8.23 1.15 8.12
8/9/2021 9:00:00 AM 25.61 78.098 0.3 8.25 1.17 8.16
8/9/2021 9:15:00 AM 25.63 78.134 0 7.98 67.9 8.51
8/9/2021 9:30:00 AM 25.05 77.09 0 7.73 0.67 8.66
8/9/2021 9:45:00 AM 24.61 76.298 0 7.75 0.65 8.74
8/9/2021 10:00:00 AM 24.35 75.83 0 7.79 0.65 8.79
8/9/2021 10:15:00 AM 24.21 75.578 0 7.76 0.71 8.81
8/9/2021 10:30:00 AM 24.13 75.434 0 7.77 0.68 8.83
8/9/2021 10:45:00 AM 24.07 75.326 0 7.79 0.72 8.84
8/9/2021 11:00:00 AM 24.04 75.272 0 7.81 0.74 8.85
8/9/2021 11:15:00 AM 24.03 75.254 0 7.83 0.73 8.84
8/9/2021 11:30:00 AM 24.04 75.272 0 7.83 0.74 8.84
8/9/2021 11:45:00 AM 24.05 75.29 0 7.81 0.73 8.83
8/9/2021 12:00:00 PM 24.06 75.308 0 7.84 0.75 8.82
8/9/2021 12:15:00 PM 24.07 75.326 0 7.88 0.77 8.83
8/9/2021 12:30:00 PM 24.1 75.38 0 7.89 0.71 8.82
8/9/2021 12:45:00 PM 24.13 75.434 0 7.96 0.7 8.82
8/9/2021 1:00:00 PM 24.16 75.488 0 7.99 0.72 8.81
8/9/2021 1:15:00 PM 24.2 75.56 0 8.05 0.75 8.8
8/9/2021 1:30:00 PM 24.24 75.632 0 8.05 0.73 8.8
8/9/2021 1:45:00 PM 24.27 75.686 0 8.08 0.72 8.8
8/9/2021 2:00:00 PM 24.3 75.74 0.001 8.09 0.72 8.79
8/9/2021 2:15:00 PM 24.31 75.758 0 8.1 0.72 8.79
8/9/2021 2:30:00 PM 26.52 79.736 0.304 8.38 1.71 8.88
8/9/2021 2:45:00 PM 26.67 80.006 0.304 8.36 1.11 8.84
8/9/2021 3:00:00 PM 26.71 80.078 0.304 8.38 1.25 8.81
8/9/2021 3:15:00 PM 26.73 80.114 0.304 8.39 1.01 8.81
8/9/2021 3:30:00 PM 26.74 80.132 0.304 8.38 0.96 8.76
8/9/2021 3:45:00 PM 26.74 80.132 0.304 8.38 1 8.73
8/9/2021 4:00:00 PM 26.74 80.132 0.304 8.39 0.94 8.7
8/9/2021 4:15:00 PM 26.73 80.114 0.304 8.38 0.88 8.63
8/9/2021 4:30:00 PM 26.72 80.096 0.304 8.39 0.87 8.62
8/9/2021 4:45:00 PM 26.72 80.096 0.304 8.38 0.81 8.57
8/9/2021 5:00:00 PM 26.71 80.078 0.305 8.37 1.05 8.53
8/9/2021 5:15:00 PM 26.7 80.06 0.305 8.37 1 8.47
8/9/2021 5:30:00 PM 26.69 80.042 0.305 8.35 0.89 8.4
8/9/2021 5:45:00 PM 26.68 80.024 0.305 8.36 0.85 8.37
8/9/2021 6:00:00 PM 26.67 80.006 0.305 8.35 0.81 8.37
8/9/2021 6:15:00 PM 26.66 79.988 0.305 8.35 0.9 8.27
8/9/2021 6:30:00 PM 26.65 79.97 0.305 8.35 0.87 8.27
8/9/2021 6:45:00 PM 26.64 79.952 0.305 8.34 0.94 8.21
8/9/2021 7:00:00 PM 26.63 79.934 0.305 8.33 0.89 8.17
8/9/2021 7:15:00 PM 26.62 79.916 0.305 8.33 0.82 8.19
8/9/2021 7:30:00 PM 26.61 79.898 0.305 8.34 0.84 8.14
8/9/2021 7:45:00 PM 26.6 79.88 0.305 8.32 0.9 8.11
8/9/2021 8:00:00 PM 26.59 79.862 0.305 8.32 0.87 8.07
8/9/2021 8:15:00 PM 26.57 79.826 0.305 8.3 0.85 8.06
8/9/2021 8:30:00 PM 26.57 79.826 0.305 8.32 0.89 8.02
8/9/2021 8:45:00 PM 26.55 79.79 0.305 8.32 0.85 8.01
8/9/2021 9:00:00 PM 26.54 79.772 0.305 8.34 0.93 7.93
8/9/2021 9:15:00 PM 26.54 79.772 0.305 8.3 1.04 7.89
8/9/2021 9:30:00 PM 26.53 79.754 0.305 8.29 0.8 7.95
8/9/2021 9:45:00 PM 26.52 79.736 0.305 8.29 0.88 7.86
8/9/2021 10:00:00 PM 26.51 79.718 0.305 8.29 0.88 7.82
8/9/2021 10:15:00 PM 26.5 79.7 0.305 8.28 0.87 7.79
8/9/2021 10:30:00 PM 26.49 79.682 0.305 8.27 0.89 7.79
8/9/2021 10:45:00 PM 26.47 79.646 0.305 8.27 0.87 7.77
8/9/2021 11:00:00 PM 26.46 79.628 0.305 8.27 0.9 7.77
8/9/2021 11:15:00 PM 26.45 79.61 0.305 8.28 0.82 7.75
8/9/2021 11:30:00 PM 26.44 79.592 0.305 8.27 0.83 7.6
8/9/2021 11:45:00 PM 26.43 79.574 0.305 8.27 0.9 7.67
8/10/2021 12:00:00 AM 26.42 79.556 0.305 8.26 0.96 7.62
8/10/2021 12:15:00 AM 26.41 79.538 0.305 8.24 0.87 7.56
8/10/2021 12:30:00 AM 26.41 79.538 0.305 8.23 0.94 7.53
8/10/2021 12:45:00 AM 26.4 79.52 0.305 8.24 0.85 7.58
8/10/2021 1:00:00 AM 26.39 79.502 0.305 8.24 0.83 7.57
8/10/2021 1:15:00 AM 26.38 79.484 0.305 8.24 0.91 7.49
8/10/2021 1:30:00 AM 26.37 79.466 0.306 8.25 0.86 7.45
8/10/2021 1:45:00 AM 26.36 79.448 0.305 8.22 0.89 7.47
8/10/2021 2:00:00 AM 26.35 79.43 0.306 8.22 0.9 7.42
8/10/2021 2:15:00 AM 26.34 79.412 0.305 8.22 0.81 7.37
8/10/2021 2:30:00 AM 26.33 79.394 0.306 8.21 0.86 7.34
8/10/2021 2:45:00 AM 26.32 79.376 0.306 8.21 0.87 7.31
8/10/2021 3:00:00 AM 26.31 79.358 0.306 8.22 0.87 7.34
8/10/2021 3:15:00 AM 26.3 79.34 0.306 8.18 0.86 7.28
8/10/2021 3:30:00 AM 26.29 79.32201 0.306 8.2 0.82 7.27
8/10/2021 3:45:00 AM 26.29 79.32201 0.306 8.19 0.82 7.28
8/10/2021 4:00:00 AM 26.28 79.304 0.306 8.18 0.86 7.2
8/10/2021 4:15:00 AM 26.27 79.286 0.306 8.18 0.88 7.15
8/10/2021 4:30:00 AM 26.26 79.268 0.306 8.17 0.87 7.11
8/10/2021 4:45:00 AM 26.25 79.25 0.306 8.17 0.81 7.1
8/10/2021 5:00:00 AM 26.2 79.16 0.306 8.14 0.89 6.84
8/10/2021 5:15:00 AM 26.16 79.088 0.306 8.13 0.98 7
8/10/2021 5:30:00 AM 26.16 79.088 0.306 8.11 0.95 7
8/10/2021 5:45:00 AM 25.97 78.746 0 7.81 0.7 8.44
8/10/2021 6:00:00 AM 25.34 77.612 0 7.61 0.62 8.58
8/10/2021 6:15:00 AM 25.14 77.252 0 7.63 0.61 8.62
8/10/2021 6:30:00 AM 24.97 76.946 0 7.56 0.64 8.65
8/10/2021 6:45:00 AM 24.83 76.694 0 7.59 0.68 8.67
8/10/2021 7:00:00 AM 24.73 76.514 0 7.57 0.67 8.69
8/10/2021 7:15:00 AM 24.67 76.406 0 7.56 0.71 8.71
8/10/2021 7:30:00 AM 24.62 76.316 0 7.58 0.71 8.73
8/10/2021 7:45:00 AM 24.58 76.244 0 7.59 0.68 8.74
8/10/2021 8:00:00 AM 24.56 76.208 0 7.6 0.7 8.74
8/10/2021 8:15:00 AM 24.54 76.172 0 7.64 0.75 8.75
8/10/2021 8:30:00 AM 24.53 76.154 0 7.63 0.73 8.75
8/10/2021 8:45:00 AM 24.53 76.154 0 7.62 0.73 8.75
8/10/2021 9:00:00 AM 24.52 76.136 0 7.63 0.75 8.76
8/10/2021 9:15:00 AM 24.52 76.136 0 7.65 0.76 8.76
8/10/2021 9:30:00 AM 24.53 76.154 0 7.69 0.74 8.77
8/10/2021 9:45:00 AM 24.53 76.154 0 7.67 0.73 8.75
8/10/2021 10:00:00 AM 24.54 76.172 0 7.71 0.69 8.76
8/10/2021 10:15:00 AM 24.54 76.172 0 7.67 0.76 8.74
8/10/2021 10:30:00 AM 24.55 76.19 0 7.68 0.69 8.74
8/10/2021 10:45:00 AM 24.56 76.208 0 7.69 0.73 8.74
8/10/2021 11:00:00 AM 24.57 76.226 0 7.7 0.82 8.74
8/10/2021 11:15:00 AM 24.58 76.244 0 7.7 0.73 8.72
8/10/2021 11:30:00 AM 25.35 77.63 0.319 8.41 153.38 8.61
8/10/2021 11:45:00 AM 26.53 79.754 0.314 8.15 1.26 8
8/10/2021 12:00:00 PM 26.6 79.88 0.314 8.16 1.09 7.97
8/10/2021 12:15:00 PM 26.64 79.952 0.314 8.18 1.13 7.96
8/10/2021 12:30:00 PM 26.46 79.628 0 8 0.71 8.42
8/10/2021 12:45:00 PM 25.83 78.494 0 7.98 0.65 8.52
8/10/2021 1:00:00 PM 25.44 77.792 0 7.94 0.67 8.58
8/10/2021 1:15:00 PM 25.22 77.396 0 7.97 0.66 8.63
8/10/2021 1:30:00 PM 25.09 77.162 0 7.96 0.61 8.66
8/10/2021 1:45:00 PM 25.01 77.018 0 7.98 0.62 8.67
8/10/2021 2:00:00 PM 24.96 76.92799 0 7.93 0.68 8.67
8/10/2021 2:15:00 PM 24.95 76.91 0 7.99 0.7 8.68
8/10/2021 2:30:00 PM 26.84 80.312 0.315 8.35 1.32 8.46
8/10/2021 2:45:00 PM 26.94 80.492 0.315 8.33 1.02 8.4
8/10/2021 3:00:00 PM 26.97 80.546 0.315 8.34 1.09 8.39
8/10/2021 3:15:00 PM 26.98 80.564 0.315 8.34 0.99 8.37
8/10/2021 3:30:00 PM 26.99 80.582 0.315 8.34 0.91 8.33
8/10/2021 3:45:00 PM 26.99 80.582 0.315 8.34 0.8 8.31
8/10/2021 4:00:00 PM 26.99 80.582 0.315 8.34 0.94 8.27
8/10/2021 4:15:00 PM 26.98 80.564 0.315 8.34 0.83 8.24
8/10/2021 4:30:00 PM 26.98 80.564 0.315 8.33 0.83 8.21
8/10/2021 4:45:00 PM 26.98 80.564 0.315 8.33 0.77 8.18
8/10/2021 5:00:00 PM 26.96 80.528 0.315 8.32 0.81 8.09
8/10/2021 5:15:00 PM 26.96 80.528 0.315 8.33 0.82 8.09
8/10/2021 5:30:00 PM 26.95 80.51 0.315 8.33 0.78 8.03
8/10/2021 5:45:00 PM 26.94 80.492 0.315 8.33 0.75 8.02
8/10/2021 6:00:00 PM 26.93 80.474 0.315 8.32 0.7 7.99
8/10/2021 6:15:00 PM 26.93 80.474 0.315 8.32 0.75 7.97
8/10/2021 6:30:00 PM 26.92 80.456 0.315 8.31 0.75 7.92
8/10/2021 6:45:00 PM 26.91 80.438 0.315 8.31 0.64 7.92
8/10/2021 7:00:00 PM 26.9 80.42 0.315 8.3 0.76 7.92
8/10/2021 7:15:00 PM 26.89 80.402 0.315 8.29 0.71 7.87
8/10/2021 7:30:00 PM 26.88 80.384 0.315 8.29 0.7 7.82
8/10/2021 7:45:00 PM 26.87 80.366 0.315 8.28 0.79 7.78
8/10/2021 8:00:00 PM 26.86 80.348 0.315 8.29 0.68 7.77
8/10/2021 8:15:00 PM 26.86 80.348 0.315 8.27 0.66 7.74
8/10/2021 8:30:00 PM 26.85 80.33 0.315 8.27 0.64 7.72
8/10/2021 8:45:00 PM 26.84 80.312 0.315 8.28 0.74 7.66
8/10/2021 9:00:00 PM 26.83 80.294 0.316 8.25 0.72 7.61
8/10/2021 9:15:00 PM 26.82 80.276 0.316 8.26 0.75 7.61
8/10/2021 9:30:00 PM 26.81 80.258 0.316 8.26 0.7 7.59
8/10/2021 9:45:00 PM 26.81 80.258 0.316 8.26 0.67 7.58
8/10/2021 10:00:00 PM 26.8 80.24 0.316 8.24 0.68 7.52
8/10/2021 10:15:00 PM 26.79 80.222 0.316 8.23 0.68 7.49
8/10/2021 10:30:00 PM 26.78 80.204 0.316 8.22 0.64 7.49
8/10/2021 10:45:00 PM 26.77 80.186 0.316 8.23 0.71 7.47
8/10/2021 11:00:00 PM 26.76 80.168 0.316 8.26 0.68 7.4
8/10/2021 11:15:00 PM 26.76 80.168 0.316 8.25 0.67 7.4
8/10/2021 11:30:00 PM 26.75 80.15 0.316 8.22 0.64 7.38
8/10/2021 11:45:00 PM 26.74 80.132 0.316 8.22 0.67 7.33
8/11/2021 12:00:00 AM 26.73 80.114 0.316 8.21 0.65 7.3
8/11/2021 12:15:00 AM 26.73 80.114 0.316 8.21 0.67 7.28
8/11/2021 12:30:00 AM 26.72 80.096 0.316 8.21 0.65 7.26
8/11/2021 12:45:00 AM 26.71 80.078 0.316 8.21 0.65 7.24
8/11/2021 1:00:00 AM 26.7 80.06 0.316 8.21 0.68 7.23
8/11/2021 1:15:00 AM 26.69 80.042 0.316 8.2 0.66 7.2
8/11/2021 1:30:00 AM 26.69 80.042 0.316 8.2 0.72 7.17
8/11/2021 1:45:00 AM 26.68 80.024 0.316 8.21 0.68 7.14
8/11/2021 2:00:00 AM 26.67 80.006 0.316 8.21 0.67 7.13
8/11/2021 2:15:00 AM 26.66 79.988 0.316 8.19 0.73 7.09
8/11/2021 2:30:00 AM 26.65 79.97 0.316 8.19 0.81 7.09
8/11/2021 2:45:00 AM 26.64 79.952 0.316 8.19 0.69 7.04
8/11/2021 3:00:00 AM 26.64 79.952 0.316 8.17 0.69 6.98
8/11/2021 3:15:00 AM 26.63 79.934 0.316 8.18 0.74 7.02
8/11/2021 3:30:00 AM 26.62 79.916 0.316 8.17 0.71 6.93
8/11/2021 3:45:00 AM 26.61 79.898 0.316 8.17 0.69 6.93
8/11/2021 4:00:00 AM 26.6 79.88 0.316 8.17 0.67 6.9
8/11/2021 4:15:00 AM 26.6 79.88 0.316 8.16 0.66 6.87
8/11/2021 4:30:00 AM 26.59 79.862 0.316 8.15 0.63 6.85
8/11/2021 4:45:00 AM 26.58 79.844 0.317 8.16 0.68 6.83
8/11/2021 5:00:00 AM 26.53 79.754 0.317 8.16 0.69 6.8
8/11/2021 5:15:00 AM 26.13 79.034 0 7.63 0.65 8.4
8/11/2021 5:30:00 AM 25.79 78.422 0 7.53 0.6 8.45
8/11/2021 5:45:00 AM 25.63 78.134 0 7.53 0.62 8.48
8/11/2021 6:00:00 AM 25.51 77.918 0 7.5 0.64 8.53
8/11/2021 6:15:00 AM 25.47 77.846 0 7.51 0.62 8.52
8/11/2021 6:30:00 AM 25.48 77.864 0 7.52 0.62 8.54
8/11/2021 6:45:00 AM 25.58 78.044 0 7.49 0.65 8.51
8/11/2021 7:00:00 AM 25.46 77.828 0 7.53 0.62 8.56
8/11/2021 7:15:00 AM 25.29 77.522 0 7.57 0.7 8.59
8/11/2021 7:30:00 AM 25.16 77.288 0 7.6 0.64 8.64
8/11/2021 7:45:00 AM 25.09 77.162 0 7.64 0.73 8.64
8/11/2021 8:00:00 AM 25.04 77.07201 0 7.62 0.73 8.63
8/11/2021 8:15:00 AM 25 77 0 7.61 0.75 8.63
8/11/2021 8:30:00 AM 24.98 76.964 0 7.63 0.71 8.64
8/11/2021 8:45:00 AM 24.95 76.91 0 7.62 0.76 8.64
8/11/2021 9:00:00 AM 24.94 76.892 0 7.67 0.76 8.66
8/11/2021 9:15:00 AM 24.94 76.892 0 7.66 0.78 8.66
8/11/2021 9:30:00 AM 24.95 76.91 0 7.69 0.72 8.66
8/11/2021 9:45:00 AM 24.95 76.91 0 7.7 0.78 8.66
8/11/2021 10:00:00 AM 24.95 76.91 0 7.7 0.72 8.67
8/11/2021 10:15:00 AM 24.97 76.946 0 7.69 0.7 8.66
8/11/2021 10:30:00 AM 24.97 76.946 0 7.7 0.73 8.64
8/11/2021 10:45:00 AM 26.54 79.772 0.319 8.13 1.51 7.88
8/11/2021 11:00:00 AM 26.7 80.06 0.318 8.14 1.08 7.83
8/11/2021 11:15:00 AM 26.78 80.204 0.319 8.15 0.98 7.79
8/11/2021 11:30:00 AM 26.84 80.312 0.319 8.18 1.05 7.8
8/11/2021 11:45:00 AM 26.87 80.366 0.319 8.19 1.09 7.82
8/11/2021 12:00:00 PM 26.95 80.51 0.319 8.2 0.81 7.83
8/11/2021 12:15:00 PM 27.03 80.654 0.319 8.19 0.9 7.83
8/11/2021 12:30:00 PM 27.11 80.798 0.319 8.22 0.8 7.88
8/11/2021 12:45:00 PM 27.21 80.978 0.319 8.23 0.82 7.91
8/11/2021 1:00:00 PM 27.3 81.14 0.319 8.26 1.02 7.96
8/11/2021 1:15:00 PM 27.35 81.23 0.319 8.26 0.99 8.03
8/11/2021 1:30:00 PM 27.41 81.338 0.319 8.28 0.94 8.08
8/11/2021 1:45:00 PM 27.48 81.464 0.319 8.29 1 8.13
8/11/2021 2:00:00 PM 27.54 81.57201 0.319 8.29 0.91 8.17
8/11/2021 2:15:00 PM 27.6 81.68 0.319 8.3 0.88 8.21
8/11/2021 2:30:00 PM 27.6 81.68 0.319 8.32 1.01 8.26
8/11/2021 2:45:00 PM 27.68 81.824 0.319 8.32 0.86 8.24
8/11/2021 3:00:00 PM 27.72 81.896 0.319 8.32 0.78 8.23
8/11/2021 3:15:00 PM 27.74 81.932 0.319 8.32 0.86 8.2
8/11/2021 3:30:00 PM 27.75 81.95 0.319 8.32 0.85 8.18
8/11/2021 3:45:00 PM 27.75 81.95 0.319 8.31 0.7 8.12
8/11/2021 4:00:00 PM 27.74 81.932 0.319 8.3 0.73 8.08
8/11/2021 4:15:00 PM 27.74 81.932 0.319 8.3 0.67 8.04
8/11/2021 4:30:00 PM 27.73 81.914 0.319 8.3 0.62 8.01
8/11/2021 4:45:00 PM 27.72 81.896 0.319 8.29 0.63 7.99
8/11/2021 5:00:00 PM 27.71 81.878 0.319 8.28 0.65 7.95
8/11/2021 5:15:00 PM 27.7 81.86 0.319 8.28 0.66 7.93
8/11/2021 5:30:00 PM 27.69 81.842 0.319 8.28 0.55 7.91
8/11/2021 5:45:00 PM 27.68 81.824 0.319 8.27 0.6 7.86
8/11/2021 6:00:00 PM 27.67 81.806 0.319 8.27 0.57 7.86
8/11/2021 6:15:00 PM 27.66 81.788 0.319 8.28 0.6 7.84
8/11/2021 6:30:00 PM 27.65 81.77 0.319 8.28 0.6 7.78
8/11/2021 6:45:00 PM 27.64 81.752 0.32 8.26 0.63 7.77
8/11/2021 7:00:00 PM 27.63 81.734 0.32 8.27 0.61 7.76
8/11/2021 7:15:00 PM 27.62 81.716 0.32 8.27 0.65 7.73
8/11/2021 7:30:00 PM 27.6 81.68 0.32 8.26 0.62 7.69
8/11/2021 7:45:00 PM 27.6 81.68 0.32 8.26 0.56 7.69
8/11/2021 8:00:00 PM 27.58 81.644 0.32 8.24 0.58 7.68
8/11/2021 8:15:00 PM 27.57 81.626 0.32 8.25 0.59 7.64
8/11/2021 8:30:00 PM 27.56 81.608 0.32 8.24 0.64 7.58
8/11/2021 8:45:00 PM 27.55 81.59 0.32 8.25 0.6 7.58
8/11/2021 9:00:00 PM 27.54 81.57201 0.32 8.24 0.6 7.55
8/11/2021 9:15:00 PM 27.53 81.554 0.32 8.23 0.59 7.52
8/11/2021 9:30:00 PM 27.52 81.536 0.32 8.23 0.59 7.51
8/11/2021 9:45:00 PM 27.5 81.5 0.32 8.22 0.64 7.47
8/11/2021 10:00:00 PM 27.5 81.5 0.32 8.22 0.75 7.44
8/11/2021 10:15:00 PM 27.49 81.482 0.32 8.21 0.55 7.41
8/11/2021 10:30:00 PM 27.48 81.464 0.32 8.22 0.51 7.4
8/11/2021 10:45:00 PM 27.47 81.446 0.32 8.21 0.63 7.36
8/11/2021 11:00:00 PM 27.46 81.42799 0.32 8.21 0.59 7.34
8/11/2021 11:15:00 PM 27.45 81.41 0.32 8.19 0.47 7.3
8/11/2021 11:30:00 PM 27.44 81.392 0.32 8.2 0.59 7.29
8/11/2021 11:45:00 PM 27.43 81.374 0.32 8.19 0.55 7.24
8/12/2021 12:00:00 AM 27.42 81.356 0.32 8.19 0.52 7.21
8/12/2021 12:15:00 AM 27.41 81.338 0.32 8.18 0.52 7.18
8/12/2021 12:30:00 AM 27.4 81.32 0.32 8.19 0.52 7.17
8/12/2021 12:45:00 AM 27.39 81.302 0.32 8.18 0.54 7.11
8/12/2021 1:00:00 AM 27.38 81.284 0.32 8.18 0.62 7.09
8/12/2021 1:15:00 AM 27.37 81.266 0.32 8.18 0.49 7.05
8/12/2021 1:30:00 AM 27.36 81.248 0.32 8.17 0.56 7.06
8/12/2021 1:45:00 AM 27.35 81.23 0.32 8.15 0.45 7
8/12/2021 2:00:00 AM 27.34 81.212 0.32 8.14 0.56 6.98
8/12/2021 2:15:00 AM 27.33 81.194 0.32 8.13 0.56 6.94
8/12/2021 2:30:00 AM 27.32 81.176 0.32 8.14 0.63 6.9
8/12/2021 2:45:00 AM 27.3 81.14 0.32 8.14 0.54 6.9
8/12/2021 3:00:00 AM 27.29 81.122 0.32 8.12 0.49 6.87
8/12/2021 3:15:00 AM 27.28 81.104 0.32 8.13 0.52 6.82
8/12/2021 3:30:00 AM 27.27 81.086 0.32 8.12 0.51 6.8
8/12/2021 3:45:00 AM 27.26 81.068 0.32 8.12 0.52 6.78
8/12/2021 4:00:00 AM 27.24 81.032 0.32 8.1 0.6 6.72
8/12/2021 4:15:00 AM 27.23 81.014 0.321 8.07 0.54 6.66
8/12/2021 4:30:00 AM 27.22 80.996 0.321 8.07 0.52 6.62
8/12/2021 4:45:00 AM 27.21 80.978 0.321 8.02 0.54 6.43
8/12/2021 5:00:00 AM 26.79 80.222 0 7.73 0.59 8.32
8/12/2021 5:15:00 AM 26.45 79.61 0 7.5 0.56 8.36
8/12/2021 5:30:00 AM 26.15 79.07 0 7.55 0.61 8.44
8/12/2021 5:45:00 AM 25.98 78.764 0 7.56 0.63 8.47
8/12/2021 6:00:00 AM 25.89 78.602 0 7.53 0.65 8.5
8/12/2021 6:15:00 AM 25.84 78.512 0 7.53 0.59 8.51
8/12/2021 6:30:00 AM 25.76 78.368 0 7.56 0.6 8.52
8/12/2021 6:45:00 AM 25.79 78.422 0 7.56 0.67 8.52
8/12/2021 7:00:00 AM 25.7 78.26 0 7.56 0.62 8.53
8/12/2021 7:15:00 AM 25.49 77.882 0 7.58 0.6 8.57
8/12/2021 7:30:00 AM 25.38 77.684 0 7.6 0.68 8.59
8/12/2021 7:45:00 AM 25.31 77.558 0 7.6 0.65 8.6
8/12/2021 8:00:00 AM 25.27 77.486 0 7.6 0.72 8.6
8/12/2021 8:15:00 AM 25.24 77.432 0 7.62 0.68 8.63
8/12/2021 8:30:00 AM 25.22 77.396 0 7.62 0.72 8.61
8/12/2021 8:45:00 AM 25.21 77.378 0 7.67 0.67 8.62
8/12/2021 9:00:00 AM 25.2 77.36 0 7.66 0.73 8.62
8/12/2021 9:15:00 AM 25.21 77.378 0 7.71 0.73 8.62
8/12/2021 9:30:00 AM 25.21 77.378 0 7.67 0.7 8.62
8/12/2021 9:45:00 AM 25.22 77.396 0 7.67 0.63 8.63
8/12/2021 10:00:00 AM 25.23 77.414 0 7.69 0.71 8.63
8/12/2021 10:15:00 AM 25.25 77.45 0 7.78 0.71 8.63
8/12/2021 10:30:00 AM 25.27 77.486 0 7.71 0.67 8.61
8/12/2021 10:45:00 AM 25.29 77.522 0.001 7.71 0.74 8.61
8/12/2021 11:00:00 AM 25.32 77.576 0 7.71 0.67 8.61
8/12/2021 11:15:00 AM 25.35 77.63 0 7.71 0.69 8.61
8/12/2021 11:30:00 AM 25.37 77.666 0 7.89 0.68 8.6
8/12/2021 11:45:00 AM 25.41 77.738 0 7.72 0.63 8.59
8/12/2021 12:00:00 PM 25.45 77.81 0 7.71 0.67 8.58
8/12/2021 12:15:00 PM 25.48 77.864 0 7.73 0.67 8.58
8/12/2021 12:30:00 PM 25.51 77.918 0 7.73 0.69 8.57
8/12/2021 12:45:00 PM 25.54 77.972 0 7.73 0.65 8.57
8/12/2021 1:00:00 PM 25.58 78.044 0 7.73 0.69 8.57
8/12/2021 1:15:00 PM 25.61 78.098 0 7.73 0.71 8.56
8/12/2021 1:30:00 PM 25.64 78.152 0 7.74 0.72 8.56
8/12/2021 1:45:00 PM 25.66 78.188 0 7.75 0.7 8.56
8/12/2021 2:00:00 PM 25.68 78.224 0 7.75 0.7 8.56
8/12/2021 2:15:00 PM 25.69 78.242 0 7.88 0.69 8.54
8/12/2021 2:30:00 PM 28.03 82.454 0.321 8.42 1.13 8.68
8/12/2021 2:45:00 PM 28.06 82.508 0.321 8.41 1.13 8.66
8/12/2021 3:00:00 PM 28.09 82.562 0.321 8.39 0.98 8.59
8/12/2021 3:15:00 PM 28.11 82.598 0.321 8.4 1.06 8.57
8/12/2021 3:30:00 PM 28.12 82.616 0.321 8.4 0.98 8.51
8/12/2021 3:45:00 PM 28.11 82.598 0.322 8.39 0.79 8.47
8/12/2021 4:00:00 PM 28.11 82.598 0.321 8.4 0.86 8.46
8/12/2021 4:15:00 PM 28.1 82.58 0.322 8.39 0.86 8.42
8/12/2021 4:30:00 PM 28.09 82.562 0.322 8.39 0.82 8.36
8/12/2021 4:45:00 PM 28.09 82.562 0.322 8.39 0.85 8.37
8/12/2021 5:00:00 PM 28.07 82.526 0.322 8.38 0.81 8.3
8/12/2021 5:15:00 PM 28.07 82.526 0.322 8.37 0.75 8.27
8/12/2021 5:30:00 PM 28.06 82.508 0.322 8.36 0.78 8.21
8/12/2021 5:45:00 PM 28.05 82.49 0.322 8.35 0.75 8.16
8/12/2021 6:00:00 PM 28.04 82.472 0.322 8.37 0.74 8.14
8/12/2021 6:15:00 PM 28.02 82.436 0.322 8.35 0.72 8.11
8/12/2021 6:30:00 PM 28.01 82.418 0.322 8.36 0.73 8.08
8/12/2021 6:45:00 PM 28.01 82.418 0.322 8.36 0.68 8.04
8/12/2021 7:00:00 PM 27.99 82.382 0.322 8.34 0.75 8
8/12/2021 7:15:00 PM 27.99 82.382 0.322 8.35 0.68 8.02
8/12/2021 7:30:00 PM 27.98 82.364 0.322 8.33 0.65 7.99
8/12/2021 7:45:00 PM 27.97 82.346 0.322 8.33 0.64 7.95
8/12/2021 8:00:00 PM 27.96 82.328 0.322 8.32 0.68 7.9
8/12/2021 8:15:00 PM 27.95 82.31 0.322 8.33 0.69 7.89
8/12/2021 8:30:00 PM 27.94 82.292 0.322 8.32 0.68 7.83
8/12/2021 8:45:00 PM 27.93 82.274 0.322 8.31 0.67 7.82
8/12/2021 9:00:00 PM 27.92 82.256 0.322 8.31 0.64 7.8
8/12/2021 9:15:00 PM 27.91 82.238 0.322 8.3 0.58 7.74
8/12/2021 9:30:00 PM 27.9 82.22 0.322 8.3 0.74 7.73
8/12/2021 9:45:00 PM 27.89 82.202 0.322 8.29 0.68 7.67
8/12/2021 10:00:00 PM 27.88 82.184 0.322 8.29 0.65 7.63
8/12/2021 10:15:00 PM 27.86 82.148 0.323 8.28 0.62 7.56
8/12/2021 10:30:00 PM 27.86 82.148 0.322 8.28 0.61 7.58
8/12/2021 10:45:00 PM 27.85 82.13 0.323 8.27 0.63 7.51
8/12/2021 11:00:00 PM 27.84 82.112 0.323 8.28 0.68 7.51
8/12/2021 11:15:00 PM 27.83 82.094 0.323 8.26 0.61 7.51
8/12/2021 11:30:00 PM 27.82 82.076 0.323 8.25 0.64 7.47
8/12/2021 11:45:00 PM 27.81 82.058 0.323 8.25 0.63 7.43
8/13/2021 12:00:00 AM 27.8 82.04 0.323 8.24 0.61 7.36
8/13/2021 12:15:00 AM 27.79 82.022 0.323 8.24 0.59 7.4
8/13/2021 12:30:00 AM 27.77 81.986 0.323 8.26 0.62 7.33
8/13/2021 12:45:00 AM 27.76 81.968 0.323 8.22 0.6 7.29
8/13/2021 1:00:00 AM 27.76 81.968 0.323 8.23 0.55 7.27
8/13/2021 1:15:00 AM 27.75 81.95 0.323 8.23 0.65 7.22
8/13/2021 1:30:00 AM 27.73 81.914 0.323 8.22 0.57 7.21
8/13/2021 1:45:00 AM 27.73 81.914 0.323 8.21 0.63 7.2
8/13/2021 2:00:00 AM 27.71 81.878 0.323 8.2 0.68 7.15
8/13/2021 2:15:00 AM 27.7 81.86 0.323 8.2 0.68 7.08
8/13/2021 2:30:00 AM 27.69 81.842 0.323 8.19 0.58 7.02
8/13/2021 2:45:00 AM 27.68 81.824 0.323 8.18 0.57 7.04
8/13/2021 3:00:00 AM 27.68 81.824 0.323 8.19 0.62 7
8/13/2021 3:15:00 AM 27.67 81.806 0.323 8.18 0.55 6.97
8/13/2021 3:30:00 AM 27.66 81.788 0.323 8.18 0.58 6.97
8/13/2021 3:45:00 AM 27.65 81.77 0.323 8.17 0.52 6.94
8/13/2021 4:00:00 AM 27.64 81.752 0.323 8.15 0.59 6.89
8/13/2021 4:15:00 AM 27.63 81.734 0.323 8.17 0.56 6.85
8/13/2021 4:30:00 AM 27.62 81.716 0.323 8.16 0.51 6.85
8/13/2021 4:45:00 AM 27.58 81.644 0.323 8.11 0.56 6.75
8/13/2021 5:00:00 AM 27.14 80.852 0 7.84 0.56 8.25
8/13/2021 5:15:00 AM 26.34 79.412 0 7.62 0.53 8.38
8/13/2021 5:30:00 AM 25.91 78.638 0 7.54 0.55 8.45
8/13/2021 5:45:00 AM 25.67 78.206 0 7.61 0.6 8.53
8/13/2021 6:00:00 AM 25.49 77.882 0 7.6 0.61 8.57
8/13/2021 6:15:00 AM 25.37 77.666 0 7.62 0.62 8.6
8/13/2021 6:30:00 AM 25.27 77.486 0 7.64 0.59 8.61
8/13/2021 6:45:00 AM 25.21 77.378 0 7.7 0.6 8.64
8/13/2021 7:00:00 AM 25.23 77.414 0 7.65 0.72 8.64
8/13/2021 7:15:00 AM 25.17 77.306 0 7.64 0.66 8.63
8/13/2021 7:30:00 AM 25.17 77.306 0 7.65 0.67 8.65
8/13/2021 7:45:00 AM 25.18 77.324 0 7.62 0.66 8.65
8/13/2021 8:00:00 AM 25.19 77.342 0 7.63 0.65 8.65
8/13/2021 8:15:00 AM 25.18 77.324 0 7.72 0.69 8.64
8/13/2021 8:30:00 AM 25.18 77.324 0 7.63 0.61 8.62
8/13/2021 8:45:00 AM 25.18 77.324 0 7.65 0.67 8.65
8/13/2021 9:00:00 AM 25.18 77.324 0 7.66 0.7 8.65
8/13/2021 9:15:00 AM 25.19 77.342 0 7.66 0.68 8.65
8/13/2021 9:30:00 AM 25.21 77.378 0 7.69 0.64 8.64
8/13/2021 9:45:00 AM 25.23 77.414 0 7.85 0.66 8.64
8/13/2021 10:00:00 AM 25.25 77.45 0 7.69 0.68 8.64
8/13/2021 10:15:00 AM 25.28 77.504 0 7.7 0.75 8.63
8/13/2021 10:30:00 AM 25.31 77.558 0 7.71 0.67 8.63
8/13/2021 10:45:00 AM 25.33 77.594 0 7.7 0.7 8.62
8/13/2021 11:00:00 AM 25.36 77.648 0 7.74 0.68 8.63
8/13/2021 11:15:00 AM 25.38 77.684 0 7.85 0.62 8.62
8/13/2021 11:30:00 AM 25.4 77.72 0 7.74 0.72 8.61
8/13/2021 11:45:00 AM 25.43 77.774 0 7.88 0.67 8.6
8/13/2021 12:00:00 PM 25.46 77.828 0 7.73 0.69 8.59
8/13/2021 12:15:00 PM 25.5 77.9 0 7.73 0.7 8.6
8/13/2021 12:30:00 PM 25.54 77.972 0 7.75 0.68 8.59
8/13/2021 12:45:00 PM 25.58 78.044 0 7.74 0.66 8.58
8/13/2021 1:00:00 PM 25.61 78.098 0 7.73 0.66 8.56
8/13/2021 1:15:00 PM 27.17 80.906 0.001 7.73 173.43 8.29
8/13/2021 1:30:00 PM 27.83 82.094 0.002 8.23 237.28 8.17
8/13/2021 1:45:00 PM 27.97 82.346 0.001 8.29 234.82 8.15
8/13/2021 2:00:00 PM 28.04 82.472 0.001 8.26 222.4 8.15
8/13/2021 2:15:00 PM 28.48 83.264 0.329 8.52 0.96 8.76
8/13/2021 2:30:00 PM 28.57 83.426 0.329 8.5 0.89 8.75
8/13/2021 2:45:00 PM 28.62 83.51601 0.33 8.52 0.81 8.72
8/13/2021 3:00:00 PM 28.64 83.552 0.33 8.51 0.82 8.69
8/13/2021 3:15:00 PM 28.64 83.552 0.33 8.49 0.75 8.65
8/13/2021 3:30:00 PM 28.64 83.552 0.33 8.5 0.86 8.57
8/13/2021 3:45:00 PM 28.64 83.552 0.33 8.49 0.77 8.53
8/13/2021 4:00:00 PM 28.63 83.534 0.33 8.49 0.89 8.51
8/13/2021 4:15:00 PM 28.62 83.51601 0.33 8.48 0.72 8.46
8/13/2021 4:30:00 PM 28.61 83.498 0.33 8.48 0.63 8.43
8/13/2021 4:45:00 PM 28.61 83.498 0.33 8.48 0.68 8.42
8/13/2021 5:00:00 PM 28.59 83.462 0.33 8.47 0.63 8.37
8/13/2021 5:15:00 PM 28.58 83.444 0.33 8.47 0.73 8.34
8/13/2021 5:30:00 PM 28.58 83.444 0.33 8.46 0.57 8.32
8/13/2021 5:45:00 PM 28.56 83.408 0.33 8.46 0.6 8.29
8/13/2021 6:00:00 PM 28.55 83.39 0.33 8.45 0.59 8.25
8/13/2021 6:15:00 PM 28.54 83.372 0.33 8.45 0.63 8.21
8/13/2021 6:30:00 PM 28.53 83.354 0.33 8.45 0.62 8.17
8/13/2021 6:45:00 PM 28.52 83.336 0.33 8.45 0.63 8.17
8/13/2021 7:00:00 PM 28.5 83.3 0.33 8.44 0.54 8.11
8/13/2021 7:15:00 PM 28.49 83.282 0.33 8.44 0.58 8.13
8/13/2021 7:30:00 PM 28.48 83.264 0.33 8.43 0.59 8.08
8/13/2021 7:45:00 PM 28.47 83.24599 0.33 8.43 0.6 8.05
8/13/2021 8:00:00 PM 28.45 83.21001 0.33 8.43 0.55 8.03
8/13/2021 8:15:00 PM 28.45 83.21001 0.33 8.43 0.58 8.03
8/13/2021 8:30:00 PM 28.44 83.192 0.33 8.42 0.59 7.99
8/13/2021 8:45:00 PM 28.43 83.174 0.33 8.41 0.6 7.96
8/13/2021 9:00:00 PM 28.42 83.156 0.33 8.4 0.63 7.94
8/13/2021 9:15:00 PM 28.41 83.138 0.331 8.41 0.59 7.93
8/13/2021 9:30:00 PM 28.39 83.102 0.331 8.41 0.56 7.88
8/13/2021 9:45:00 PM 28.39 83.102 0.331 8.4 0.53 7.87
8/13/2021 10:00:00 PM 28.37 83.066 0.331 8.39 0.58 7.83
8/13/2021 10:15:00 PM 28.37 83.066 0.331 8.39 0.59 7.78
8/13/2021 10:30:00 PM 28.35 83.03 0.331 8.38 0.56 7.76
8/13/2021 10:45:00 PM 28.34 83.012 0.331 8.38 0.52 7.74
8/13/2021 11:00:00 PM 28.33 82.994 0.331 8.38 0.58 7.7
8/13/2021 11:15:00 PM 28.32 82.976 0.331 8.37 0.53 7.71
8/13/2021 11:30:00 PM 28.31 82.958 0.331 8.36 0.49 7.68
8/13/2021 11:45:00 PM 28.29 82.922 0.331 8.36 0.55 7.62
8/14/2021 12:00:00 AM 28.28 82.904 0.331 8.36 0.53 7.58
8/14/2021 12:15:00 AM 28.27 82.886 0.331 8.35 0.57 7.55
8/14/2021 12:30:00 AM 28.26 82.868 0.331 8.34 0.53 7.53
8/14/2021 12:45:00 AM 28.26 82.868 0.331 8.34 0.57 7.49
8/14/2021 1:00:00 AM 28.24 82.832 0.331 8.33 0.56 7.43
8/14/2021 1:15:00 AM 28.23 82.814 0.331 8.33 0.56 7.4
8/14/2021 1:30:00 AM 28.22 82.796 0.331 8.32 0.49 7.38
8/14/2021 1:45:00 AM 28.21 82.778 0.331 8.3 0.57 7.25
8/14/2021 2:00:00 AM 28.2 82.76 0.331 8.31 0.58 7.3
8/14/2021 2:15:00 AM 28.19 82.742 0.331 8.3 0.58 7.26
8/14/2021 2:30:00 AM 28.18 82.724 0.331 8.3 0.53 7.23
8/14/2021 2:45:00 AM 28.17 82.706 0.331 8.29 0.53 7.19
8/14/2021 3:00:00 AM 28.16 82.688 0.331 8.29 0.55 7.14
8/14/2021 3:15:00 AM 28.15 82.67 0.331 8.27 0.55 7.13
8/14/2021 3:30:00 AM 28.14 82.652 0.331 8.28 0.55 7.1
8/14/2021 3:45:00 AM 28.13 82.634 0.331 8.27 0.54 7.08
8/14/2021 4:00:00 AM 28.12 82.616 0.331 8.26 0.57 7.09
8/14/2021 4:15:00 AM 28.11 82.598 0.331 8.27 0.51 7.06
8/14/2021 4:30:00 AM 28.09 82.562 0.331 8.17 0.52 6.95
8/14/2021 4:45:00 AM 27.95 82.31 0.286 8.31 94.4 8.18
8/14/2021 5:00:00 AM 27.9 82.22 0.331 8.16 0.52 7.24
8/14/2021 5:15:00 AM 27.8 82.04 0.332 8.16 0.59 7
8/14/2021 5:30:00 AM 27.72 81.896 0.332 8.14 0.54 6.95
8/14/2021 5:45:00 AM 27.65 81.77 0.332 8.14 0.63 6.97
8/14/2021 6:00:00 AM 27.6 81.68 0.333 8.12 0.58 7.93
8/14/2021 6:15:00 AM 27.54 81.57201 0.333 8.18 0.58 8.23
8/14/2021 6:30:00 AM 27.51 81.518 0.332 8.25 0.56 8.23
8/14/2021 6:45:00 AM 27.46 81.42799 0.32 8.26 107.22 8.25
8/14/2021 7:00:00 AM 27.41 81.338 0.238 8.21 126.08 8.26
8/14/2021 7:15:00 AM 27.44 81.392 0.336 8.16 0.59 6.96
8/14/2021 7:30:00 AM 27.36 81.248 0.168 8.15 173.7 8.26
8/14/2021 7:45:00 AM 27.3 81.14 0.164 8.06 175.62 8.28
8/14/2021 8:00:00 AM 27.32 81.176 0.152 7.98 183.98 8.27
8/14/2021 8:15:00 AM 27.3 81.14 0.115 8.16 204.01 8.29
8/14/2021 8:30:00 AM 27.3 81.14 0.086 8 217.85 8.28
8/14/2021 8:45:00 AM 27.29 81.122 0.09 7.95 214.29 8.29
8/14/2021 9:00:00 AM 27.28 81.104 0.059 8 229.9 8.3
8/14/2021 9:15:00 AM 27.26 81.068 0.034 8.05 241.76 8.31
8/14/2021 9:30:00 AM 27.27 81.086 0.029 8.08 245.74 8.31
8/14/2021 9:45:00 AM 26.85 80.33 0 7.87 0.57 8.34
8/14/2021 10:00:00 AM 26.35 79.43 0 7.79 0.58 8.44
8/14/2021 10:15:00 AM 26.06 78.908 0 7.79 0.66 8.49
8/14/2021 10:30:00 AM 25.89 78.602 0 7.78 0.58 8.52
8/14/2021 10:45:00 AM 25.78 78.404 0 7.76 0.6 8.55
8/14/2021 11:00:00 AM 25.7 78.26 0 7.77 0.64 8.57
8/14/2021 11:15:00 AM 25.65 78.17 0 7.78 0.68 8.59
8/14/2021 11:30:00 AM 25.6 78.08 0 7.86 0.68 8.61
8/14/2021 11:45:00 AM 25.55 77.99 0 7.81 0.67 8.61
8/14/2021 12:00:00 PM 25.5 77.9 0 7.83 0.65 8.62
8/14/2021 12:15:00 PM 25.46 77.828 0 7.95 0.67 8.63
8/14/2021 12:30:00 PM 27.38 81.284 0.35 8.39 0.96 8.14
8/14/2021 12:45:00 PM 27.6 81.68 0.35 8.4 0.99 8.15
8/14/2021 1:00:00 PM 27.63 81.734 0.35 8.39 0.95 8.12
8/14/2021 1:15:00 PM 27.66 81.788 0.35 8.4 0.76 8.12
8/14/2021 1:30:00 PM 27.66 81.788 0.35 8.39 0.76 8.06
8/14/2021 1:45:00 PM 27.67 81.806 0.35 8.39 0.74 8.04
8/14/2021 2:00:00 PM 27.68 81.824 0.35 8.4 0.75 7.99
8/14/2021 2:15:00 PM 27.67 81.806 0.35 8.39 0.66 7.97
8/14/2021 2:30:00 PM 27.67 81.806 0.35 8.41 0.65 7.92
8/14/2021 2:45:00 PM 27.66 81.788 0.351 8.39 0.6 7.89
8/14/2021 3:00:00 PM 27.65 81.77 0.351 8.39 0.63 7.83
8/14/2021 3:15:00 PM 27.66 81.788 0.351 8.38 0.72 7.83
8/14/2021 3:30:00 PM 27.65 81.77 0.351 8.38 0.61 7.83
8/14/2021 3:45:00 PM 27.64 81.752 0.351 8.38 0.62 7.78
8/14/2021 4:00:00 PM 27.64 81.752 0.351 8.38 0.63 7.76
8/14/2021 4:15:00 PM 27.63 81.734 0.351 8.38 0.64 7.73
8/14/2021 4:30:00 PM 27.62 81.716 0.351 8.37 0.63 7.71
8/14/2021 4:45:00 PM 27.61 81.698 0.351 8.36 0.56 7.67
8/14/2021 5:00:00 PM 27.6 81.68 0.351 8.36 0.6 7.66
8/14/2021 5:15:00 PM 27.59 81.662 0.351 8.37 0.6 7.67
8/14/2021 5:30:00 PM 27.59 81.662 0.351 8.36 0.62 7.63
8/14/2021 5:45:00 PM 27.58 81.644 0.351 8.37 0.58 7.6
8/14/2021 6:00:00 PM 27.58 81.644 0.351 8.35 0.56 7.59
8/14/2021 6:15:00 PM 27.57 81.626 0.351 8.35 0.55 7.54
8/14/2021 6:30:00 PM 27.56 81.608 0.351 8.35 0.64 7.49
8/14/2021 6:45:00 PM 27.55 81.59 0.351 8.35 0.55 7.45
8/14/2021 7:00:00 PM 27.54 81.57201 0.351 8.35 0.57 7.45
8/14/2021 7:15:00 PM 27.52 81.536 0.351 8.33 0.58 7.42
8/14/2021 7:30:00 PM 27.51 81.518 0.351 8.34 0.6 7.39
8/14/2021 7:45:00 PM 27.5 81.5 0.351 8.34 0.65 7.41
8/14/2021 8:00:00 PM 27.5 81.5 0.351 8.33 0.57 7.38
8/14/2021 8:15:00 PM 27.49 81.482 0.351 8.32 0.54 7.35
8/14/2021 8:30:00 PM 27.48 81.464 0.351 8.32 0.65 7.28
8/14/2021 8:45:00 PM 27.47 81.446 0.351 8.32 0.55 7.27
8/14/2021 9:00:00 PM 27.46 81.42799 0.351 8.32 0.61 7.25
8/14/2021 9:15:00 PM 27.45 81.41 0.351 8.32 0.64 7.26
8/14/2021 9:30:00 PM 27.43 81.374 0.351 8.31 0.58 7.22
8/14/2021 9:45:00 PM 27.42 81.356 0.351 8.3 0.57 7.19
8/14/2021 10:00:00 PM 27.42 81.356 0.351 8.3 0.55 7.19
8/14/2021 10:15:00 PM 27.39 81.302 0.352 8.29 0.58 7.11
8/14/2021 10:30:00 PM 27.38 81.284 0.352 8.29 0.61 7.07
8/14/2021 10:45:00 PM 27.36 81.248 0.352 8.28 0.56 7.06
8/14/2021 11:00:00 PM 27.36 81.248 0.352 8.28 0.64 7.04
8/14/2021 11:15:00 PM 27.35 81.23 0.352 8.26 0.6 6.97
8/14/2021 11:30:00 PM 27.34 81.212 0.352 8.27 0.61 6.97
8/14/2021 11:45:00 PM 27.33 81.194 0.352 8.27 0.65 6.93
8/15/2021 12:00:00 AM 27.32 81.176 0.352 8.26 0.59 6.92
8/15/2021 12:15:00 AM 27.31 81.158 0.352 8.25 0.61 6.86
8/15/2021 12:30:00 AM 27.3 81.14 0.352 8.24 0.62 6.84
8/15/2021 12:45:00 AM 27.29 81.122 0.352 8.24 0.61 6.81
8/15/2021 1:00:00 AM 27.26 81.068 0.352 8.24 0.59 6.77
8/15/2021 1:15:00 AM 27.26 81.068 0.352 8.23 0.64 6.75
8/15/2021 1:30:00 AM 27.25 81.05 0.352 8.23 0.63 6.73
8/15/2021 1:45:00 AM 27.23 81.014 0.352 8.23 0.62 6.72
8/15/2021 2:00:00 AM 27.21 80.978 0.352 8.22 0.65 6.68
8/15/2021 2:15:00 AM 27.2 80.96 0.352 8.22 0.64 6.65
8/15/2021 2:30:00 AM 27.19 80.942 0.352 8.21 0.65 6.63
8/15/2021 2:45:00 AM 27.18 80.924 0.352 8.21 0.6 6.59
8/15/2021 3:00:00 AM 27.16 80.888 0.352 8.19 0.61 6.56
8/15/2021 3:15:00 AM 27.15 80.87 0.352 8.19 0.67 6.53
8/15/2021 3:30:00 AM 27.13 80.834 0.352 8.18 0.63 6.49
8/15/2021 3:45:00 AM 27.13 80.834 0.352 8.18 0.63 6.45
8/15/2021 4:00:00 AM 27.1 80.78 0.352 8.17 0.62 6.44
8/15/2021 4:15:00 AM 27.09 80.762 0.352 8.17 0.67 6.41
8/15/2021 4:30:00 AM 26.44 79.592 0 7.85 0.85 8.39
8/15/2021 4:45:00 AM 25.8 78.44 0 7.69 0.91 8.55
8/15/2021 5:00:00 AM 25.55 77.99 0 7.66 0.64 8.6
8/15/2021 5:15:00 AM 24.65 76.37 0 7.69 0.67 8.74
8/15/2021 5:30:00 AM 24.16 75.488 0 7.6 0.64 8.81
8/15/2021 5:45:00 AM 24.18 75.524 0 7.58 0.67 8.8
8/15/2021 6:00:00 AM 23.96 75.128 0 7.6 0.66 8.85
8/15/2021 6:15:00 AM 23.83 74.894 0 7.65 0.72 8.9
8/15/2021 6:30:00 AM 23.73 74.714 0 7.67 0.67 8.91
8/15/2021 6:45:00 AM 23.68 74.624 0 7.7 0.65 8.93
8/15/2021 7:00:00 AM 23.71 74.67799 0 7.7 0.68 8.93
8/15/2021 7:15:00 AM 23.78 74.804 0 7.72 0.71 8.93
8/15/2021 7:30:00 AM 23.86 74.948 0 7.72 0.68 8.91
8/15/2021 7:45:00 AM 23.93 75.074 0 7.72 0.66 8.9
8/15/2021 8:00:00 AM 23.99 75.182 0 7.74 0.68 8.89
8/15/2021 8:15:00 AM 24.02 75.236 0 7.75 0.68 8.89
8/15/2021 8:30:00 AM 23.99 75.182 0 7.77 0.69 8.89
8/15/2021 8:45:00 AM 24 75.2 0 7.78 0.66 8.9
8/15/2021 9:00:00 AM 24.05 75.29 0 7.79 0.7 8.89
8/15/2021 9:15:00 AM 24.08 75.344 0 7.79 0.73 8.88
8/15/2021 9:30:00 AM 24.12 75.416 0 7.78 0.71 8.87
8/15/2021 9:45:00 AM 24.17 75.506 0 7.77 0.73 8.86
8/15/2021 10:00:00 AM 24.21 75.578 0 7.78 0.67 8.86
8/15/2021 10:15:00 AM 24.19 75.542 0 7.79 0.7 8.86
8/15/2021 10:30:00 AM 24.13 75.434 0 7.81 0.71 8.87
8/15/2021 10:45:00 AM 24.07 75.326 0 7.82 0.72 8.89
8/15/2021 11:00:00 AM 24.02 75.236 0 7.79 0.72 8.88
8/15/2021 11:15:00 AM 24.01 75.218 0 7.81 0.7 8.89
8/15/2021 11:30:00 AM 24.02 75.236 0 7.83 0.71 8.89
8/15/2021 11:45:00 AM 24.02 75.236 0 7.84 0.75 8.89
8/15/2021 12:00:00 PM 24.03 75.254 0 7.81 0.66 8.87
8/15/2021 12:15:00 PM 24.05 75.29 0 7.82 0.73 8.87
8/15/2021 12:30:00 PM 26.43 79.574 0.353 8.69 1.48 9.63
8/15/2021 12:45:00 PM 26.72 80.096 0.352 8.69 1.12 9.62
8/15/2021 1:00:00 PM 26.78 80.204 0.353 8.7 0.96 9.6
8/15/2021 1:15:00 PM 26.8 80.24 0.353 8.67 1.06 9.55
8/15/2021 1:30:00 PM 26.81 80.258 0.353 8.68 0.96 9.51
8/15/2021 1:45:00 PM 26.81 80.258 0.353 8.68 0.92 9.44
8/15/2021 2:00:00 PM 26.81 80.258 0.353 8.67 0.81 9.41
8/15/2021 2:15:00 PM 26.81 80.258 0.353 8.67 0.75 9.37
8/15/2021 2:30:00 PM 26.8 80.24 0.353 8.66 0.84 9.31
8/15/2021 2:45:00 PM 26.79 80.222 0.353 8.66 0.81 9.27
8/15/2021 3:00:00 PM 26.79 80.222 0.353 8.65 0.7 9.23
8/15/2021 3:15:00 PM 26.78 80.204 0.353 8.65 0.73 9.2
8/15/2021 3:30:00 PM 26.77 80.186 0.353 8.64 0.7 9.17
8/15/2021 3:45:00 PM 26.76 80.168 0.353 8.64 0.71 9.14
8/15/2021 4:00:00 PM 26.76 80.168 0.353 8.64 0.68 9.11
8/15/2021 4:15:00 PM 26.75 80.15 0.353 8.62 0.63 9.08
8/15/2021 4:30:00 PM 26.75 80.15 0.353 8.62 0.71 9.06
8/15/2021 4:45:00 PM 26.74 80.132 0.353 8.63 0.68 9.03
8/15/2021 5:00:00 PM 26.73 80.114 0.353 8.62 0.66 8.98
8/15/2021 5:15:00 PM 26.71 80.078 0.353 8.62 0.71 8.95
8/15/2021 5:30:00 PM 26.71 80.078 0.353 8.61 0.65 8.93
8/15/2021 5:45:00 PM 26.7 80.06 0.353 8.6 0.65 8.88
8/15/2021 6:00:00 PM 26.7 80.06 0.353 8.6 0.61 8.85
8/15/2021 6:15:00 PM 26.68 80.024 0.353 8.6 0.65 8.85
8/15/2021 6:30:00 PM 26.67 80.006 0.353 8.59 0.6 8.8
8/15/2021 6:45:00 PM 26.67 80.006 0.354 8.58 0.63 8.78
8/15/2021 7:00:00 PM 26.66 79.988 0.353 8.58 0.63 8.75
8/15/2021 7:15:00 PM 26.64 79.952 0.353 8.58 0.64 8.71
8/15/2021 7:30:00 PM 26.63 79.934 0.354 8.58 0.61 8.68
8/15/2021 7:45:00 PM 26.64 79.952 0.354 8.57 0.7 8.63
8/15/2021 8:00:00 PM 26.64 79.952 0.354 8.57 0.61 8.61
8/15/2021 8:15:00 PM 26.61 79.898 0.354 8.56 0.68 8.6
8/15/2021 8:30:00 PM 26.61 79.898 0.354 8.56 0.68 8.56
8/15/2021 8:45:00 PM 26.59 79.862 0.354 8.55 0.63 8.51
8/15/2021 9:00:00 PM 26.58 79.844 0.354 8.54 0.62 8.48
8/15/2021 9:15:00 PM 26.58 79.844 0.354 8.54 0.71 8.46
8/15/2021 9:30:00 PM 26.58 79.844 0.354 8.54 0.64 8.43
8/15/2021 9:45:00 PM 26.56 79.808 0.354 8.53 0.6 8.4
8/15/2021 10:00:00 PM 26.55 79.79 0.354 8.53 0.6 8.36
8/15/2021 10:15:00 PM 26.54 79.772 0.354 8.52 0.6 8.3
8/15/2021 10:30:00 PM 26.53 79.754 0.354 8.51 0.63 8.27
8/15/2021 10:45:00 PM 26.53 79.754 0.354 8.5 0.64 8.24
8/15/2021 11:00:00 PM 26.52 79.736 0.354 8.49 0.62 8.21
8/15/2021 11:15:00 PM 26.51 79.718 0.354 8.5 0.64 8.17
8/15/2021 11:30:00 PM 26.5 79.7 0.354 8.49 0.66 8.13
8/15/2021 11:45:00 PM 26.5 79.7 0.354 8.48 0.67 8.11
8/16/2021 12:00:00 AM 26.49 79.682 0.354 8.45 0.64 8.08
8/16/2021 12:15:00 AM 26.47 79.646 0.354 8.47 0.65 8.04
8/16/2021 12:30:00 AM 26.49 79.682 0.354 8.46 0.71 7.99
8/16/2021 12:45:00 AM 26.46 79.628 0.354 8.46 0.68 7.97
8/16/2021 1:00:00 AM 26.46 79.628 0.354 8.45 0.66 7.93
8/16/2021 1:15:00 AM 26.44 79.592 0.354 8.44 0.62 7.91
8/16/2021 1:30:00 AM 26.44 79.592 0.354 8.44 0.7 7.88
8/16/2021 1:45:00 AM 26.43 79.574 0.355 8.43 0.73 7.84
8/16/2021 2:00:00 AM 26.42 79.556 0.355 8.43 0.71 7.82
8/16/2021 2:15:00 AM 26.41 79.538 0.355 8.42 0.68 7.78
8/16/2021 2:30:00 AM 26.4 79.52 0.355 8.41 0.68 7.74
8/16/2021 2:45:00 AM 26.39 79.502 0.355 8.41 0.78 7.73
8/16/2021 3:00:00 AM 26.38 79.484 0.355 8.4 0.71 7.69
8/16/2021 3:15:00 AM 26.37 79.466 0.355 8.4 0.74 7.65
8/16/2021 3:30:00 AM 26.36 79.448 0.355 8.39 0.76 7.56
8/16/2021 3:45:00 AM 26.36 79.448 0.355 8.38 0.82 7.57
8/16/2021 4:00:00 AM 26.34 79.412 0.355 8.35 0.8 7.53
8/16/2021 4:15:00 AM 26.33 79.394 0.355 8.36 0.72 7.49
8/16/2021 4:30:00 AM 26.34 79.412 0.355 8.35 0.81 7.45
8/16/2021 4:45:00 AM 26.32 79.376 0.355 8.34 0.8 7.4
8/16/2021 5:00:00 AM 25.32 77.576 0 7.82 0.62 8.62
8/16/2021 5:15:00 AM 24.68 76.424 0 7.8 0.61 8.75
8/16/2021 5:30:00 AM 24.57 76.226 0 7.68 0.7 8.73
8/16/2021 5:45:00 AM 24.2 75.56 0 7.6 0.61 8.75
8/16/2021 6:00:00 AM 24 75.2 0 7.68 0.64 8.83
8/16/2021 6:15:00 AM 23.9 75.02 0 7.7 0.66 8.87
8/16/2021 6:30:00 AM 24 75.2 0 7.72 0.66 8.86
8/16/2021 6:45:00 AM 23.99 75.182 0 7.71 0.69 8.87
8/16/2021 7:00:00 AM 23.97 75.146 0 7.72 0.64 8.88
8/16/2021 7:15:00 AM 23.99 75.182 0 7.74 0.66 8.88
8/16/2021 7:30:00 AM 24.03 75.254 0 7.73 0.62 8.87
8/16/2021 7:45:00 AM 24.09 75.362 0 7.75 0.66 8.86
8/16/2021 8:00:00 AM 24.15 75.47 0 7.75 0.72 8.85
8/16/2021 8:15:00 AM 24.17 75.506 0 7.75 0.67 8.84
8/16/2021 8:30:00 AM 24.21 75.578 0 7.76 0.73 8.84
8/16/2021 8:45:00 AM 24.21 75.578 0 7.77 0.62 8.84
8/16/2021 9:00:00 AM 24.19 75.542 0 7.79 0.67 8.84
8/16/2021 9:15:00 AM 24.17 75.506 0 7.79 0.66 8.84
8/16/2021 9:30:00 AM 24.13 75.434 0 7.81 0.67 8.85
8/16/2021 9:45:00 AM 24.1 75.38 0 7.83 0.65 8.86
8/16/2021 10:00:00 AM 24.08 75.344 0 7.84 0.75 8.87
8/16/2021 10:15:00 AM 24.08 75.344 0 7.86 0.7 8.87
8/16/2021 10:30:00 AM 24.08 75.344 0 7.86 0.73 8.87
8/16/2021 10:45:00 AM 24.09 75.362 0 7.88 0.81 8.87
8/16/2021 11:00:00 AM 24.11 75.398 0 7.87 0.69 8.87
8/16/2021 11:15:00 AM 24.13 75.434 0 7.88 0.67 8.86
8/16/2021 11:30:00 AM 24.15 75.47 0 7.88 0.71 8.86
8/16/2021 11:45:00 AM 24.16 75.488 0 7.89 0.7 8.85
8/16/2021 12:00:00 PM 24.18 75.524 0 7.89 0.71 8.85
8/16/2021 12:15:00 PM 24.19 75.542 0 7.89 0.74 8.85
8/16/2021 12:30:00 PM 24.2 75.56 0 7.9 0.68 8.84
8/16/2021 12:45:00 PM 24.22 75.596 0 7.89 0.79 8.84
8/16/2021 1:00:00 PM 24.24 75.632 0 7.88 0.67 8.84
8/16/2021 1:15:00 PM 24.25 75.65 0 7.89 0.71 8.84
8/16/2021 1:30:00 PM 24.27 75.686 0 7.88 0.71 8.83
8/16/2021 1:45:00 PM 24.28 75.704 0 7.88 0.66 8.83
8/16/2021 2:00:00 PM 24.3 75.74 0 7.88 0.66 8.82
8/16/2021 2:15:00 PM 24.35 75.83 0 7.9 117.9 8.85
8/16/2021 2:30:00 PM 26.54 79.772 0.346 8.76 1.25 9.6
8/16/2021 2:45:00 PM 26.6 79.88 0.346 8.76 1.07 9.57
8/16/2021 3:00:00 PM 26.61 79.898 0.346 8.75 1.19 9.54
8/16/2021 3:15:00 PM 26.62 79.916 0.346 8.74 1.02 9.49
8/16/2021 3:30:00 PM 26.63 79.934 0.346 8.74 0.89 9.43
8/16/2021 3:45:00 PM 26.63 79.934 0.346 8.73 0.83 9.36
8/16/2021 4:00:00 PM 26.63 79.934 0.346 8.72 0.77 9.28
8/16/2021 4:15:00 PM 26.62 79.916 0.346 8.71 0.75 9.22
8/16/2021 4:30:00 PM 26.61 79.898 0.347 8.7 0.74 9.15
8/16/2021 4:45:00 PM 26.62 79.916 0.347 8.7 0.62 9.12
8/16/2021 5:00:00 PM 26.6 79.88 0.347 8.7 0.68 9.1
8/16/2021 5:15:00 PM 26.59 79.862 0.347 8.7 0.68 9.07
8/16/2021 5:30:00 PM 26.59 79.862 0.347 8.69 0.64 9.03
8/16/2021 5:45:00 PM 26.58 79.844 0.347 8.69 0.67 9.01
8/16/2021 6:00:00 PM 26.58 79.844 0.347 8.69 0.62 8.96
8/16/2021 6:15:00 PM 26.57 79.826 0.347 8.68 0.68 8.96
8/16/2021 6:30:00 PM 26.56 79.808 0.347 8.67 0.65 8.92
8/16/2021 6:45:00 PM 26.55 79.79 0.347 8.66 0.6 8.89
8/16/2021 7:00:00 PM 26.55 79.79 0.347 8.67 0.59 8.87
8/16/2021 7:15:00 PM 26.54 79.772 0.347 8.66 0.62 8.82
8/16/2021 7:30:00 PM 26.53 79.754 0.347 8.66 0.62 8.8
8/16/2021 7:45:00 PM 26.52 79.736 0.347 8.65 0.61 8.75
8/16/2021 8:00:00 PM 26.52 79.736 0.347 8.65 0.6 8.73
8/16/2021 8:15:00 PM 26.51 79.718 0.347 8.63 0.57 8.7
8/16/2021 8:30:00 PM 26.5 79.7 0.347 8.62 0.59 8.67
8/16/2021 8:45:00 PM 26.5 79.7 0.347 8.62 0.59 8.65
8/16/2021 9:00:00 PM 26.5 79.7 0.347 8.62 0.6 8.63
8/16/2021 9:15:00 PM 26.49 79.682 0.347 8.63 0.55 8.59
8/16/2021 9:30:00 PM 26.48 79.664 0.347 8.62 0.58 8.56
8/16/2021 9:45:00 PM 26.47 79.646 0.347 8.61 0.63 8.52
8/16/2021 10:00:00 PM 26.47 79.646 0.347 8.62 0.59 8.52
8/16/2021 10:15:00 PM 26.46 79.628 0.347 8.61 0.56 8.47
8/16/2021 10:30:00 PM 26.46 79.628 0.347 8.61 0.57 8.46
8/16/2021 10:45:00 PM 26.45 79.61 0.347 8.6 0.6 8.41
8/16/2021 11:00:00 PM 26.44 79.592 0.347 8.6 0.59 8.4
8/16/2021 11:15:00 PM 26.44 79.592 0.347 8.6 0.62 8.39
8/16/2021 11:30:00 PM 26.42 79.556 0.347 8.59 0.57 8.36
8/16/2021 11:45:00 PM 26.42 79.556 0.347 8.6 0.58 8.33
8/17/2021 12:00:00 AM 26.41 79.538 0.347 8.58 0.58 8.32
8/17/2021 12:15:00 AM 26.4 79.52 0.347 8.58 0.59 8.28
8/17/2021 12:30:00 AM 26.4 79.52 0.347 8.57 0.59 8.25
8/17/2021 12:45:00 AM 26.39 79.502 0.347 8.57 0.63 8.22
8/17/2021 1:00:00 AM 26.39 79.502 0.347 8.57 0.58 8.2
8/17/2021 1:15:00 AM 26.38 79.484 0.348 8.56 0.6 8.16
8/17/2021 1:30:00 AM 26.37 79.466 0.348 8.56 0.57 8.13
8/17/2021 1:45:00 AM 26.36 79.448 0.348 8.56 0.56 8.12
8/17/2021 2:00:00 AM 26.35 79.43 0.348 8.55 0.59 8.08
8/17/2021 2:15:00 AM 26.35 79.43 0.348 8.54 0.57 8.04
8/17/2021 2:30:00 AM 26.34 79.412 0.348 8.53 0.57 8.03
8/17/2021 2:45:00 AM 26.34 79.412 0.348 8.53 0.61 8.01
8/17/2021 3:00:00 AM 26.33 79.394 0.348 8.53 0.59 8
8/17/2021 3:15:00 AM 26.32 79.376 0.348 8.53 0.58 7.94
8/17/2021 3:30:00 AM 26.32 79.376 0.348 8.52 0.56 7.93
8/17/2021 3:45:00 AM 26.31 79.358 0.348 8.52 0.68 7.91
8/17/2021 4:00:00 AM 26.3 79.34 0.348 8.51 0.61 7.88
8/17/2021 4:15:00 AM 26.3 79.34 0.348 8.51 0.61 7.84
8/17/2021 4:30:00 AM 26.3 79.34 0.348 8.5 0.56 7.82
8/17/2021 4:45:00 AM 26.29 79.32201 0.348 8.5 0.54 7.8
8/17/2021 5:00:00 AM 26.28 79.304 0.348 8.5 0.59 7.77
8/17/2021 5:15:00 AM 25.8 78.44 0 7.84 0.54 8.52
8/17/2021 5:30:00 AM 25.46 77.828 0 7.77 0.6 8.6
8/17/2021 5:45:00 AM 25.4 77.72 0 7.78 0.66 8.61
8/17/2021 6:00:00 AM 25.33 77.594 0 7.74 0.65 8.62
8/17/2021 6:15:00 AM 25.26 77.468 0 7.75 0.59 8.65
8/17/2021 6:30:00 AM 25.21 77.378 0 7.75 0.62 8.66
8/17/2021 6:45:00 AM 25.16 77.288 0 7.75 0.6 8.66
8/17/2021 7:00:00 AM 25.12 77.216 0 7.76 0.61 8.66
8/17/2021 7:15:00 AM 24.97 76.946 0 7.69 0.67 8.67
8/17/2021 7:30:00 AM 24.73 76.514 0 7.73 0.63 8.71
8/17/2021 7:45:00 AM 24.58 76.244 0 7.73 0.65 8.74
8/17/2021 8:00:00 AM 24.48 76.064 0 7.77 0.72 8.77
8/17/2021 8:15:00 AM 24.41 75.938 0 7.78 0.66 8.78
8/17/2021 8:30:00 AM 24.36 75.848 0 7.79 0.71 8.8
8/17/2021 8:45:00 AM 24.34 75.812 0 7.8 0.68 8.81
8/17/2021 9:00:00 AM 24.33 75.794 0 7.79 0.67 8.8
8/17/2021 9:15:00 AM 24.32 75.776 0 7.81 0.7 8.81
8/17/2021 9:30:00 AM 24.32 75.776 0 7.82 0.7 8.81
8/17/2021 9:45:00 AM 24.32 75.776 0 7.83 0.74 8.82
8/17/2021 10:00:00 AM 24.32 75.776 0 7.84 0.69 8.82
8/17/2021 10:15:00 AM 24.33 75.794 0 7.8 0.66 8.8
8/17/2021 10:30:00 AM 24.33 75.794 0 7.83 0.69 8.81
8/17/2021 10:45:00 AM 24.34 75.812 0 7.84 0.66 8.81
8/17/2021 11:00:00 AM 24.35 75.83 0 7.85 0.64 8.81
8/17/2021 11:15:00 AM 24.36 75.848 0 7.86 0.72 8.8
8/17/2021 11:30:00 AM 24.38 75.884 0 7.87 0.7 8.81
8/17/2021 11:45:00 AM 24.39 75.902 0 7.87 0.69 8.8
8/17/2021 12:00:00 PM 24.41 75.938 0 7.88 0.71 8.8
8/17/2021 12:15:00 PM 24.42 75.956 0 7.88 0.7 8.8
8/17/2021 12:30:00 PM 24.44 75.992 0 7.89 0.72 8.8
8/17/2021 12:45:00 PM 24.46 76.028 0 7.89 0.75 8.8
8/17/2021 1:00:00 PM 24.47 76.046 0 7.88 0.67 8.79
8/17/2021 1:15:00 PM 24.49 76.082 0 7.88 0.73 8.79
8/17/2021 1:30:00 PM 24.5 76.1 0 7.88 0.67 8.78
8/17/2021 1:45:00 PM 24.52 76.136 0 7.85 0.72 8.77
8/17/2021 2:00:00 PM 24.54 76.172 0 7.85 0.71 8.77
8/17/2021 2:15:00 PM 24.56 76.208 0 7.86 0.73 8.77
8/17/2021 2:30:00 PM 26.06 78.908 0.344 8.56 1.24 8.81
8/17/2021 2:45:00 PM 26.16 79.088 0.344 8.54 0.96 8.8
8/17/2021 3:00:00 PM 26.19 79.142 0.344 8.54 0.96 8.8
8/17/2021 3:15:00 PM 26.2 79.16 0.344 8.54 1.05 8.73
8/17/2021 3:30:00 PM 26.2 79.16 0.344 8.52 0.88 8.69
8/17/2021 3:45:00 PM 26.2 79.16 0.344 8.51 0.83 8.63
8/17/2021 4:00:00 PM 26.2 79.16 0.344 8.5 0.82 8.56
8/17/2021 4:15:00 PM 26.2 79.16 0.344 8.49 0.83 8.5
8/17/2021 4:30:00 PM 26.2 79.16 0.344 8.49 0.76 8.46
8/17/2021 4:45:00 PM 26.2 79.16 0.344 8.48 0.66 8.44
8/17/2021 5:00:00 PM 26.19 79.142 0.344 8.48 0.71 8.4
8/17/2021 5:15:00 PM 26.19 79.142 0.344 8.47 0.64 8.36
8/17/2021 5:30:00 PM 26.19 79.142 0.344 8.46 0.69 8.32
8/17/2021 5:45:00 PM 26.19 79.142 0.345 8.46 0.66 8.29
8/17/2021 6:00:00 PM 26.18 79.124 0.345 8.45 0.66 8.27
8/17/2021 6:15:00 PM 26.17 79.106 0.345 8.45 0.62 8.22
8/17/2021 6:30:00 PM 26.18 79.124 0.345 8.45 0.59 8.19
8/17/2021 6:45:00 PM 26.17 79.106 0.345 8.43 0.59 8.16
8/17/2021 7:00:00 PM 26.17 79.106 0.345 8.44 0.56 8.15
8/17/2021 7:15:00 PM 26.17 79.106 0.345 8.43 0.52 8.12
8/17/2021 7:30:00 PM 26.16 79.088 0.345 8.43 0.53 8.08
8/17/2021 7:45:00 PM 26.15 79.07 0.345 8.42 0.58 8.05
8/17/2021 8:00:00 PM 26.15 79.07 0.345 8.41 0.53 8.03
8/17/2021 8:15:00 PM 26.15 79.07 0.345 8.41 0.52 7.99
8/17/2021 8:30:00 PM 26.14 79.052 0.345 8.41 0.52 7.96
8/17/2021 8:45:00 PM 26.13 79.034 0.345 8.41 0.54 7.93
8/17/2021 9:00:00 PM 26.13 79.034 0.345 8.4 0.57 7.92
8/17/2021 9:15:00 PM 26.12 79.016 0.345 8.4 0.51 7.9
8/17/2021 9:30:00 PM 26.12 79.016 0.345 8.4 0.52 7.86
8/17/2021 9:45:00 PM 26.11 78.998 0.345 8.39 0.5 7.83
8/17/2021 10:00:00 PM 26.1 78.98 0.345 8.39 0.49 7.83
8/17/2021 10:15:00 PM 26.1 78.98 0.345 8.38 0.52 7.8
8/17/2021 10:30:00 PM 26.1 78.98 0.345 8.38 0.47 7.77
8/17/2021 10:45:00 PM 26.09 78.962 0.345 8.38 0.51 7.74
8/17/2021 11:00:00 PM 26.09 78.962 0.345 8.37 0.49 7.72
8/17/2021 11:15:00 PM 26.09 78.962 0.345 8.37 0.52 7.7
8/17/2021 11:30:00 PM 26.07 78.926 0.345 8.36 0.54 7.66
8/17/2021 11:45:00 PM 26.07 78.926 0.345 8.36 0.48 7.64
8/18/2021 12:00:00 AM 26.06 78.908 0.345 8.36 0.49 7.63
8/18/2021 12:15:00 AM 26.06 78.908 0.345 8.36 0.49 7.61
8/18/2021 12:30:00 AM 26.06 78.908 0.345 8.36 0.46 7.59
8/18/2021 12:45:00 AM 26.05 78.89 0.345 8.35 0.46 7.57
8/18/2021 1:00:00 AM 26.05 78.89 0.345 8.35 0.48 7.55
8/18/2021 1:15:00 AM 26.04 78.872 0.345 8.35 0.47 7.52
8/18/2021 1:30:00 AM 26.04 78.872 0.345 8.34 0.48 7.47
8/18/2021 1:45:00 AM 26.03 78.854 0.345 8.34 0.49 7.47
8/18/2021 2:00:00 AM 26.03 78.854 0.345 8.33 0.47 7.44
8/18/2021 2:15:00 AM 26.03 78.854 0.345 8.33 0.49 7.4
8/18/2021 2:30:00 AM 26.01 78.818 0.345 8.31 0.51 7.39
8/18/2021 2:45:00 AM 26.01 78.818 0.345 8.33 0.45 7.38
8/18/2021 3:00:00 AM 26.01 78.818 0.345 8.3 0.48 7.33
8/18/2021 3:15:00 AM 26 78.8 0.346 8.3 0.53 7.29
8/18/2021 3:30:00 AM 25.99 78.782 0.346 8.31 0.46 7.27
8/18/2021 3:45:00 AM 25.99 78.782 0.346 8.3 0.47 7.24
8/18/2021 4:00:00 AM 25.98 78.764 0.346 8.29 0.47 7.2
8/18/2021 4:15:00 AM 25.98 78.764 0.346 8.3 0.47 7.18
8/18/2021 4:30:00 AM 25.98 78.764 0.346 8.28 0.44 7.17
8/18/2021 4:45:00 AM 25.97 78.746 0.346 8.29 0.46 7.15
8/18/2021 5:00:00 AM 25.96 78.728 0.346 8.28 0.44 7.13
8/18/2021 5:15:00 AM 25.72 78.296 0 7.75 0.51 8.54
8/18/2021 5:30:00 AM 25.41 77.738 0 7.58 0.59 8.54
8/18/2021 5:45:00 AM 25.1 77.18 0 7.46 0.65 8.61
8/18/2021 6:00:00 AM 24.9 76.82 0 7.56 0.64 8.68
8/18/2021 6:15:00 AM 24.93 76.874 0 7.57 0.68 8.69
8/18/2021 6:30:00 AM 24.88 76.784 0 7.61 0.64 8.69
8/18/2021 6:45:00 AM 24.81 76.658 0 7.63 0.6 8.72
8/18/2021 7:00:00 AM 24.76 76.568 0 7.63 0.64 8.71
8/18/2021 7:15:00 AM 24.72 76.496 0 7.66 0.7 8.73
8/18/2021 7:30:00 AM 24.69 76.442 0 7.67 0.68 8.73
8/18/2021 7:45:00 AM 24.66 76.388 0 7.67 0.7 8.73
8/18/2021 8:00:00 AM 24.64 76.352 0 7.69 0.71 8.74
8/18/2021 8:15:00 AM 24.63 76.334 0 7.71 0.7 8.75
8/18/2021 8:30:00 AM 24.61 76.298 0 7.72 0.72 8.75
8/18/2021 8:45:00 AM 24.6 76.28 0 7.71 0.71 8.76
8/18/2021 9:00:00 AM 24.59 76.262 0 7.7 0.7 8.75
8/18/2021 9:15:00 AM 24.58 76.244 0 7.73 0.71 8.76
8/18/2021 9:30:00 AM 24.58 76.244 0 7.74 0.7 8.76
8/18/2021 9:45:00 AM 24.58 76.244 0 7.76 0.64 8.76
8/18/2021 10:00:00 AM 24.58 76.244 0 7.76 0.66 8.76
8/18/2021 10:15:00 AM 24.59 76.262 0 7.78 0.66 8.76
8/18/2021 10:30:00 AM 24.59 76.262 0 7.79 0.68 8.76
8/18/2021 10:45:00 AM 24.61 76.298 0 7.79 0.66 8.76
8/18/2021 11:00:00 AM 24.62 76.316 0 7.81 0.66 8.76
8/18/2021 11:15:00 AM 24.63 76.334 0 7.82 0.67 8.75
8/18/2021 11:30:00 AM 24.64 76.352 0 7.82 0.64 8.75
8/18/2021 11:45:00 AM 24.65 76.37 0 7.83 0.67 8.74
8/18/2021 12:00:00 PM 24.99 76.982 0 7.81 0.59 8.7
8/18/2021 12:15:00 PM 25.21 77.378 0 7.81 0.55 8.65
8/18/2021 12:30:00 PM 25.31 77.558 0 7.81 0.6 8.63
8/18/2021 12:45:00 PM 25.38 77.684 0 7.82 0.61 8.61
8/18/2021 1:00:00 PM 25.32 77.576 0 7.82 0.57 8.6
8/18/2021 1:15:00 PM 25.12 77.216 0 7.82 0.57 8.65
8/18/2021 1:30:00 PM 25.01 77.018 0 7.76 0.6 8.64
8/18/2021 1:45:00 PM 24.95 76.91 0 7.77 0.67 8.66
8/18/2021 2:00:00 PM 24.91 76.838 0 7.71 0.64 8.65
8/18/2021 2:15:00 PM 24.89 76.802 0 7.67 0.6 8.64
8/18/2021 2:30:00 PM 26.17 79.106 0.349 8.23 1.06 8.63
8/18/2021 2:45:00 PM 26.24 79.232 0.349 8.26 1 8.57
8/18/2021 3:00:00 PM 26.26 79.268 0.349 8.3 0.85 8.57
8/18/2021 3:15:00 PM 26.26 79.268 0.348 8.3 0.91 8.53
8/18/2021 3:30:00 PM 26.27 79.286 0.348 8.29 0.8 8.48
8/18/2021 3:45:00 PM 26.27 79.286 0.348 8.3 0.86 8.45
8/18/2021 4:00:00 PM 26.27 79.286 0.348 8.3 0.79 8.37
8/18/2021 4:15:00 PM 26.27 79.286 0.348 8.3 0.7 8.33
8/18/2021 4:30:00 PM 26.27 79.286 0.348 8.3 0.7 8.3
8/18/2021 4:45:00 PM 26.27 79.286 0.349 8.31 0.7 8.27
8/18/2021 5:00:00 PM 26.27 79.286 0.348 8.3 0.73 8.22
8/18/2021 5:15:00 PM 26.27 79.286 0.348 8.29 0.67 8.19
8/18/2021 5:30:00 PM 26.26 79.268 0.349 8.3 0.69 8.16
8/18/2021 5:45:00 PM 26.26 79.268 0.349 8.3 0.7 8.14
8/18/2021 6:00:00 PM 26.25 79.25 0.348 8.3 0.62 8.14
8/18/2021 6:15:00 PM 26.25 79.25 0.349 8.3 0.65 8.11
8/18/2021 6:30:00 PM 26.25 79.25 0.349 8.31 0.66 8.08
8/18/2021 6:45:00 PM 26.24 79.232 0.349 8.3 0.75 8.05
8/18/2021 7:00:00 PM 26.24 79.232 0.349 8.31 0.65 8.02
8/18/2021 7:15:00 PM 26.23 79.214 0.349 8.31 0.75 8
8/18/2021 7:30:00 PM 26.23 79.214 0.349 8.3 0.61 7.96
8/18/2021 7:45:00 PM 26.22 79.196 0.349 8.3 0.61 7.96
8/18/2021 8:00:00 PM 26.22 79.196 0.349 8.3 0.58 7.94
8/18/2021 8:15:00 PM 26.21 79.17799 0.349 8.29 0.69 7.91
8/18/2021 8:30:00 PM 26.21 79.17799 0.348 8.3 0.55 7.87
8/18/2021 8:45:00 PM 26.2 79.16 0.349 8.29 0.62 7.89
8/18/2021 9:00:00 PM 26.2 79.16 0.349 8.29 0.58 7.84
8/18/2021 9:15:00 PM 26.19 79.142 0.349 8.3 0.6 7.8
8/18/2021 9:30:00 PM 26.19 79.142 0.349 8.29 0.64 7.78
8/18/2021 9:45:00 PM 26.18 79.124 0.349 8.27 0.6 7.78
8/18/2021 10:00:00 PM 26.18 79.124 0.349 8.28 0.74 7.76
8/18/2021 10:15:00 PM 26.17 79.106 0.349 8.29 0.58 7.73
8/18/2021 10:30:00 PM 26.17 79.106 0.349 8.27 0.64 7.6
8/18/2021 10:45:00 PM 26.16 79.088 0.349 8.25 0.6 7.63
8/18/2021 11:00:00 PM 26.16 79.088 0.349 8.25 0.62 7.57
8/18/2021 11:15:00 PM 26.15 79.07 0.349 8.25 0.61 7.53
8/18/2021 11:30:00 PM 26.15 79.07 0.349 8.24 0.61 7.51
8/18/2021 11:45:00 PM 26.14 79.052 0.349 8.24 0.65 7.48
8/19/2021 12:00:00 AM 26.14 79.052 0.349 8.23 0.65 7.45
8/19/2021 12:15:00 AM 26.13 79.034 0.349 8.23 0.63 7.39
8/19/2021 12:30:00 AM 26.13 79.034 0.349 8.22 0.74 7.36
8/19/2021 12:45:00 AM 26.12 79.016 0.349 8.23 0.65 7.37
8/19/2021 1:00:00 AM 26.12 79.016 0.349 8.23 0.66 7.36
8/19/2021 1:15:00 AM 26.11 78.998 0.349 8.21 0.62 7.33
8/19/2021 1:30:00 AM 26.11 78.998 0.349 8.23 0.63 7.3
8/19/2021 1:45:00 AM 26.1 78.98 0.349 8.2 0.72 7.23
8/19/2021 2:00:00 AM 26.09 78.962 0.349 8.21 0.61 7.22
8/19/2021 2:15:00 AM 26.09 78.962 0.349 8.2 0.69 7.22
8/19/2021 2:30:00 AM 26.08 78.944 0.349 8.19 0.68 7.17
8/19/2021 2:45:00 AM 26.08 78.944 0.349 8.18 0.71 7.14
8/19/2021 3:00:00 AM 26.08 78.944 0.349 8.18 0.66 7.14
8/19/2021 3:15:00 AM 26.07 78.926 0.349 8.18 0.73 7.14
8/19/2021 3:30:00 AM 26.06 78.908 0.349 8.18 0.64 7.1
8/19/2021 3:45:00 AM 26.06 78.908 0.349 8.18 0.67 7.08
8/19/2021 4:00:00 AM 26.05 78.89 0.349 8.18 0.73 7.06
8/19/2021 4:15:00 AM 26.05 78.89 0.349 8.19 0.66 7.02
8/19/2021 4:30:00 AM 26.04 78.872 0.349 8.19 0.64 7.01
8/19/2021 4:45:00 AM 26.03 78.854 0.349 8.19 0.7 7.01
8/19/2021 5:00:00 AM 26.03 78.854 0.349 8.17 0.66 7.02
8/19/2021 5:15:00 AM 26.02 78.836 0.349 8.17 0.64 6.98
8/19/2021 5:30:00 AM 26.02 78.836 0.349 8.17 0.71 6.95
8/19/2021 5:45:00 AM 25.99 78.782 0.349 8.17 0.78 6.86
8/19/2021 6:00:00 AM 25.83 78.494 0.349 8.15 0.74 6.93
8/19/2021 6:15:00 AM 25.67 78.206 0.349 8.16 0.76 6.89
8/19/2021 6:30:00 AM 25.48 77.864 0.349 8.15 0.77 6.87
8/19/2021 6:45:00 AM 25.35 77.63 0.348 8.15 0.91 6.9
8/19/2021 7:00:00 AM 25.21 77.378 0.348 8.15 0.86 6.93
8/19/2021 7:15:00 AM 25.11 77.198 0.348 8.15 0.84 6.91
8/19/2021 7:30:00 AM 25.01 77.018 0.345 8.15 1.33 6.99
8/19/2021 7:45:00 AM 24.95 76.91 0.345 8.15 0.93 6.98
8/19/2021 8:00:00 AM 24.89 76.802 0.344 8.16 1.25 6.99
8/19/2021 8:15:00 AM 24.85 76.73 0.342 8.15 1.32 7.03
8/19/2021 8:30:00 AM 24.82 76.676 0.337 8.16 2.06 7.06
8/19/2021 8:45:00 AM 24.79 76.622 0.339 8.16 2.8 7.1
8/19/2021 9:00:00 AM 24.74 76.532 0.334 8.16 4.14 7.19
8/19/2021 9:15:00 AM 24.7 76.46 0.333 8.14 2.69 7.18
8/19/2021 9:30:00 AM 24.65 76.37 0.334 8.14 3.13 7.16
8/19/2021 9:45:00 AM 24.58 76.244 0.328 8.14 3.38 7.19
8/19/2021 10:00:00 AM 24.51 76.118 0.328 8.13 3.07 7.18
8/19/2021 10:15:00 AM 24.42 75.956 0.322 8.13 3.94 7.24
8/19/2021 10:30:00 AM 24.33 75.794 0.312 8.11 4.3 7.26
8/19/2021 10:45:00 AM 24.26 75.668 0.311 8.11 4.64 7.28
8/19/2021 11:00:00 AM 24.2 75.56 0.301 8.1 5.12 7.31
8/19/2021 11:15:00 AM 24.16 75.488 0.298 8.09 5.81 7.31
8/19/2021 11:30:00 AM 24.13 75.434 0.294 8.07 6.36 7.34
8/19/2021 11:45:00 AM 24.13 75.434 0.293 8.08 5.76 7.32
8/19/2021 12:00:00 PM 24.15 75.47 0.296 8.08 5.69 7.28
8/19/2021 12:15:00 PM 24.18 75.524 0.292 8.07 5.75 7.25
8/19/2021 12:30:00 PM 24.23 75.614 0.288 8.05 8.06 7.25
8/19/2021 12:45:00 PM 24.31 75.758 0.286 8.04 9.16 7.26
8/19/2021 1:00:00 PM 24.4 75.92 0.283 8.03 10.12 7.33
8/19/2021 1:15:00 PM 24.48 76.064 0.281 8.02 11.45 7.36
8/19/2021 1:30:00 PM 24.55 76.19 0.281 8.01 11.38 7.38
8/19/2021 1:45:00 PM 24.62 76.316 0.281 8.02 11.52 7.37
8/19/2021 2:00:00 PM 24.7 76.46 0.281 8.01 10.56 7.4
8/19/2021 2:15:00 PM 24.78 76.604 0.283 8.03 11.92 7.51
8/19/2021 2:30:00 PM 24.83 76.694 0.286 8.03 11.77 7.62
8/19/2021 2:45:00 PM 24.86 76.748 0.286 8.03 9.79 7.63
8/19/2021 3:00:00 PM 24.9 76.82 0.287 8.03 9.29 7.6
8/19/2021 3:15:00 PM 24.91 76.838 0.288 8.03 8.54 7.6
8/19/2021 3:30:00 PM 24.92 76.856 0.289 8.04 9.15 7.6
8/19/2021 3:45:00 PM 24.93 76.874 0.288 8.04 8.62 7.6
8/19/2021 4:00:00 PM 24.93 76.874 0.288 8.03 8.34 7.55
8/19/2021 4:15:00 PM 24.94 76.892 0.288 8.02 8.05 7.53
8/19/2021 4:30:00 PM 24.94 76.892 0.288 8.06 7.77 7.47
8/19/2021 4:45:00 PM 24.94 76.892 0.288 8.03 7.7 7.46
8/19/2021 5:00:00 PM 24.94 76.892 0.288 8.04 7.57 7.42
8/19/2021 5:15:00 PM 24.94 76.892 0.288 8.03 7.44 7.4
8/19/2021 5:30:00 PM 24.94 76.892 0.288 8.05 7.53 7.38
8/19/2021 5:45:00 PM 24.94 76.892 0.288 8.05 7.29 7.35
8/19/2021 6:00:00 PM 24.93 76.874 0.288 8.04 7.27 7.34
8/19/2021 6:15:00 PM 24.93 76.874 0.288 8.07 7.36 7.32
8/19/2021 6:30:00 PM 24.93 76.874 0.289 8.05 7.23 7.26
8/19/2021 6:45:00 PM 24.93 76.874 0.289 8.03 6.76 7.24
8/19/2021 7:00:00 PM 24.93 76.874 0.289 8.05 7.04 7.22
8/19/2021 7:15:00 PM 24.93 76.874 0.289 8.1 7 7.19
8/19/2021 7:30:00 PM 24.93 76.874 0.289 8.05 6.87 7.18
8/19/2021 7:45:00 PM 24.92 76.856 0.289 8.04 6.88 7.15
8/19/2021 8:00:00 PM 24.92 76.856 0.289 8.05 6.83 7.12
8/19/2021 8:15:00 PM 24.92 76.856 0.289 8.03 6.6 7.07
8/19/2021 8:30:00 PM 24.92 76.856 0.289 8.05 6.62 7.06
8/19/2021 8:45:00 PM 24.92 76.856 0.289 8.02 6.52 7.06
8/19/2021 9:00:00 PM 24.92 76.856 0.29 8.05 6.62 7.03
8/19/2021 9:15:00 PM 24.91 76.838 0.29 8.03 6.43 7
8/19/2021 9:30:00 PM 24.91 76.838 0.29 8.02 6.39 7
8/19/2021 9:45:00 PM 24.91 76.838 0.29 8.04 6.47 6.99
8/19/2021 10:00:00 PM 24.91 76.838 0.29 8.06 6.47 6.96
8/19/2021 10:15:00 PM 24.9 76.82 0.29 8.02 6.28 6.93
8/19/2021 10:30:00 PM 24.9 76.82 0.29 8.02 6.26 6.92
8/19/2021 10:45:00 PM 24.9 76.82 0.29 8.04 6.25 6.9
8/19/2021 11:00:00 PM 24.9 76.82 0.29 8.04 6.12 6.88
8/19/2021 11:15:00 PM 24.89 76.802 0.29 8.1 6.03 6.85
8/19/2021 11:30:00 PM 24.89 76.802 0.29 8.02 6.17 6.83
8/19/2021 11:45:00 PM 24.89 76.802 0.29 8.09 6.16 6.83
8/20/2021 12:00:00 AM 24.89 76.802 0.29 8.06 6.1 6.81
8/20/2021 12:15:00 AM 24.88 76.784 0.29 8.03 5.94 6.78
8/20/2021 12:30:00 AM 24.88 76.784 0.29 8.02 5.83 6.77
8/20/2021 12:45:00 AM 24.88 76.784 0.291 8.02 5.91 6.76
8/20/2021 1:00:00 AM 24.88 76.784 0.29 7.97 5.75 6.76
8/20/2021 1:15:00 AM 24.87 76.766 0.291 7.98 5.73 6.72
8/20/2021 1:30:00 AM 24.87 76.766 0.291 7.98 5.79 6.7
8/20/2021 1:45:00 AM 24.87 76.766 0.291 8.01 5.77 6.69
8/20/2021 2:00:00 AM 24.87 76.766 0.291 7.98 5.75 6.65
8/20/2021 2:15:00 AM 24.86 76.748 0.291 7.97 5.66 6.6
8/20/2021 2:30:00 AM 24.86 76.748 0.291 7.96 5.66 6.6
8/20/2021 2:45:00 AM 24.86 76.748 0.291 7.96 5.66 6.56
8/20/2021 3:00:00 AM 24.86 76.748 0.291 7.96 5.62 6.55
8/20/2021 3:15:00 AM 24.85 76.73 0.291 7.95 5.55 6.52
8/20/2021 3:30:00 AM 24.85 76.73 0.291 7.97 5.49 6.49
8/20/2021 3:45:00 AM 24.85 76.73 0.291 7.95 5.46 6.48
8/20/2021 4:00:00 AM 24.85 76.73 0.292 7.94 5.4 6.46
8/20/2021 4:15:00 AM 24.85 76.73 0.292 7.94 5.4 6.44
8/20/2021 4:30:00 AM 24.84 76.712 0.292 7.93 5.3 6.45
8/20/2021 4:45:00 AM 24.84 76.712 0.292 7.94 5.35 6.43
8/20/2021 5:00:00 AM 24.84 76.712 0.292 7.95 5.06 6.42
8/20/2021 5:15:00 AM 24.84 76.712 0.292 7.94 5.17 6.37
8/20/2021 5:30:00 AM 24.83 76.694 0.292 7.95 5.25 6.35
8/20/2021 5:45:00 AM 24.84 76.712 0.292 7.94 5.11 6.3
8/20/2021 6:00:00 AM 24.87 76.766 0.292 7.94 5.08 6.28
8/20/2021 6:15:00 AM 24.9 76.82 0.292 7.93 4.98 6.24
8/20/2021 6:30:00 AM 24.92 76.856 0.293 7.92 4.88 6.24
8/20/2021 6:45:00 AM 24.94 76.892 0.293 7.92 4.86 6.24
8/20/2021 7:00:00 AM 24.95 76.91 0.293 7.93 4.64 6.2
8/20/2021 7:15:00 AM 24.95 76.91 0.293 7.92 4.7 6.01
8/20/2021 7:30:00 AM 24.96 76.92799 0.295 7.93 4.65 6.12
8/20/2021 7:45:00 AM 24.97 76.946 0.295 7.92 4.59 6.11
8/20/2021 8:00:00 AM 24.98 76.964 0.294 7.92 4.41 6.06
8/20/2021 8:15:00 AM 24.99 76.982 0.296 7.92 4.31 6.09
8/20/2021 8:30:00 AM 25 77 0.296 7.92 4.34 6.07
8/20/2021 8:45:00 AM 25.02 77.036 0.296 7.92 4.27 6.1
8/20/2021 9:00:00 AM 25.03 77.054 0.298 7.93 4.2 6.15
8/20/2021 9:15:00 AM 25.05 77.09 0.298 7.92 3.94 6.14
8/20/2021 9:30:00 AM 25.08 77.144 0.301 7.93 4.01 6.13
8/20/2021 9:45:00 AM 25.11 77.198 0.3 7.93 3.95 6.18
8/20/2021 10:00:00 AM 25.14 77.252 0.302 7.93 3.83 6.25
8/20/2021 10:15:00 AM 25.16 77.288 0.303 7.93 3.78 6.36
8/20/2021 10:30:00 AM 25.19 77.342 0.305 7.94 3.63 6.4
8/20/2021 10:45:00 AM 25.22 77.396 0.308 7.95 3.65 6.56
8/20/2021 11:00:00 AM 25.25 77.45 0.309 7.97 3.38 6.65
8/20/2021 11:15:00 AM 25.27 77.486 0.312 7.99 3.37 6.67
8/20/2021 11:30:00 AM 25.28 77.504 0.315 8.02 3.32 6.83
8/20/2021 11:45:00 AM 25.29 77.522 0.316 8.02 3.27 6.88
8/20/2021 12:00:00 PM 25.29 77.522 0.321 8.05 2.9 7.02
8/20/2021 12:15:00 PM 25.29 77.522 0.321 8.06 2.69 7.17
8/20/2021 12:30:00 PM 25.28 77.504 0.323 8.07 2.78 7.29
8/20/2021 12:45:00 PM 25.28 77.504 0.326 8.08 2.71 7.31
8/20/2021 1:00:00 PM 25.28 77.504 0.324 8.08 2.57 7.35
8/20/2021 1:15:00 PM 25.28 77.504 0.324 8.08 2.61 7.29
8/20/2021 1:30:00 PM 25.27 77.486 0.325 8.08 2.44 7.25
8/20/2021 1:45:00 PM 25.26 77.468 0.332 8.09 2.14 7.53
8/20/2021 2:00:00 PM 25.21 77.378 0.338 8.05 2.66 7.6
8/20/2021 2:15:00 PM 25.15 77.27 0.336 8.04 2.54 7.56
8/20/2021 2:30:00 PM 25.11 77.198 0.334 8.04 2.24 7.54
8/20/2021 2:45:00 PM 25.08 77.144 0.333 8.02 2.32 7.54
8/20/2021 3:00:00 PM 25.07 77.126 0.33 8.01 2.31 7.52
8/20/2021 3:15:00 PM 25.06 77.108 0.328 8 2.3 7.47
8/20/2021 3:30:00 PM 25.06 77.108 0.328 7.99 2.19 7.46
8/20/2021 3:45:00 PM 25.05 77.09 0.327 7.98 2.01 7.42
8/20/2021 4:00:00 PM 25.05 77.09 0.327 7.97 2.02 7.4
8/20/2021 4:15:00 PM 25.05 77.09 0.327 7.96 1.89 7.33
8/20/2021 4:30:00 PM 25.05 77.09 0.327 7.95 1.89 7.3
8/20/2021 4:45:00 PM 25.05 77.09 0.327 7.95 1.68 7.24
8/20/2021 5:00:00 PM 25.05 77.09 0.327 7.96 1.76 7.21
8/20/2021 5:15:00 PM 25.04 77.07201 0.326 7.95 1.7 7.18
8/20/2021 5:30:00 PM 25.04 77.07201 0.326 7.94 1.81 7.15
8/20/2021 5:45:00 PM 25.04 77.07201 0.326 7.95 1.76 7.13
8/20/2021 6:00:00 PM 25.04 77.07201 0.326 7.95 1.73 7.11
8/20/2021 6:15:00 PM 25.04 77.07201 0.326 7.94 1.67 7.07
8/20/2021 6:30:00 PM 25.04 77.07201 0.326 7.92 1.7 7.03
8/20/2021 6:45:00 PM 25.04 77.07201 0.326 7.93 1.68 6.99
8/20/2021 7:00:00 PM 25.03 77.054 0.326 7.93 1.65 6.99
8/20/2021 7:15:00 PM 25.03 77.054 0.326 7.92 1.79 6.96
8/20/2021 7:30:00 PM 25.03 77.054 0.326 7.92 1.7 6.95
8/20/2021 7:45:00 PM 25.03 77.054 0.326 7.93 1.79 6.92
8/20/2021 8:00:00 PM 25.03 77.054 0.326 7.93 1.57 6.9
8/20/2021 8:15:00 PM 25.03 77.054 0.326 7.92 1.72 6.89
8/20/2021 8:30:00 PM 25.02 77.036 0.326 7.92 1.98 6.9
8/20/2021 8:45:00 PM 25.02 77.036 0.326 7.92 1.77 6.9
8/20/2021 9:00:00 PM 25.02 77.036 0.326 7.92 1.57 6.86
8/20/2021 9:15:00 PM 25.02 77.036 0.326 7.93 1.68 6.84
8/20/2021 9:30:00 PM 25.01 77.018 0.326 7.92 1.64 6.86
8/20/2021 9:45:00 PM 25.01 77.018 0.327 7.92 1.71 6.81
8/20/2021 10:00:00 PM 25.01 77.018 0.326 7.92 1.81 6.82
8/20/2021 10:15:00 PM 25.01 77.018 0.326 7.93 1.72 6.8
8/20/2021 10:30:00 PM 25 77 0.326 7.93 1.79 6.8
8/20/2021 10:45:00 PM 25 77 0.326 7.93 1.82 6.76
8/20/2021 11:00:00 PM 25 77 0.326 7.93 1.6 6.73
8/20/2021 11:15:00 PM 25 77 0.326 7.92 1.66 6.71
8/20/2021 11:30:00 PM 24.99 76.982 0.326 7.93 1.71 6.71
8/20/2021 11:45:00 PM 24.99 76.982 0.326 7.93 1.75 6.73
8/21/2021 12:00:00 AM 24.99 76.982 0.326 7.93 1.67 6.7
8/21/2021 12:15:00 AM 24.99 76.982 0.326 7.92 1.74 6.73
8/21/2021 12:30:00 AM 24.99 76.982 0.326 7.93 1.57 6.67
8/21/2021 12:45:00 AM 24.98 76.964 0.326 7.93 2.01 6.68
8/21/2021 1:00:00 AM 24.98 76.964 0.327 7.92 1.68 6.66
8/21/2021 1:15:00 AM 24.98 76.964 0.326 7.92 1.67 6.62
8/21/2021 1:30:00 AM 24.97 76.946 0.326 7.92 1.69 6.62
8/21/2021 1:45:00 AM 24.97 76.946 0.326 7.92 1.64 6.63
8/21/2021 2:00:00 AM 24.97 76.946 0.326 7.93 1.63 6.63
8/21/2021 2:15:00 AM 24.97 76.946 0.326 7.93 1.78 6.6
8/21/2021 2:30:00 AM 24.97 76.946 0.326 7.93 1.62 6.61
8/21/2021 2:45:00 AM 24.96 76.92799 0.326 7.92 1.67 6.58
8/21/2021 3:00:00 AM 24.96 76.92799 0.326 7.92 1.93 6.58
8/21/2021 3:15:00 AM 24.96 76.92799 0.326 7.92 1.69 6.6
8/21/2021 3:30:00 AM 24.96 76.92799 0.327 7.93 1.75 6.54
8/21/2021 3:45:00 AM 24.95 76.91 0.327 7.92 1.62 6.5
8/21/2021 4:00:00 AM 24.95 76.91 0.327 7.92 1.67 6.53
8/21/2021 4:15:00 AM 24.95 76.91 0.326 7.93 1.65 6.51
8/21/2021 4:30:00 AM 24.95 76.91 0.326 7.93 1.7 6.51
8/21/2021 4:45:00 AM 24.94 76.892 0.326 7.93 1.72 6.5
8/21/2021 5:00:00 AM 24.94 76.892 0.326 7.93 1.71 6.49
8/21/2021 5:15:00 AM 24.94 76.892 0.326 7.93 1.7 6.46
8/21/2021 5:30:00 AM 24.93 76.874 0.326 7.93 1.66 6.51
8/21/2021 5:45:00 AM 24.91 76.838 0.327 7.9 1.65 6.42
8/21/2021 6:00:00 AM 24.83 76.694 0.326 7.88 1.88 6.42
8/21/2021 6:15:00 AM 24.6 76.28 0.326 7.89 1.68 6.44
8/21/2021 6:30:00 AM 24.21 75.578 0.324 7.89 1.79 6.47
8/21/2021 6:45:00 AM 23.85 74.93 0.321 7.89 2 6.48
8/21/2021 7:00:00 AM 23.55 74.39 0.321 7.87 2.76 6.46
8/21/2021 7:15:00 AM 23.34 74.012 0.319 7.87 2.83 6.43
8/21/2021 7:30:00 AM 23.19 73.742 0.321 7.88 3.5 6.43
8/21/2021 7:45:00 AM 23.06 73.508 0.316 7.87 3.71 6.43
8/21/2021 8:00:00 AM 22.97 73.346 0.312 7.87 4.73 6.41
8/21/2021 8:15:00 AM 22.89 73.202 0.314 7.87 5.26 6.38
8/21/2021 8:30:00 AM 22.84 73.112 0.317 7.87 3.18 6.37
8/21/2021 8:45:00 AM 22.79 73.022 0.317 7.87 3.76 6.36
8/21/2021 9:00:00 AM 22.75 72.95 0.317 7.88 3.96 6.34
8/21/2021 9:15:00 AM 22.72 72.896 0.318 7.88 3.87 6.31
8/21/2021 9:30:00 AM 22.7 72.86 0.318 7.88 3.88 6.3
8/21/2021 9:45:00 AM 22.68 72.824 0.318 7.88 3.73 6.3
8/21/2021 10:00:00 AM 22.66 72.788 0.318 7.88 3.9 6.28
8/21/2021 10:15:00 AM 22.64 72.752 0.318 7.89 3.85 6.27
8/21/2021 10:30:00 AM 22.63 72.734 0.318 7.88 3.64 6.24
8/21/2021 10:45:00 AM 22.62 72.716 0.317 7.89 3.56 6.19
8/21/2021 11:00:00 AM 22.62 72.716 0.318 7.9 3.51 6.19
8/21/2021 11:15:00 AM 22.62 72.716 0.318 7.9 3.52 6.16
8/21/2021 11:30:00 AM 22.62 72.716 0.319 7.9 3.5 6.15
8/21/2021 11:45:00 AM 22.63 72.734 0.319 7.9 3.4 6.1
8/21/2021 12:00:00 PM 22.63 72.734 0.318 7.88 3.37 6.1
8/21/2021 12:15:00 PM 22.64 72.752 0.318 7.88 3.42 6.09
8/21/2021 12:30:00 PM 22.65 72.77 0.319 7.87 3.34 6.06
8/21/2021 12:45:00 PM 22.66 72.788 0.319 7.88 3.28 6.02
8/21/2021 1:00:00 PM 22.66 72.788 0.319 7.89 3.29 5.99
8/21/2021 1:15:00 PM 22.67 72.806 0.319 7.89 3.36 5.97
8/21/2021 1:30:00 PM 22.67 72.806 0.319 7.89 3.29 5.95
8/21/2021 1:45:00 PM 22.68 72.824 0.319 7.89 3.27 5.93
8/21/2021 2:00:00 PM 22.68 72.824 0.318 7.89 3.25 5.9
8/21/2021 2:15:00 PM 22.69 72.842 0.318 7.89 3.31 5.88
8/21/2021 2:30:00 PM 22.69 72.842 0.318 7.89 3.32 5.85
8/21/2021 2:45:00 PM 22.69 72.842 0.318 7.9 3.3 5.85
8/21/2021 3:00:00 PM 22.7 72.86 0.318 7.89 3.35 5.82
8/21/2021 3:15:00 PM 22.7 72.86 0.318 7.9 3.34 5.8
8/21/2021 3:30:00 PM 22.71 72.878 0.318 7.9 3.35 5.77
8/21/2021 3:45:00 PM 22.71 72.878 0.318 7.9 3.32 5.74
8/21/2021 4:00:00 PM 22.71 72.878 0.319 7.9 3.3 5.73
8/21/2021 4:15:00 PM 22.72 72.896 0.319 7.9 3.34 5.7
8/21/2021 4:30:00 PM 22.72 72.896 0.318 7.9 3.41 5.67
8/21/2021 4:45:00 PM 22.72 72.896 0.318 7.9 3.41 5.65
8/21/2021 5:00:00 PM 22.73 72.914 0.318 7.9 3.38 5.66
8/21/2021 5:15:00 PM 22.73 72.914 0.318 7.9 3.46 5.64
8/21/2021 5:30:00 PM 22.73 72.914 0.318 7.9 3.38 5.61
8/21/2021 5:45:00 PM 22.73 72.914 0.318 7.9 3.37 5.61
8/21/2021 6:00:00 PM 22.74 72.932 0.318 7.88 3.33 5.57
8/21/2021 6:15:00 PM 22.74 72.932 0.317 7.89 3.31 5.57
8/21/2021 6:30:00 PM 22.75 72.95 0.317 7.89 3.34 5.56
8/21/2021 6:45:00 PM 22.75 72.95 0.318 7.89 3.44 5.55
8/21/2021 7:00:00 PM 22.76 72.968 0.318 7.89 3.32 5.51
8/21/2021 7:15:00 PM 22.76 72.968 0.317 7.88 3.43 5.48
8/21/2021 7:30:00 PM 22.77 72.986 0.318 7.89 3.37 5.45
8/21/2021 7:45:00 PM 22.77 72.986 0.317 7.89 3.33 5.43
8/21/2021 8:00:00 PM 22.78 73.004 0.317 7.89 3.32 5.41
8/21/2021 8:15:00 PM 22.78 73.004 0.317 7.89 3.38 5.4
8/21/2021 8:30:00 PM 22.78 73.004 0.317 7.88 3.32 5.38
8/21/2021 8:45:00 PM 22.79 73.022 0.317 7.89 3.32 5.34
8/21/2021 9:00:00 PM 22.79 73.022 0.317 7.89 3.39 5.34
8/21/2021 9:15:00 PM 22.79 73.022 0.317 7.88 3.37 5.33
8/21/2021 9:30:00 PM 22.8 73.04 0.317 7.89 3.35 5.31
8/21/2021 9:45:00 PM 22.8 73.04 0.318 7.89 3.46 5.29
8/21/2021 10:00:00 PM 22.8 73.04 0.317 7.88 3.43 5.26
8/21/2021 10:15:00 PM 22.8 73.04 0.317 7.87 3.43 5.24
8/21/2021 10:30:00 PM 22.81 73.058 0.317 7.88 3.39 5.23
8/21/2021 10:45:00 PM 22.81 73.058 0.317 7.88 3.32 5.22
8/21/2021 11:00:00 PM 22.82 73.076 0.317 7.88 3.24 5.2
8/21/2021 11:15:00 PM 22.82 73.076 0.317 7.88 3.32 5.14
8/21/2021 11:30:00 PM 22.82 73.076 0.317 7.88 3.35 5.12
8/21/2021 11:45:00 PM 22.83 73.094 0.316 7.88 3.32 5.11
8/22/2021 12:00:00 AM 22.83 73.094 0.317 7.88 3.24 5.08
8/22/2021 12:15:00 AM 22.83 73.094 0.317 7.88 3.32 5.04
8/22/2021 12:30:00 AM 22.84 73.112 0.317 7.91 3.3 5.02
8/22/2021 12:45:00 AM 22.84 73.112 0.317 7.88 3.3 5.01
8/22/2021 1:00:00 AM 22.84 73.112 0.317 7.88 3.25 4.98
8/22/2021 1:15:00 AM 22.85 73.13 0.317 7.89 3.24 4.93
8/22/2021 1:30:00 AM 22.85 73.13 0.317 7.88 3.17 4.9
8/22/2021 1:45:00 AM 22.85 73.13 0.317 7.89 3.19 4.9
8/22/2021 2:00:00 AM 22.85 73.13 0.317 7.89 3.13 4.87
8/22/2021 2:15:00 AM 22.86 73.148 0.317 7.88 3.14 4.85
8/22/2021 2:30:00 AM 22.87 73.166 0.317 7.88 3.2 4.83
8/22/2021 2:45:00 AM 22.88 73.184 0.317 7.88 3.17 4.81
8/22/2021 3:00:00 AM 22.88 73.184 0.317 7.88 3.18 4.82
8/22/2021 3:15:00 AM 22.89 73.202 0.317 7.88 3.12 4.8
8/22/2021 3:30:00 AM 22.89 73.202 0.317 7.87 3.12 4.8
8/22/2021 3:45:00 AM 22.9 73.22 0.317 7.88 3.07 4.77
8/22/2021 4:00:00 AM 22.9 73.22 0.317 7.87 3.1 4.78
8/22/2021 4:15:00 AM 22.91 73.238 0.317 7.87 3.08 4.76
8/22/2021 4:30:00 AM 22.92 73.256 0.317 7.88 3.08 4.72
8/22/2021 4:45:00 AM 22.92 73.256 0.317 7.88 3.05 4.71
8/22/2021 5:00:00 AM 22.93 73.274 0.317 7.88 3 4.71
8/22/2021 5:15:00 AM 22.94 73.292 0.317 7.87 3.17 4.67
8/22/2021 5:30:00 AM 23.24 73.832 0.323 7.83 1.75 5.49
8/22/2021 5:45:00 AM 23.2 73.76 0.322 7.85 1.92 5.56
8/22/2021 6:00:00 AM 23.1 73.58 0.321 7.86 1.97 5.4
8/22/2021 6:15:00 AM 22.9 73.22 0.316 7.86 3.07 5.15
8/22/2021 6:30:00 AM 22.76 72.968 0.315 7.82 3.18 5.04
8/22/2021 6:45:00 AM 22.65 72.77 0.316 7.82 2.87 4.99
8/22/2021 7:00:00 AM 22.58 72.644 0.318 7.83 2.77 5.13
8/22/2021 7:15:00 AM 22.53 72.554 0.318 7.84 2.77 5.21
8/22/2021 7:30:00 AM 22.49 72.482 0.318 7.85 2.73 5.26
8/22/2021 7:45:00 AM 22.47 72.446 0.318 7.84 2.74 5.3
8/22/2021 8:00:00 AM 22.46 72.42799 0.318 7.85 2.64 5.3
8/22/2021 8:15:00 AM 22.46 72.42799 0.318 7.86 2.74 5.28
8/22/2021 8:30:00 AM 22.46 72.42799 0.318 7.87 2.78 5.26
8/22/2021 8:45:00 AM 22.46 72.42799 0.319 7.87 2.78 5.25
8/22/2021 9:00:00 AM 22.47 72.446 0.319 7.87 2.67 5.21
8/22/2021 9:15:00 AM 22.48 72.464 0.319 7.86 2.46 5.23
8/22/2021 9:30:00 AM 22.49 72.482 0.319 7.86 2.2 5.24
8/22/2021 9:45:00 AM 22.5 72.5 0.32 7.86 2.27 5.33
8/22/2021 10:00:00 AM 22.52 72.536 0.32 7.86 2.29 5.29
8/22/2021 10:15:00 AM 22.52 72.536 0.319 7.85 2.38 5.35
8/22/2021 10:30:00 AM 22.53 72.554 0.319 7.86 2.38 5.37
8/22/2021 10:45:00 AM 22.54 72.57201 0.319 7.86 2.37 5.35
8/22/2021 11:00:00 AM 22.54 72.57201 0.319 7.87 2.37 5.32
8/22/2021 11:15:00 AM 22.55 72.59 0.319 7.86 2.35 5.4
8/22/2021 11:30:00 AM 22.55 72.59 0.32 7.86 2.39 5.33
8/22/2021 11:45:00 AM 22.56 72.608 0.32 7.86 2.08 5.38
8/22/2021 12:00:00 PM 22.56 72.608 0.319 7.86 2.28 5.35
8/22/2021 12:15:00 PM 22.57 72.626 0.319 7.86 2.33 5.34
8/22/2021 12:30:00 PM 22.58 72.644 0.32 7.87 2.3 5.38
8/22/2021 12:45:00 PM 22.58 72.644 0.32 7.86 2.18 5.4
8/22/2021 1:00:00 PM 22.58 72.644 0.317 7.84 2.76 5.27
8/22/2021 1:15:00 PM 22.6 72.68 0.318 7.83 2.69 5.27
8/22/2021 1:30:00 PM 22.6 72.68 0.318 7.84 2.57 5.29
8/22/2021 1:45:00 PM 22.61 72.698 0.318 7.85 2.49 5.33
8/22/2021 2:00:00 PM 22.61 72.698 0.319 7.86 2.73 5.33
8/22/2021 2:15:00 PM 22.61 72.698 0.318 7.85 2.54 5.29
8/22/2021 2:30:00 PM 22.62 72.716 0.318 7.85 2.55 5.26
8/22/2021 2:45:00 PM 22.62 72.716 0.317 7.85 2.79 5.26
8/22/2021 3:00:00 PM 22.62 72.716 0.317 7.85 2.44 5.26
8/22/2021 3:15:00 PM 22.62 72.716 0.318 7.85 2.62 5.24
8/22/2021 3:30:00 PM 22.62 72.716 0.318 7.85 2.73 5.24
8/22/2021 3:45:00 PM 22.62 72.716 0.318 7.85 2.44 5.22
8/22/2021 4:00:00 PM 22.62 72.716 0.318 7.85 2.53 5.21
8/22/2021 4:15:00 PM 22.63 72.734 0.318 7.85 2.48 5.22
8/22/2021 4:30:00 PM 22.63 72.734 0.318 7.85 2.4 5.22
8/22/2021 4:45:00 PM 22.63 72.734 0.319 7.85 2.6 5.21
8/22/2021 5:00:00 PM 22.63 72.734 0.318 7.85 2.49 5.2
8/22/2021 5:15:00 PM 22.63 72.734 0.318 7.86 2.45 5.18
8/22/2021 5:30:00 PM 22.63 72.734 0.318 7.85 2.46 5.18
8/22/2021 5:45:00 PM 22.63 72.734 0.319 7.86 2.61 5.18
8/22/2021 6:00:00 PM 22.63 72.734 0.319 7.85 2.48 5.17
8/22/2021 6:15:00 PM 22.63 72.734 0.318 7.86 2.49 5.13
8/22/2021 6:30:00 PM 22.64 72.752 0.318 7.86 2.46 5.09
8/22/2021 6:45:00 PM 22.64 72.752 0.319 7.86 2.52 5.11
8/22/2021 7:00:00 PM 22.64 72.752 0.318 7.85 2.41 5.12
8/22/2021 7:15:00 PM 22.64 72.752 0.318 7.86 2.49 5.11
8/22/2021 7:30:00 PM 22.64 72.752 0.318 7.86 2.54 5.1
8/22/2021 7:45:00 PM 22.64 72.752 0.318 7.86 2.61 5.07
8/22/2021 8:00:00 PM 22.64 72.752 0.318 7.86 2.54 5.05
8/22/2021 8:15:00 PM 22.64 72.752 0.318 7.86 2.48 5.07
8/22/2021 8:30:00 PM 22.64 72.752 0.318 7.86 2.52 5.06
8/22/2021 8:45:00 PM 22.64 72.752 0.318 7.85 2.55 5.05
8/22/2021 9:00:00 PM 22.64 72.752 0.318 7.86 2.58 5.05
8/22/2021 9:15:00 PM 22.64 72.752 0.318 7.86 2.58 5.04
8/22/2021 9:30:00 PM 22.64 72.752 0.318 7.86 2.55 5.01
8/22/2021 9:45:00 PM 22.64 72.752 0.318 7.85 2.53 5.02
8/22/2021 10:00:00 PM 22.64 72.752 0.318 7.85 2.5 4.99
8/22/2021 10:15:00 PM 22.64 72.752 0.318 7.85 2.53 4.99
8/22/2021 10:30:00 PM 22.64 72.752 0.318 7.85 2.59 4.95
8/22/2021 10:45:00 PM 22.64 72.752 0.318 7.85 2.43 4.93
8/22/2021 11:00:00 PM 22.65 72.77 0.318 7.85 2.59 4.91
8/22/2021 11:15:00 PM 22.65 72.77 0.318 7.85 2.48 4.91
8/22/2021 11:30:00 PM 22.65 72.77 0.318 7.85 2.65 4.88
8/22/2021 11:45:00 PM 22.65 72.77 0.318 7.85 2.49 4.88
8/23/2021 12:00:00 AM 22.65 72.77 0.318 7.85 2.62 4.91
8/23/2021 12:15:00 AM 22.65 72.77 0.318 7.85 2.53 4.88
8/23/2021 12:30:00 AM 22.65 72.77 0.318 7.86 2.28 4.86
8/23/2021 12:45:00 AM 22.65 72.77 0.318 7.86 2.62 4.86
8/23/2021 1:00:00 AM 22.65 72.77 0.318 7.86 2.67 4.87
8/23/2021 1:15:00 AM 22.65 72.77 0.318 7.85 2.57 4.82
8/23/2021 1:30:00 AM 22.65 72.77 0.318 7.85 2.45 4.8
8/23/2021 1:45:00 AM 22.65 72.77 0.318 7.85 2.54 4.79
8/23/2021 2:00:00 AM 22.65 72.77 0.318 7.85 2.65 4.78
8/23/2021 2:15:00 AM 22.65 72.77 0.317 7.85 2.58 4.77
8/23/2021 2:30:00 AM 22.65 72.77 0.317 7.85 2.61 4.76
8/23/2021 2:45:00 AM 22.66 72.788 0.317 7.85 2.52 4.74
8/23/2021 3:00:00 AM 22.66 72.788 0.317 7.84 2.63 4.72
8/23/2021 3:15:00 AM 22.66 72.788 0.317 7.84 2.59 4.71
8/23/2021 3:30:00 AM 22.66 72.788 0.317 7.84 2.56 4.7
8/23/2021 3:45:00 AM 22.66 72.788 0.317 7.85 2.6 4.68
8/23/2021 4:00:00 AM 22.66 72.788 0.317 7.84 2.54 4.66
8/23/2021 4:15:00 AM 22.66 72.788 0.317 7.84 2.52 4.65
8/23/2021 4:30:00 AM 22.66 72.788 0.317 7.84 2.61 4.68
8/23/2021 4:45:00 AM 22.66 72.788 0.317 7.84 2.51 4.68
8/23/2021 5:00:00 AM 22.66 72.788 0.317 7.84 2.54 4.65
8/23/2021 5:15:00 AM 22.67 72.806 0.318 7.84 2.52 4.6
8/23/2021 5:30:00 AM 22.67 72.806 0.318 7.84 2.47 4.55
8/23/2021 5:45:00 AM 22.63 72.734 0.316 7.83 2.73 4.68
8/23/2021 6:00:00 AM 22.56 72.608 0.316 7.82 2.93 4.65
8/23/2021 6:15:00 AM 22.49 72.482 0.315 7.82 2.78 4.63
8/23/2021 6:30:00 AM 22.44 72.392 0.315 7.82 2.86 4.68
8/23/2021 6:45:00 AM 22.4 72.32 0.314 7.82 3.12 4.72
8/23/2021 7:00:00 AM 22.37 72.266 0.314 7.83 3.01 4.72
8/23/2021 7:15:00 AM 22.36 72.248 0.315 7.82 3.1 4.72
8/23/2021 7:30:00 AM 22.35 72.23 0.314 7.83 3.49 4.72
8/23/2021 7:45:00 AM 22.34 72.212 0.313 7.82 3.68 4.75
8/23/2021 8:00:00 AM 22.33 72.194 0.312 7.83 3.93 4.78
8/23/2021 8:15:00 AM 22.33 72.194 0.313 7.82 3.82 4.75
8/23/2021 8:30:00 AM 22.34 72.212 0.313 7.84 3.8 4.73
8/23/2021 8:45:00 AM 22.34 72.212 0.313 7.83 3.64 4.72
8/23/2021 9:00:00 AM 22.35 72.23 0.312 7.84 3.65 4.78
8/23/2021 9:15:00 AM 22.37 72.266 0.31 7.83 5.67 4.9
8/23/2021 9:30:00 AM 22.39 72.302 0.306 7.83 5.82 4.93
8/23/2021 9:45:00 AM 22.4 72.32 0.302 7.83 5.72 5
8/23/2021 10:00:00 AM 22.42 72.356 0.306 7.83 6.28 5.03
8/23/2021 10:15:00 AM 22.43 72.374 0.3 7.83 6.02 5.08
8/23/2021 10:30:00 AM 22.45 72.41 0.299 7.83 7.44 5.11
8/23/2021 10:45:00 AM 22.46 72.42799 0.295 7.84 8.09 5.14
8/23/2021 11:00:00 AM 22.48 72.464 0.287 7.83 8.8 5.29
8/23/2021 11:15:00 AM 22.5 72.5 0.292 7.82 10.09 5.31
8/23/2021 11:30:00 AM 22.51 72.518 0.294 7.83 12.23 5.36
8/23/2021 11:45:00 AM 22.53 72.554 0.283 7.82 8.03 5.36
8/23/2021 12:00:00 PM 22.56 72.608 0.291 7.82 9.53 5.38
8/23/2021 12:15:00 PM 22.58 72.644 0.286 7.82 12.16 5.41
8/23/2021 12:30:00 PM 22.61 72.698 0.284 7.82 13.9 5.35
8/23/2021 12:45:00 PM 22.64 72.752 0.288 7.82 12.66 5.33
8/23/2021 1:00:00 PM 22.68 72.824 0.289 7.82 11.85 5.36
8/23/2021 1:15:00 PM 22.71 72.878 0.286 7.82 12.35 5.4
8/23/2021 1:30:00 PM 22.75 72.95 0.287 7.82 11.73 5.34
8/23/2021 1:45:00 PM 22.78 73.004 0.286 7.82 13.12 5.37
8/23/2021 2:00:00 PM 22.82 73.076 0.284 7.82 14.14 5.42
8/23/2021 2:15:00 PM 22.85 73.13 0.274 7.82 16.68 5.55
8/23/2021 2:30:00 PM 22.87 73.166 0.273 7.82 20.16 5.81
8/23/2021 2:45:00 PM 22.88 73.184 0.267 7.83 20.01 5.78
8/23/2021 3:00:00 PM 22.89 73.202 0.274 7.82 15.65 5.69
8/23/2021 3:15:00 PM 22.9 73.22 0.275 7.83 15.33 5.59
8/23/2021 3:30:00 PM 22.9 73.22 0.278 7.83 15.52 5.54
8/23/2021 3:45:00 PM 22.91 73.238 0.281 7.82 15.17 5.51
8/23/2021 4:00:00 PM 22.91 73.238 0.274 7.82 15.25 5.58
8/23/2021 4:15:00 PM 22.91 73.238 0.276 7.83 15.16 5.53
8/23/2021 4:30:00 PM 22.91 73.238 0.276 7.82 14.93 5.5
8/23/2021 4:45:00 PM 22.91 73.238 0.278 7.82 15.01 5.55
8/23/2021 5:00:00 PM 22.91 73.238 0.272 7.82 16.17 5.51
8/23/2021 5:15:00 PM 22.91 73.238 0.276 7.83 17.01 5.6
8/23/2021 5:30:00 PM 22.91 73.238 0.265 7.82 17.12 5.58
8/23/2021 5:45:00 PM 22.91 73.238 0.266 7.82 18.2 5.71
8/23/2021 6:00:00 PM 22.91 73.238 0.267 7.82 18.47 5.76
8/23/2021 6:15:00 PM 22.91 73.238 0.267 7.82 19.21 5.76
8/23/2021 6:30:00 PM 22.91 73.238 0.262 7.84 19.27 5.81
8/23/2021 6:45:00 PM 22.91 73.238 0.257 7.83 19.81 5.75
8/23/2021 7:00:00 PM 22.9 73.22 0.254 7.82 21.88 5.73
8/23/2021 7:15:00 PM 22.9 73.22 0.255 7.81 20.32 5.86
8/23/2021 7:30:00 PM 22.9 73.22 0.255 7.81 21.61 5.82
8/23/2021 7:45:00 PM 22.9 73.22 0.255 7.8 21.16 5.85
8/23/2021 8:00:00 PM 22.9 73.22 0.254 7.79 21.78 5.9
8/23/2021 8:15:00 PM 22.9 73.22 0.256 7.81 21.05 5.83
8/23/2021 8:30:00 PM 22.9 73.22 0.256 7.81 21.63 5.83
8/23/2021 8:45:00 PM 22.9 73.22 0.251 7.81 22.1 5.85
8/23/2021 9:00:00 PM 22.9 73.22 0.254 7.81 20.74 5.78
8/23/2021 9:15:00 PM 22.9 73.22 0.256 7.81 19.97 5.74
8/23/2021 9:30:00 PM 22.9 73.22 0.258 7.8 20.93 5.76
8/23/2021 9:45:00 PM 22.89 73.202 0.256 7.81 18.15 5.74
8/23/2021 10:00:00 PM 22.89 73.202 0.256 7.8 19.52 5.72
8/23/2021 10:15:00 PM 22.89 73.202 0.254 7.82 21.67 5.74
8/23/2021 10:30:00 PM 22.89 73.202 0.256 7.8 19.96 5.69
8/23/2021 10:45:00 PM 22.89 73.202 0.257 7.79 21.94 5.75
8/23/2021 11:00:00 PM 22.89 73.202 0.251 7.79 21.72 5.78
8/23/2021 11:15:00 PM 22.89 73.202 0.251 7.79 22.06 5.71
8/23/2021 11:30:00 PM 22.89 73.202 0.25 7.8 21.98 5.66
8/23/2021 11:45:00 PM 22.89 73.202 0.253 7.79 21.37 5.66
8/24/2021 12:00:00 AM 22.89 73.202 0.252 7.79 21.13 5.64
8/24/2021 12:15:00 AM 22.89 73.202 0.254 7.78 20.82 5.6
8/24/2021 12:30:00 AM 22.89 73.202 0.254 7.79 21.52 5.63
8/24/2021 12:45:00 AM 22.89 73.202 0.254 7.78 20.25 5.64
8/24/2021 1:00:00 AM 22.89 73.202 0.247 7.8 21.35 5.63
8/24/2021 1:15:00 AM 22.89 73.202 0.253 7.79 20.81 5.59
8/24/2021 1:30:00 AM 22.89 73.202 0.249 7.78 22.1 5.64
8/24/2021 1:45:00 AM 22.89 73.202 0.256 7.78 21.4 5.58
8/24/2021 2:00:00 AM 22.89 73.202 0.248 7.77 21.73 5.62
8/24/2021 2:15:00 AM 22.89 73.202 0.242 7.76 20.69 5.63
8/24/2021 2:30:00 AM 22.89 73.202 0.243 7.76 22.25 5.69
8/24/2021 2:45:00 AM 22.89 73.202 0.246 7.76 23.07 5.66
8/24/2021 3:00:00 AM 22.89 73.202 0.241 7.76 23.06 5.64
8/24/2021 3:15:00 AM 22.89 73.202 0.244 7.76 21.47 5.67
8/24/2021 3:30:00 AM 22.89 73.202 0.246 7.76 23.11 5.61
8/24/2021 3:45:00 AM 22.88 73.184 0.244 7.76 20.67 5.59
8/24/2021 4:00:00 AM 22.88 73.184 0.245 7.75 23.14 5.6
8/24/2021 4:15:00 AM 22.88 73.184 0.248 7.76 22.65 5.54
8/24/2021 4:30:00 AM 22.88 73.184 0.251 7.76 22.24 5.54
8/24/2021 4:45:00 AM 22.88 73.184 0.246 7.76 20.8 5.52
8/24/2021 5:00:00 AM 22.88 73.184 0.246 7.76 22.82 5.5
8/24/2021 5:15:00 AM 22.88 73.184 0.247 7.77 21.33 5.44
8/24/2021 5:30:00 AM 22.88 73.184 0.248 7.79 21.89 5.42
8/24/2021 5:45:00 AM 22.89 73.202 0.252 7.76 20.49 5.37
8/24/2021 6:00:00 AM 22.89 73.202 0.253 7.78 20.46 5.34
8/24/2021 6:15:00 AM 22.85 73.13 0.245 7.77 26.16 5.5
8/24/2021 6:30:00 AM 22.69 72.842 0.246 7.74 22.66 5.52
8/24/2021 6:45:00 AM 22.55 72.59 0.248 7.74 22.3 5.5
8/24/2021 7:00:00 AM 22.43 72.374 0.239 7.74 23.39 5.54
8/24/2021 7:15:00 AM 22.36 72.248 0.243 7.74 22.62 5.54
8/24/2021 7:30:00 AM 22.31 72.158 0.246 7.75 23.05 5.51
8/24/2021 7:45:00 AM 22.28 72.104 0.246 7.75 22.44 5.51
8/24/2021 8:00:00 AM 22.26 72.068 0.246 7.75 22.29 5.47
8/24/2021 8:15:00 AM 22.26 72.068 0.244 7.76 22.66 5.48
8/24/2021 8:30:00 AM 22.26 72.068 0.245 7.76 22.21 5.48
8/24/2021 8:45:00 AM 22.27 72.086 0.243 7.76 21.86 5.45
8/24/2021 9:00:00 AM 22.29 72.122 0.241 7.75 22.07 5.44
8/24/2021 9:15:00 AM 22.31 72.158 0.241 7.76 21.83 5.49
8/24/2021 9:30:00 AM 22.33 72.194 0.242 7.75 21.76 5.54
8/24/2021 9:45:00 AM 22.35 72.23 0.236 7.75 21.89 5.68
8/24/2021 10:00:00 AM 22.38 72.284 0.234 7.75 22.88 5.63
8/24/2021 10:15:00 AM 22.4 72.32 0.234 7.74 24.15 5.64
8/24/2021 10:30:00 AM 22.43 72.374 0.234 7.74 26.31 5.69
8/24/2021 10:45:00 AM 22.46 72.42799 0.231 7.74 26.51 5.73
8/24/2021 11:00:00 AM 22.49 72.482 0.234 7.75 24.42 5.76
8/24/2021 11:15:00 AM 22.53 72.554 0.235 7.75 24.65 5.73
8/24/2021 11:30:00 AM 22.56 72.608 0.232 7.75 23.75 5.76
8/24/2021 11:45:00 AM 22.6 72.68 0.237 7.74 23.48 5.78
8/24/2021 12:00:00 PM 22.64 72.752 0.235 7.74 25.33 5.87
8/24/2021 12:15:00 PM 22.68 72.824 0.233 7.74 26.26 5.87
8/24/2021 12:30:00 PM 22.73 72.914 0.235 7.73 25 5.92
8/24/2021 12:45:00 PM 22.78 73.004 0.221 7.73 25.39 6.05
8/24/2021 1:00:00 PM 22.81 73.058 0.228 7.74 26.98 6.02
8/24/2021 1:15:00 PM 22.85 73.13 0.224 7.74 26.55 6.04
8/24/2021 1:30:00 PM 22.91 73.238 0.211 7.73 30.66 6.24
8/24/2021 1:45:00 PM 22.94 73.292 0.218 7.72 29.38 6.19
8/24/2021 2:00:00 PM 23 73.4 0.211 7.72 29.59 6.25
8/24/2021 2:15:00 PM 23.06 73.508 0.204 7.72 29.65 6.29
8/24/2021 2:30:00 PM 23.13 73.634 0.198 7.7 34.59 6.61
8/24/2021 2:45:00 PM 23.16 73.688 0.204 7.71 32.01 6.5
8/24/2021 3:00:00 PM 23.17 73.706 0.214 7.71 31.45 6.48
8/24/2021 3:15:00 PM 23.19 73.742 0.205 7.7 35.33 6.44
8/24/2021 3:30:00 PM 23.19 73.742 0.21 7.71 30.94 6.47
8/24/2021 3:45:00 PM 23.2 73.76 0.209 7.71 31.12 6.45
8/24/2021 4:00:00 PM 23.2 73.76 0.203 7.7 33.12 6.5
8/24/2021 4:15:00 PM 23.2 73.76 0.206 7.7 30.77 6.49
8/24/2021 4:30:00 PM 23.2 73.76 0.201 7.69 30.7 6.55
8/24/2021 4:45:00 PM 23.2 73.76 0.204 7.69 31.14 6.51
8/24/2021 5:00:00 PM 23.2 73.76 0.202 7.68 30.85 6.56
8/24/2021 5:15:00 PM 23.19 73.742 0.199 7.69 30.61 6.54
8/24/2021 5:30:00 PM 23.19 73.742 0.197 7.69 31.01 6.57
8/24/2021 5:45:00 PM 23.19 73.742 0.197 7.68 30.63 6.53
8/24/2021 6:00:00 PM 23.19 73.742 0.2 7.68 30.42 6.53
8/24/2021 6:15:00 PM 23.18 73.724 0.199 7.69 30.69 6.48
8/24/2021 6:30:00 PM 23.18 73.724 0.199 7.69 29.78 6.44
8/24/2021 6:45:00 PM 23.18 73.724 0.199 7.69 29.53 6.42
8/24/2021 7:00:00 PM 23.18 73.724 0.198 7.67 29.28 6.48
8/24/2021 7:15:00 PM 23.17 73.706 0.193 7.67 29.37 6.48
8/24/2021 7:30:00 PM 23.17 73.706 0.192 7.65 28.92 6.49
8/24/2021 7:45:00 PM 23.17 73.706 0.189 7.64 29.07 6.48
8/24/2021 8:00:00 PM 23.17 73.706 0.186 7.64 28.08 6.49
8/24/2021 8:15:00 PM 23.17 73.706 0.192 7.64 28.24 6.44
8/24/2021 8:30:00 PM 23.17 73.706 0.194 7.64 29.04 6.43
8/24/2021 8:45:00 PM 23.17 73.706 0.192 7.64 28.41 6.39
8/24/2021 9:00:00 PM 23.16 73.688 0.191 7.65 28.35 6.36
8/24/2021 9:15:00 PM 23.16 73.688 0.194 7.64 27.67 6.35
8/24/2021 9:30:00 PM 23.16 73.688 0.191 7.64 27.74 6.32
8/24/2021 9:45:00 PM 23.16 73.688 0.19 7.63 27.94 6.31
8/24/2021 10:00:00 PM 23.16 73.688 0.19 7.64 27.62 6.3
8/24/2021 10:15:00 PM 23.15 73.67 0.188 7.62 27.21 6.29
8/24/2021 10:30:00 PM 23.15 73.67 0.191 7.63 27.25 6.26
8/24/2021 10:45:00 PM 23.15 73.67 0.189 7.62 26.54 6.26
8/24/2021 11:00:00 PM 23.15 73.67 0.19 7.62 27.1 6.23
8/24/2021 11:15:00 PM 23.15 73.67 0.189 7.62 26.73 6.2
8/24/2021 11:30:00 PM 23.15 73.67 0.191 7.62 26.57 6.18
8/24/2021 11:45:00 PM 23.15 73.67 0.189 7.61 26.57 6.17
8/25/2021 12:00:00 AM 23.15 73.67 0.19 7.61 27.4 6.16
8/25/2021 12:15:00 AM 23.14 73.652 0.192 7.62 26.36 6.14
8/25/2021 12:30:00 AM 23.14 73.652 0.189 7.6 26.22 6.14
8/25/2021 12:45:00 AM 23.14 73.652 0.19 7.6 26.47 6.11
8/25/2021 1:00:00 AM 23.14 73.652 0.189 7.62 25.9 6.08
8/25/2021 1:15:00 AM 23.14 73.652 0.189 7.61 25.92 6.06
8/25/2021 1:30:00 AM 23.13 73.634 0.188 7.6 26.02 6.03
8/25/2021 1:45:00 AM 23.13 73.634 0.188 7.59 25.76 6.02
8/25/2021 2:00:00 AM 23.13 73.634 0.189 7.59 25.37 6.02
8/25/2021 2:15:00 AM 23.13 73.634 0.189 7.59 25.53 5.98
8/25/2021 2:30:00 AM 23.13 73.634 0.187 7.6 25.67 5.96
8/25/2021 2:45:00 AM 23.13 73.634 0.187 7.59 25.35 5.95
8/25/2021 3:00:00 AM 23.13 73.634 0.188 7.58 25.24 5.9
8/25/2021 3:15:00 AM 23.13 73.634 0.19 7.59 25.07 5.88
8/25/2021 3:30:00 AM 23.13 73.634 0.19 7.61 24.77 5.86
8/25/2021 3:45:00 AM 23.13 73.634 0.191 7.6 24.92 5.86
8/25/2021 4:00:00 AM 23.13 73.634 0.189 7.61 24.94 5.85
8/25/2021 4:15:00 AM 23.13 73.634 0.191 7.6 24.62 5.85
8/25/2021 4:30:00 AM 23.13 73.634 0.19 7.6 24.83 5.81
8/25/2021 4:45:00 AM 23.13 73.634 0.19 7.6 24.33 5.78
8/25/2021 5:00:00 AM 23.13 73.634 0.193 7.61 24.81 5.76
8/25/2021 5:15:00 AM 23.12 73.616 0.193 7.59 24.66 5.69
8/25/2021 5:30:00 AM 23.11 73.598 0.193 7.57 25.04 5.62
8/25/2021 5:45:00 AM 23.1 73.58 0.193 7.57 25.03 5.59
8/25/2021 6:00:00 AM 23.1 73.58 0.192 7.56 25.33 5.53
8/25/2021 6:15:00 AM 23.09 73.562 0.193 7.55 25.55 5.47
8/25/2021 6:30:00 AM 23.09 73.562 0.193 7.56 24.62 5.44
8/25/2021 6:45:00 AM 23.09 73.562 0.193 7.56 25.23 5.46
8/25/2021 7:00:00 AM 23.08 73.544 0.193 7.55 25.3 5.42
8/25/2021 7:15:00 AM 23.08 73.544 0.193 7.55 25.61 5.34
8/25/2021 7:30:00 AM 23.08 73.544 0.193 7.54 24.62 5.4
8/25/2021 7:45:00 AM 23.09 73.562 0.194 7.54 24.91 5.31
8/25/2021 8:00:00 AM 23.09 73.562 0.194 7.55 24.84 5.28
8/25/2021 8:15:00 AM 23.1 73.58 0.195 7.54 23.9 5.24
8/25/2021 8:30:00 AM 23.1 73.58 0.194 7.53 24.24 5.16
8/25/2021 8:45:00 AM 23.11 73.598 0.195 7.53 23.62 5.1
8/25/2021 9:00:00 AM 23.13 73.634 0.195 7.54 23.76 5.1
8/25/2021 9:15:00 AM 23.14 73.652 0.196 7.55 23.05 5.16
8/25/2021 9:30:00 AM 23.16 73.688 0.195 7.56 24 5.39
8/25/2021 9:45:00 AM 23.18 73.724 0.195 7.56 24.55 5.36
8/25/2021 10:00:00 AM 23.21 73.778 0.196 7.57 23.9 5.35
8/25/2021 10:15:00 AM 23.24 73.832 0.195 7.56 24.11 5.37
8/25/2021 10:30:00 AM 23.28 73.904 0.195 7.56 24.24 5.35
8/25/2021 10:45:00 AM 23.32 73.976 0.195 7.56 23.47 5.37
8/25/2021 11:00:00 AM 23.36 74.048 0.195 7.57 24.72 5.39
8/25/2021 11:15:00 AM 23.4 74.12 0.196 7.56 23.55 5.39
8/25/2021 11:30:00 AM 23.46 74.228 0.195 7.57 23.92 5.39
8/25/2021 11:45:00 AM 23.51 74.318 0.195 7.57 24.52 5.39
8/25/2021 12:00:00 PM 23.56 74.408 0.196 7.57 24.48 5.39
8/25/2021 12:15:00 PM 23.62 74.516 0.196 7.57 25.45 5.42
8/25/2021 12:30:00 PM 23.67 74.606 0.196 7.57 24.83 5.43
8/25/2021 12:45:00 PM 23.74 74.732 0.196 7.57 25.25 5.46
8/25/2021 1:00:00 PM 23.8 74.84 0.196 7.58 25.38 5.45
8/25/2021 1:15:00 PM 23.86 74.948 0.196 7.57 26.33 5.53
8/25/2021 1:30:00 PM 23.91 75.038 0.196 7.58 25.67 5.45
8/25/2021 1:45:00 PM 23.96 75.128 0.196 7.58 25.06 5.46
8/25/2021 2:00:00 PM 24.02 75.236 0.196 7.57 26.23 5.51
8/25/2021 2:15:00 PM 24.08 75.344 0.196 7.61 27.42 5.78
8/25/2021 2:30:00 PM 24.13 75.434 0.196 7.64 31.32 6.12
8/25/2021 2:45:00 PM 24.16 75.488 0.197 7.65 29.75 6.13
8/25/2021 3:00:00 PM 24.17 75.506 0.197 7.65 28.02 5.99
8/25/2021 3:15:00 PM 24.18 75.524 0.197 7.65 27.1 5.81
8/25/2021 3:30:00 PM 24.19 75.542 0.196 7.63 26.49 5.67
8/25/2021 3:45:00 PM 24.19 75.542 0.196 7.62 25.79 5.61
8/25/2021 4:00:00 PM 24.2 75.56 0.197 7.62 25.76 5.54
8/25/2021 4:15:00 PM 24.2 75.56 0.197 7.63 25.2 5.5
8/25/2021 4:30:00 PM 24.2 75.56 0.197 7.61 25.52 5.46
8/25/2021 4:45:00 PM 24.19 75.542 0.196 7.6 25.31 5.44
8/25/2021 5:00:00 PM 24.19 75.542 0.197 7.61 24.79 5.37
8/25/2021 5:15:00 PM 24.19 75.542 0.197 7.6 24.82 5.35
8/25/2021 5:30:00 PM 24.19 75.542 0.197 7.62 24.4 5.3
8/25/2021 5:45:00 PM 24.18 75.524 0.197 7.61 24.29 5.27
8/25/2021 6:00:00 PM 24.18 75.524 0.197 7.61 24.31 5.24
8/25/2021 6:15:00 PM 24.18 75.524 0.197 7.61 23.91 5.2
8/25/2021 6:30:00 PM 24.17 75.506 0.197 7.61 24.34 5.18
8/25/2021 6:45:00 PM 24.17 75.506 0.197 7.61 24.01 5.13
8/25/2021 7:00:00 PM 24.16 75.488 0.197 7.6 23.71 5.09
8/25/2021 7:15:00 PM 24.16 75.488 0.197 7.62 23.53 5.07
8/25/2021 7:30:00 PM 24.16 75.488 0.197 7.61 23.83 5.03
8/25/2021 7:45:00 PM 24.15 75.47 0.197 7.61 23.41 5
8/25/2021 8:00:00 PM 24.15 75.47 0.197 7.61 23.82 4.98
8/25/2021 8:15:00 PM 24.15 75.47 0.197 7.62 23.24 4.96
8/25/2021 8:30:00 PM 24.14 75.452 0.197 7.61 23.72 5.1
8/25/2021 8:45:00 PM 24.14 75.452 0.197 7.61 23.64 5.06
8/25/2021 9:00:00 PM 24.13 75.434 0.197 7.62 23.51 5.01
8/25/2021 9:15:00 PM 24.13 75.434 0.198 7.62 23.14 5.08
8/25/2021 9:30:00 PM 24.13 75.434 0.198 7.62 23.16 4.85
8/25/2021 9:45:00 PM 24.12 75.416 0.197 7.62 22.98 4.77
8/25/2021 10:00:00 PM 24.12 75.416 0.198 7.61 22.9 4.72
8/25/2021 10:15:00 PM 24.12 75.416 0.198 7.61 22.75 4.67
8/25/2021 10:30:00 PM 24.11 75.398 0.198 7.61 22.31 4.66
8/25/2021 10:45:00 PM 24.11 75.398 0.197 7.61 23.13 4.76
8/25/2021 11:00:00 PM 24.11 75.398 0.198 7.6 22.81 4.68
8/25/2021 11:15:00 PM 24.1 75.38 0.198 7.61 23.16 4.64
8/25/2021 11:30:00 PM 24.1 75.38 0.198 7.6 22.87 4.62
8/25/2021 11:45:00 PM 24.1 75.38 0.198 7.6 22.74 4.6
8/26/2021 12:00:00 AM 24.09 75.362 0.198 7.61 22.56 4.63
8/26/2021 12:15:00 AM 24.09 75.362 0.198 7.59 23.16 4.63
8/26/2021 12:30:00 AM 24.09 75.362 0.198 7.59 22.74 4.53
8/26/2021 12:45:00 AM 24.09 75.362 0.198 7.6 22.81 4.48
8/26/2021 1:00:00 AM 24.08 75.344 0.198 7.58 22.72 4.6
8/26/2021 1:15:00 AM 24.08 75.344 0.198 7.59 22.73 4.52
8/26/2021 1:30:00 AM 24.08 75.344 0.198 7.59 22.38 4.45
8/26/2021 1:45:00 AM 24.08 75.344 0.198 7.59 22.44 4.43
8/26/2021 2:00:00 AM 24.07 75.326 0.198 7.6 22.28 4.32
8/26/2021 2:15:00 AM 24.07 75.326 0.198 7.59 22.39 4.28
8/26/2021 2:30:00 AM 24.07 75.326 0.198 7.59 22.03 4.3
8/26/2021 2:45:00 AM 24.07 75.326 0.198 7.58 22.64 4.33
8/26/2021 3:00:00 AM 24.06 75.308 0.198 7.58 22.45 4.32
8/26/2021 3:15:00 AM 24.06 75.308 0.198 7.59 22.7 4.22
8/26/2021 3:30:00 AM 24.06 75.308 0.198 7.58 22.64 4.15
8/26/2021 3:45:00 AM 24.06 75.308 0.198 7.58 22.4 4.24
8/26/2021 4:00:00 AM 24.06 75.308 0.198 7.58 22.23 4.21
8/26/2021 4:15:00 AM 24.05 75.29 0.198 7.57 22.45 4.14
8/26/2021 4:30:00 AM 24.05 75.29 0.198 7.57 22.1 4.07
8/26/2021 4:45:00 AM 24.05 75.29 0.198 7.57 21.98 4.08
8/26/2021 5:00:00 AM 24.05 75.29 0.198 7.54 22.58 3.98
8/26/2021 5:15:00 AM 24.02 75.236 0.198 7.48 23.28 4.3
8/26/2021 5:30:00 AM 24.01 75.218 0.198 7.49 23.12 4.21
8/26/2021 5:45:00 AM 23.98 75.164 0.198 7.48 23.67 4.15
8/26/2021 6:00:00 AM 23.94 75.092 0.198 7.49 23.77 4.27
8/26/2021 6:15:00 AM 23.87 74.966 0.198 7.46 23.45 4.23
8/26/2021 6:30:00 AM 23.84 74.912 0.198 7.47 23.39 4.31
8/26/2021 6:45:00 AM 23.81 74.858 0.198 7.49 23.76 4.35
8/26/2021 7:00:00 AM 23.78 74.804 0.198 7.48 22.44 4.44
8/26/2021 7:15:00 AM 23.76 74.768 0.198 7.48 23.39 4.27
8/26/2021 7:30:00 AM 23.74 74.732 0.198 7.48 23.6 4.24
8/26/2021 7:45:00 AM 23.73 74.714 0.198 7.49 23.35 4.21
8/26/2021 8:00:00 AM 23.72 74.696 0.198 7.49 23.04 4.17
8/26/2021 8:15:00 AM 23.72 74.696 0.198 7.49 22.82 4.06
8/26/2021 8:30:00 AM 23.72 74.696 0.198 7.49 22.24 3.94
8/26/2021 8:45:00 AM 23.72 74.696 0.198 7.49 23.16 4.15
8/26/2021 9:00:00 AM 23.73 74.714 0.198 7.48 22.56 4.04
8/26/2021 9:15:00 AM 23.74 74.732 0.198 7.48 22.51 4.01
8/26/2021 9:30:00 AM 23.76 74.768 0.198 7.48 22.57 3.98
8/26/2021 9:45:00 AM 23.78 74.804 0.198 7.48 22.54 3.92
8/26/2021 10:00:00 AM 23.8 74.84 0.198 7.48 22.83 3.97
8/26/2021 10:15:00 AM 23.83 74.894 0.198 7.48 22.63 3.98
8/26/2021 10:30:00 AM 23.86 74.948 0.198 7.49 22.55 3.95
8/26/2021 10:45:00 AM 23.91 75.038 0.198 7.48 23.14 4.13
8/26/2021 11:00:00 AM 23.96 75.128 0.198 7.48 23.72 4
8/26/2021 11:15:00 AM 24.02 75.236 0.198 7.48 23.56 4.2
8/26/2021 11:30:00 AM 24.07 75.326 0.198 7.49 23.06 4.05
8/26/2021 11:45:00 AM 24.15 75.47 0.199 7.51 24.68 4.36
8/26/2021 12:00:00 PM 24.21 75.578 0.199 7.5 26.14 4.63
8/26/2021 12:15:00 PM 24.26 75.668 0.199 7.5 24.87 4.44
8/26/2021 12:30:00 PM 24.3 75.74 0.199 7.49 23.68 4.2
8/26/2021 12:45:00 PM 24.35 75.83 0.199 7.49 25.16 4.22
8/26/2021 1:00:00 PM 24.41 75.938 0.199 7.5 24.99 4.27
8/26/2021 1:15:00 PM 24.47 76.046 0.199 7.52 23.25 4.57
8/26/2021 1:30:00 PM 24.54 76.172 0.199 7.49 24.01 4.27
8/26/2021 1:45:00 PM 24.62 76.316 0.2 7.51 24.85 4.46
8/26/2021 2:00:00 PM 24.68 76.424 0.199 7.52 23.6 4.35
8/26/2021 2:15:00 PM 24.77 76.586 0.2 7.62 29.06 5.57
8/26/2021 2:30:00 PM 24.83 76.694 0.201 7.62 28.57 5.76
8/26/2021 2:45:00 PM 24.85 76.73 0.2 7.61 26.31 5.57
8/26/2021 3:00:00 PM 24.86 76.748 0.2 7.57 24.91 5.28
8/26/2021 3:15:00 PM 24.87 76.766 0.2 7.58 24.15 5.06
8/26/2021 3:30:00 PM 24.88 76.784 0.2 7.57 23.93 4.92
8/26/2021 3:45:00 PM 24.89 76.802 0.2 7.56 24.64 4.87
8/26/2021 4:00:00 PM 24.89 76.802 0.2 7.55 23.9 4.84
8/26/2021 4:15:00 PM 24.89 76.802 0.2 7.55 23.09 4.76
8/26/2021 4:30:00 PM 24.89 76.802 0.2 7.55 23.17 4.74
8/26/2021 4:45:00 PM 24.89 76.802 0.2 7.53 23.46 4.71
8/26/2021 5:00:00 PM 24.89 76.802 0.2 7.57 22.85 4.78
8/26/2021 5:15:00 PM 24.89 76.802 0.201 7.56 22.81 4.75
8/26/2021 5:30:00 PM 24.88 76.784 0.201 7.56 21.05 4.72
8/26/2021 5:45:00 PM 24.88 76.784 0.201 7.56 23.66 4.79
8/26/2021 6:00:00 PM 24.88 76.784 0.201 7.57 22.32 4.84
8/26/2021 6:15:00 PM 24.87 76.766 0.201 7.59 22.34 4.76
8/26/2021 6:30:00 PM 24.87 76.766 0.201 7.57 22.9 4.67
8/26/2021 6:45:00 PM 24.86 76.748 0.201 7.57 22.17 4.61
8/26/2021 7:00:00 PM 24.86 76.748 0.201 7.57 22.13 4.56
8/26/2021 7:15:00 PM 24.85 76.73 0.201 7.57 22.43 4.53
8/26/2021 7:30:00 PM 24.84 76.712 0.201 7.58 22.08 4.55
8/26/2021 7:45:00 PM 24.84 76.712 0.201 7.58 21.84 4.5
8/26/2021 8:00:00 PM 24.84 76.712 0.201 7.57 21.86 4.63
8/26/2021 8:15:00 PM 24.83 76.694 0.201 7.57 22.07 4.55
8/26/2021 8:30:00 PM 24.83 76.694 0.201 7.57 22.06 4.57
8/26/2021 8:45:00 PM 24.82 76.676 0.201 7.57 21.63 4.55
8/26/2021 9:00:00 PM 24.82 76.676 0.201 7.57 21.6 4.42
8/26/2021 9:15:00 PM 24.82 76.676 0.201 7.57 21.42 4.41
8/26/2021 9:30:00 PM 24.81 76.658 0.201 7.58 21.65 4.35
8/26/2021 9:45:00 PM 24.81 76.658 0.201 7.57 21.15 4.29
8/26/2021 10:00:00 PM 24.81 76.658 0.201 7.56 20.96 4.26
8/26/2021 10:15:00 PM 24.8 76.64 0.201 7.56 21.11 4.21
8/26/2021 10:30:00 PM 24.8 76.64 0.201 7.56 21.44 4.24
8/26/2021 10:45:00 PM 24.8 76.64 0.201 7.56 20.82 4.22
8/26/2021 11:00:00 PM 24.79 76.622 0.201 7.57 21.19 4.23
8/26/2021 11:15:00 PM 24.79 76.622 0.201 7.56 20.81 4.24
8/26/2021 11:30:00 PM 24.78 76.604 0.201 7.57 20.63 4.26
8/26/2021 11:45:00 PM 24.78 76.604 0.201 7.56 20.97 4.19
8/27/2021 12:00:00 AM 24.78 76.604 0.201 7.56 20.78 4.21
8/27/2021 12:15:00 AM 24.77 76.586 0.201 7.56 20.64 4.14
8/27/2021 12:30:00 AM 24.77 76.586 0.201 7.56 20.58 4.12
8/27/2021 12:45:00 AM 24.77 76.586 0.201 7.56 20.69 4.08
8/27/2021 1:00:00 AM 24.76 76.568 0.201 7.56 20.39 4.05
8/27/2021 1:15:00 AM 24.76 76.568 0.201 7.56 20.3 4.08
8/27/2021 1:30:00 AM 24.76 76.568 0.201 7.55 20.11 3.99
8/27/2021 1:45:00 AM 24.75 76.55 0.201 7.58 21.03 4.02
8/27/2021 2:00:00 AM 24.75 76.55 0.201 7.54 20.54 4.07
8/27/2021 2:15:00 AM 24.75 76.55 0.201 7.55 19.86 3.97
8/27/2021 2:30:00 AM 24.75 76.55 0.202 7.55 20.3 4.07
8/27/2021 2:45:00 AM 24.74 76.532 0.202 7.55 19.89 3.97
8/27/2021 3:00:00 AM 24.74 76.532 0.202 7.54 20.44 4.02
8/27/2021 3:15:00 AM 24.73 76.514 0.202 7.51 20.26 3.98
8/27/2021 3:30:00 AM 24.73 76.514 0.202 7.54 20.13 3.84
8/27/2021 3:45:00 AM 24.72 76.496 0.202 7.54 19.21 3.88
8/27/2021 4:00:00 AM 24.72 76.496 0.202 7.54 19.79 3.89
8/27/2021 4:15:00 AM 24.72 76.496 0.202 7.53 20.42 3.94
8/27/2021 4:30:00 AM 24.71 76.478 0.202 7.53 19.94 3.85
8/27/2021 4:45:00 AM 24.71 76.478 0.202 7.52 20.15 3.77
8/27/2021 5:00:00 AM 24.64 76.352 0.202 7.34 23.63 4.28
8/27/2021 5:15:00 AM 24.56 76.208 0.204 7.29 25.37 4.26
8/27/2021 5:30:00 AM 24.58 76.244 0.205 7.28 26.89 4.68
8/27/2021 5:45:00 AM 24.61 76.298 0.205 7.26 26.99 4.54
8/27/2021 6:00:00 AM 24.63 76.334 0.206 7.28 25.97 4.56
8/27/2021 6:15:00 AM 24.64 76.352 0.206 7.28 23.16 4.31
8/27/2021 6:30:00 AM 24.65 76.37 0.206 7.26 23.03 4.05
8/27/2021 6:45:00 AM 24.66 76.388 0.206 7.27 22.58 3.78
8/27/2021 7:00:00 AM 24.66 76.388 0.206 7.27 22.43 3.6
8/27/2021 7:15:00 AM 24.66 76.388 0.205 7.26 21.72 3.37
8/27/2021 7:30:00 AM 24.66 76.388 0.206 7.26 21.79 3.56
8/27/2021 7:45:00 AM 24.66 76.388 0.207 7.28 21.33 3.39
8/27/2021 8:00:00 AM 24.66 76.388 0.206 7.26 21.42 3.1
8/27/2021 8:15:00 AM 24.67 76.406 0.206 7.26 21.14 3.13
8/27/2021 8:30:00 AM 24.67 76.406 0.207 7.26 20.35 2.96
8/27/2021 8:45:00 AM 24.68 76.424 0.206 7.25 20.04 2.85
8/27/2021 9:00:00 AM 24.69 76.442 0.206 7.26 19.69 2.82
8/27/2021 9:15:00 AM 24.71 76.478 0.206 7.28 20.06 2.92
8/27/2021 9:30:00 AM 24.74 76.532 0.207 7.29 19.82 3.3
8/27/2021 9:45:00 AM 24.76 76.568 0.207 7.32 19.29 3.31
8/27/2021 10:00:00 AM 24.78 76.604 0.207 7.32 19.31 3.23
8/27/2021 10:15:00 AM 24.8 76.64 0.207 7.31 19.02 3
8/27/2021 10:30:00 AM 24.82 76.676 0.208 7.31 18.48 2.86
8/27/2021 10:45:00 AM 24.84 76.712 0.207 7.31 18.94 2.9
8/27/2021 11:00:00 AM 24.86 76.748 0.208 7.33 18.71 3.05
8/27/2021 11:15:00 AM 24.89 76.802 0.208 7.35 18.44 3.28
8/27/2021 11:30:00 AM 24.92 76.856 0.208 7.34 18.67 3.3
8/27/2021 11:45:00 AM 24.96 76.92799 0.208 7.37 18.35 3.44
8/27/2021 12:00:00 PM 25 77 0.209 7.39 17.7 3.54
8/27/2021 12:15:00 PM 25.03 77.054 0.209 7.45 18.21 4.04
8/27/2021 12:30:00 PM 25.06 77.108 0.209 7.45 17.56 4.42
8/27/2021 12:45:00 PM 25.08 77.144 0.209 7.46 17.55 4.41
8/27/2021 1:00:00 PM 25.1 77.18 0.209 7.43 17.18 3.99
8/27/2021 1:15:00 PM 25.12 77.216 0.209 7.45 16.94 4.36
8/27/2021 1:30:00 PM 25.15 77.27 0.21 7.49 16.43 4.8
8/27/2021 1:45:00 PM 25.18 77.324 0.21 7.58 17.62 5.64
8/27/2021 2:00:00 PM 25.21 77.378 0.21 7.53 16.97 5.37
8/27/2021 2:15:00 PM 25.23 77.414 0.21 7.52 16.29 4.94
8/27/2021 2:30:00 PM 25.24 77.432 0.21 7.55 16.22 5.14
8/27/2021 2:45:00 PM 25.25 77.45 0.211 7.52 15.57 5.05
8/27/2021 3:00:00 PM 25.25 77.45 0.21 7.5 16.07 5
8/27/2021 3:15:00 PM 25.25 77.45 0.21 7.5 15.72 4.8
8/27/2021 3:30:00 PM 25.25 77.45 0.21 7.51 15.72 4.96
8/27/2021 3:45:00 PM 25.25 77.45 0.21 7.5 15.31 4.95
8/27/2021 4:00:00 PM 25.25 77.45 0.21 7.5 15.35 4.76
8/27/2021 4:15:00 PM 25.25 77.45 0.211 7.49 15.53 4.63
8/27/2021 4:30:00 PM 25.25 77.45 0.211 7.49 15.53 4.67
8/27/2021 4:45:00 PM 25.25 77.45 0.211 7.49 14.86 4.71
8/27/2021 5:00:00 PM 25.24 77.432 0.211 7.51 15 4.72
8/27/2021 5:15:00 PM 25.24 77.432 0.211 7.5 14.79 4.67
8/27/2021 5:30:00 PM 25.24 77.432 0.211 7.52 14.73 4.71
8/27/2021 5:45:00 PM 25.23 77.414 0.211 7.53 14.87 4.67
8/27/2021 6:00:00 PM 25.23 77.414 0.211 7.51 14.74 4.65
8/27/2021 6:15:00 PM 25.23 77.414 0.211 7.52 14.33 4.7
8/27/2021 6:30:00 PM 25.22 77.396 0.211 7.54 14.33 4.86
8/27/2021 6:45:00 PM 25.22 77.396 0.211 7.53 14.36 4.72
8/27/2021 7:00:00 PM 25.21 77.378 0.211 7.53 14.36 4.72
8/27/2021 7:15:00 PM 25.21 77.378 0.211 7.52 14.15 4.72
8/27/2021 7:30:00 PM 25.21 77.378 0.211 7.52 14.54 4.69
8/27/2021 7:45:00 PM 25.2 77.36 0.211 7.55 14.33 4.72
8/27/2021 8:00:00 PM 25.2 77.36 0.211 7.52 14.32 4.61
8/27/2021 8:15:00 PM 25.19 77.342 0.211 7.53 14.12 4.63
8/27/2021 8:30:00 PM 25.19 77.342 0.211 7.52 13.98 4.59
8/27/2021 8:45:00 PM 25.19 77.342 0.211 7.52 13.96 4.58
8/27/2021 9:00:00 PM 25.18 77.324 0.211 7.53 13.86 4.65
8/27/2021 9:15:00 PM 25.18 77.324 0.211 7.53 13.83 4.61
8/27/2021 9:30:00 PM 25.17 77.306 0.211 7.53 13.85 4.54
8/27/2021 9:45:00 PM 25.17 77.306 0.211 7.53 13.79 4.59
8/27/2021 10:00:00 PM 25.17 77.306 0.212 7.53 13.38 4.46
8/27/2021 10:15:00 PM 25.16 77.288 0.212 7.52 13.81 4.56
8/27/2021 10:30:00 PM 25.16 77.288 0.211 7.54 13.75 4.49
8/27/2021 10:45:00 PM 25.16 77.288 0.212 7.52 13.53 4.42
8/27/2021 11:00:00 PM 25.15 77.27 0.212 7.53 13.32 4.39
8/27/2021 11:15:00 PM 25.15 77.27 0.212 7.53 13.51 4.41
8/27/2021 11:30:00 PM 25.15 77.27 0.212 7.52 13.29 4.39
8/27/2021 11:45:00 PM 25.14 77.252 0.212 7.53 13.24 4.45
8/28/2021 12:00:00 AM 25.14 77.252 0.212 7.52 13.11 4.36
8/28/2021 12:15:00 AM 25.13 77.234 0.212 7.53 13.01 4.33
8/28/2021 12:30:00 AM 25.13 77.234 0.212 7.54 13.4 4.27
8/28/2021 12:45:00 AM 25.13 77.234 0.212 7.52 12.91 4.34
8/28/2021 1:00:00 AM 25.12 77.216 0.212 7.53 12.99 4.28
8/28/2021 1:15:00 AM 25.12 77.216 0.212 7.53 12.87 4.26
8/28/2021 1:30:00 AM 25.12 77.216 0.212 7.52 12.6 4.27
8/28/2021 1:45:00 AM 25.11 77.198 0.212 7.53 12.78 4.23
8/28/2021 2:00:00 AM 25.11 77.198 0.212 7.53 12.79 4.29
8/28/2021 2:15:00 AM 25.11 77.198 0.212 7.53 12.68 4.33
8/28/2021 2:30:00 AM 25.1 77.18 0.212 7.53 12.55 4.25
8/28/2021 2:45:00 AM 25.1 77.18 0.212 7.53 12.82 4.23
8/28/2021 3:00:00 AM 25.1 77.18 0.212 7.52 12.58 4.17
8/28/2021 3:15:00 AM 25.09 77.162 0.212 7.53 12.3 4.18
8/28/2021 3:30:00 AM 25.09 77.162 0.212 7.54 12.52 4.19
8/28/2021 3:45:00 AM 25.09 77.162 0.212 7.53 12.38 4.21
8/28/2021 4:00:00 AM 25.08 77.144 0.212 7.53 12.52 4.26
8/28/2021 4:15:00 AM 25.08 77.144 0.212 7.53 12.17 4.16
8/28/2021 4:30:00 AM 25.08 77.144 0.212 7.53 12.42 4.09
8/28/2021 4:45:00 AM 25.07 77.126 0.212 7.53 12.39 4.16
8/28/2021 5:00:00 AM 25.07 77.126 0.212 7.52 12.54 4.2
8/28/2021 5:15:00 AM 25.05 77.09 0.212 7.47 12.82 3.98
8/28/2021 5:30:00 AM 25.01 77.018 0.213 7.45 13.53 3.89
8/28/2021 5:45:00 AM 24.95 76.91 0.213 7.44 13.43 3.81
8/28/2021 6:00:00 AM 24.89 76.802 0.213 7.44 13.28 3.74
8/28/2021 6:15:00 AM 24.83 76.694 0.213 7.44 13.69 3.81
8/28/2021 6:30:00 AM 24.78 76.604 0.213 7.46 13.96 4.14
8/28/2021 6:45:00 AM 24.73 76.514 0.214 7.46 13.35 3.96
8/28/2021 7:00:00 AM 24.69 76.442 0.214 7.46 13.89 4
8/28/2021 7:15:00 AM 24.67 76.406 0.214 7.47 13.11 3.94
8/28/2021 7:30:00 AM 24.65 76.37 0.214 7.46 13.32 3.92
8/28/2021 7:45:00 AM 24.63 76.334 0.214 7.47 13.73 3.81
8/28/2021 8:00:00 AM 24.62 76.316 0.214 7.46 13.24 3.74
8/28/2021 8:15:00 AM 24.61 76.298 0.215 7.45 13.09 3.72
8/28/2021 8:30:00 AM 24.6 76.28 0.214 7.46 12.73 3.62
8/28/2021 8:45:00 AM 24.59 76.262 0.215 7.46 12.6 3.64
8/28/2021 9:00:00 AM 24.59 76.262 0.215 7.46 12.32 3.5
8/28/2021 9:15:00 AM 24.59 76.262 0.214 7.45 12.17 3.47
8/28/2021 9:30:00 AM 24.59 76.262 0.215 7.45 11.72 3.31
8/28/2021 9:45:00 AM 24.6 76.28 0.214 7.45 11.65 3.32
8/28/2021 10:00:00 AM 24.62 76.316 0.215 7.44 11.93 3.34
8/28/2021 10:15:00 AM 24.64 76.352 0.215 7.47 11.9 3.31
8/28/2021 10:30:00 AM 24.65 76.37 0.216 7.51 12.76 4.42
8/28/2021 10:45:00 AM 24.67 76.406 0.216 7.5 12.06 4.14
8/28/2021 11:00:00 AM 24.68 76.424 0.215 7.49 11.97 3.84
8/28/2021 11:15:00 AM 24.68 76.424 0.215 7.48 11.87 3.67
8/28/2021 11:30:00 AM 24.69 76.442 0.216 7.48 12.1 3.54
8/28/2021 11:45:00 AM 24.69 76.442 0.216 7.48 11.61 3.56
8/28/2021 12:00:00 PM 24.7 76.46 0.216 7.48 11.65 3.54
8/28/2021 12:15:00 PM 24.73 76.514 0.216 7.5 12.06 3.67
8/28/2021 12:30:00 PM 24.76 76.568 0.217 7.56 12.32 4.46
8/28/2021 12:45:00 PM 24.79 76.622 0.217 7.56 12.7 4.79
8/28/2021 1:00:00 PM 24.8 76.64 0.217 7.56 12.21 4.48
8/28/2021 1:15:00 PM 24.82 76.676 0.217 7.54 12.19 4.54
8/28/2021 1:30:00 PM 24.83 76.694 0.217 7.55 11.7 4.36
8/28/2021 1:45:00 PM 24.83 76.694 0.217 7.55 11.64 4.5
8/28/2021 2:00:00 PM 24.84 76.712 0.217 7.55 11.62 4.35
8/28/2021 2:15:00 PM 24.84 76.712 0.217 7.55 11.67 4.53
8/28/2021 2:30:00 PM 24.84 76.712 0.217 7.55 11.48 4.32
8/28/2021 2:45:00 PM 24.84 76.712 0.218 7.57 11.45 4.43
8/28/2021 3:00:00 PM 24.84 76.712 0.217 7.56 11.28 4.3
8/28/2021 3:15:00 PM 24.84 76.712 0.217 7.56 11.12 4.3
8/28/2021 3:30:00 PM 24.84 76.712 0.217 7.56 11.16 4.34
8/28/2021 3:45:00 PM 24.84 76.712 0.217 7.55 10.9 4.25
8/28/2021 4:00:00 PM 24.84 76.712 0.217 7.54 11.08 4.19
8/28/2021 4:15:00 PM 24.84 76.712 0.217 7.54 10.95 4.14
8/28/2021 4:30:00 PM 24.83 76.694 0.217 7.54 11.15 4.1
8/28/2021 4:45:00 PM 24.83 76.694 0.217 7.55 11.05 4.05
8/28/2021 5:00:00 PM 24.83 76.694 0.217 7.56 10.84 4.08
8/28/2021 5:15:00 PM 24.83 76.694 0.217 7.55 10.67 4.03
8/28/2021 5:30:00 PM 24.83 76.694 0.218 7.55 10.73 4.01
8/28/2021 5:45:00 PM 24.82 76.676 0.217 7.55 10.48 4.04
8/28/2021 6:00:00 PM 24.82 76.676 0.218 7.54 10.7 3.95
8/28/2021 6:15:00 PM 24.82 76.676 0.218 7.54 10.64 3.9
8/28/2021 6:30:00 PM 24.82 76.676 0.218 7.54 10.36 3.92
8/28/2021 6:45:00 PM 24.81 76.658 0.218 7.55 10.44 3.94
8/28/2021 7:00:00 PM 24.81 76.658 0.218 7.55 10.33 4.05
8/28/2021 7:15:00 PM 24.81 76.658 0.218 7.56 10.2 3.96
8/28/2021 7:30:00 PM 24.8 76.64 0.218 7.55 10.42 3.91
8/28/2021 7:45:00 PM 24.8 76.64 0.218 7.56 10.43 3.94
8/28/2021 8:00:00 PM 24.8 76.64 0.218 7.57 9.97 3.94
8/28/2021 8:15:00 PM 24.8 76.64 0.218 7.56 10.2 3.94
8/28/2021 8:30:00 PM 24.79 76.622 0.218 7.56 10.05 3.94
8/28/2021 8:45:00 PM 24.79 76.622 0.218 7.56 9.98 3.91
8/28/2021 9:00:00 PM 24.79 76.622 0.218 7.55 10.25 3.84
8/28/2021 9:15:00 PM 24.78 76.604 0.218 7.57 10.09 3.84
8/28/2021 9:30:00 PM 24.78 76.604 0.218 7.56 10.13 3.89
8/28/2021 9:45:00 PM 24.78 76.604 0.218 7.55 10.04 3.84
8/28/2021 10:00:00 PM 24.78 76.604 0.219 7.56 10.03 3.83
8/28/2021 10:15:00 PM 24.77 76.586 0.218 7.56 9.97 3.87
8/28/2021 10:30:00 PM 24.77 76.586 0.219 7.58 10.41 3.94
8/28/2021 10:45:00 PM 24.76 76.568 0.218 7.56 9.99 3.93
8/28/2021 11:00:00 PM 24.76 76.568 0.218 7.56 10.09 3.9
8/28/2021 11:15:00 PM 24.76 76.568 0.218 7.57 9.96 3.99
8/28/2021 11:30:00 PM 24.76 76.568 0.218 7.59 9.78 3.95
8/28/2021 11:45:00 PM 24.75 76.55 0.219 7.59 9.72 3.95
8/29/2021 12:00:00 AM 24.75 76.55 0.218 7.58 9.79 4
8/29/2021 12:15:00 AM 24.75 76.55 0.219 7.59 9.74 3.93
8/29/2021 12:30:00 AM 24.75 76.55 0.219 7.57 9.72 3.85
8/29/2021 12:45:00 AM 24.74 76.532 0.219 7.6 9.73 4.03
8/29/2021 1:00:00 AM 24.74 76.532 0.219 7.57 9.77 3.94
8/29/2021 1:15:00 AM 24.74 76.532 0.219 7.57 9.59 3.8
8/29/2021 1:30:00 AM 24.73 76.514 0.219 7.57 9.53 3.72
8/29/2021 1:45:00 AM 24.73 76.514 0.219 7.58 9.66 3.86
8/29/2021 2:00:00 AM 24.73 76.514 0.219 7.58 9.85 3.91
8/29/2021 2:15:00 AM 24.73 76.514 0.219 7.59 9.67 3.86
8/29/2021 2:30:00 AM 24.72 76.496 0.219 7.57 9.48 3.74
8/29/2021 2:45:00 AM 24.72 76.496 0.219 7.58 9.58 3.79
8/29/2021 3:00:00 AM 24.72 76.496 0.219 7.58 9.41 3.97
8/29/2021 3:15:00 AM 24.71 76.478 0.219 7.58 9.22 3.74
8/29/2021 3:30:00 AM 24.71 76.478 0.219 7.58 9.52 3.9
8/29/2021 3:45:00 AM 24.71 76.478 0.219 7.58 9.31 3.86
8/29/2021 4:00:00 AM 24.7 76.46 0.219 7.58 9.39 3.93
8/29/2021 4:15:00 AM 24.7 76.46 0.219 7.57 9.43 3.79
8/29/2021 4:30:00 AM 24.7 76.46 0.219 7.58 9.49 3.95
8/29/2021 4:45:00 AM 24.69 76.442 0.219 7.59 9.37 4.07
8/29/2021 5:00:00 AM 24.69 76.442 0.219 7.58 9.49 3.98
8/29/2021 5:15:00 AM 24.69 76.442 0.219 7.58 9.37 3.83
8/29/2021 5:30:00 AM 24.68 76.424 0.219 7.58 9.31 3.96
8/29/2021 5:45:00 AM 24.68 76.424 0.219 7.58 9.65 3.87
8/29/2021 6:00:00 AM 24.68 76.424 0.22 7.58 9.23 3.89
8/29/2021 6:15:00 AM 24.67 76.406 0.219 7.58 9.24 3.82
8/29/2021 6:30:00 AM 24.67 76.406 0.219 7.58 9.28 3.81
8/29/2021 6:45:00 AM 24.64 76.352 0.219 7.57 9.4 3.86
8/29/2021 7:00:00 AM 24.5 76.1 0.219 7.58 9.66 3.84
8/29/2021 7:15:00 AM 24.37 75.866 0.219 7.56 9.43 3.75
8/29/2021 7:30:00 AM 24.29 75.722 0.219 7.57 9.53 3.71
8/29/2021 7:45:00 AM 24.21 75.578 0.219 7.58 9.59 3.82
8/29/2021 8:00:00 AM 24.15 75.47 0.219 7.58 9.37 3.68
8/29/2021 8:15:00 AM 24.11 75.398 0.219 7.57 9.13 3.71
8/29/2021 8:30:00 AM 24.08 75.344 0.219 7.57 9.49 3.69
8/29/2021 8:45:00 AM 24.05 75.29 0.219 7.58 9.27 3.68
8/29/2021 9:00:00 AM 24.04 75.272 0.219 7.58 9.32 3.72
8/29/2021 9:15:00 AM 24.03 75.254 0.219 7.58 9.05 3.79
8/29/2021 9:30:00 AM 24.02 75.236 0.219 7.59 9.06 3.79
8/29/2021 9:45:00 AM 24.01 75.218 0.219 7.59 8.84 3.63
8/29/2021 10:00:00 AM 24.01 75.218 0.22 7.58 8.87 3.59
8/29/2021 10:15:00 AM 24.02 75.236 0.219 7.58 8.68 3.54
8/29/2021 10:30:00 AM 24.03 75.254 0.22 7.58 9.07 3.52
8/29/2021 10:45:00 AM 24.04 75.272 0.22 7.58 8.74 3.51
8/29/2021 11:00:00 AM 24.06 75.308 0.22 7.58 8.67 3.36
8/29/2021 11:15:00 AM 24.08 75.344 0.22 7.58 8.65 3.58
8/29/2021 11:30:00 AM 24.11 75.398 0.22 7.58 8.49 3.54
8/29/2021 11:45:00 AM 24.14 75.452 0.22 7.6 8.98 3.66
8/29/2021 12:00:00 PM 24.17 75.506 0.22 7.59 8.52 3.66
8/29/2021 12:15:00 PM 24.19 75.542 0.22 7.59 9.04 3.72
8/29/2021 12:30:00 PM 24.23 75.614 0.221 7.65 8.7 4.95
8/29/2021 12:45:00 PM 24.25 75.65 0.221 7.66 8.54 4.87
8/29/2021 1:00:00 PM 24.28 75.704 0.221 7.65 8.37 4.62
8/29/2021 1:15:00 PM 24.31 75.758 0.221 7.64 8.69 4.49
8/29/2021 1:30:00 PM 24.35 75.83 0.221 7.66 8.25 4.76
8/29/2021 1:45:00 PM 24.39 75.902 0.223 7.75 8.65 6.16
8/29/2021 2:00:00 PM 24.42 75.956 0.222 7.75 8.01 6.36
8/29/2021 2:15:00 PM 24.44 75.992 0.223 7.76 8.39 6.46
8/29/2021 2:30:00 PM 24.46 76.028 0.223 7.77 7.89 6.42
8/29/2021 2:45:00 PM 24.47 76.046 0.223 7.78 7.58 6.39
8/29/2021 3:00:00 PM 24.48 76.064 0.223 7.75 7.68 6.35
8/29/2021 3:15:00 PM 24.48 76.064 0.223 7.76 7.92 6.17
8/29/2021 3:30:00 PM 24.48 76.064 0.223 7.75 7.21 6.17
8/29/2021 3:45:00 PM 24.48 76.064 0.223 7.76 7.23 6.18
8/29/2021 4:00:00 PM 24.48 76.064 0.223 7.74 7.26 6.07
8/29/2021 4:15:00 PM 24.48 76.064 0.223 7.73 6.92 6.05
8/29/2021 4:30:00 PM 24.48 76.064 0.223 7.74 6.96 5.94
8/29/2021 4:45:00 PM 24.48 76.064 0.223 7.74 6.88 5.94
8/29/2021 5:00:00 PM 24.48 76.064 0.223 7.74 6.89 5.95
8/29/2021 5:15:00 PM 24.48 76.064 0.223 7.74 6.72 5.9
8/29/2021 5:30:00 PM 24.48 76.064 0.224 7.74 6.64 5.87
8/29/2021 5:45:00 PM 24.48 76.064 0.223 7.74 6.62 5.89
8/29/2021 6:00:00 PM 24.47 76.046 0.224 7.74 6.78 5.84
8/29/2021 6:15:00 PM 24.47 76.046 0.224 7.74 6.36 5.81
8/29/2021 6:30:00 PM 24.47 76.046 0.224 7.74 6.59 5.78
8/29/2021 6:45:00 PM 24.47 76.046 0.224 7.75 6.29 5.78
8/29/2021 7:00:00 PM 24.47 76.046 0.224 7.74 6.59 5.77
8/29/2021 7:15:00 PM 24.46 76.028 0.224 7.74 6.23 5.73
8/29/2021 7:30:00 PM 24.46 76.028 0.224 7.73 6.42 5.78
8/29/2021 7:45:00 PM 24.46 76.028 0.224 7.74 6.3 5.74
8/29/2021 8:00:00 PM 24.46 76.028 0.224 7.74 6.21 5.68
8/29/2021 8:15:00 PM 24.46 76.028 0.224 7.73 6.3 5.68
8/29/2021 8:30:00 PM 24.45 76.01 0.224 7.74 6.19 5.65
8/29/2021 8:45:00 PM 24.45 76.01 0.224 7.74 6.2 5.57
8/29/2021 9:00:00 PM 24.45 76.01 0.224 7.74 6.09 5.57
8/29/2021 9:15:00 PM 24.45 76.01 0.224 7.74 6.1 5.55
8/29/2021 9:30:00 PM 24.44 75.992 0.224 7.74 6.1 5.63
8/29/2021 9:45:00 PM 24.44 75.992 0.224 7.73 6.17 5.59
8/29/2021 10:00:00 PM 24.44 75.992 0.224 7.74 6.04 5.5
8/29/2021 10:15:00 PM 24.44 75.992 0.224 7.73 6 5.48
8/29/2021 10:30:00 PM 24.44 75.992 0.224 7.73 5.86 5.46
8/29/2021 10:45:00 PM 24.44 75.992 0.224 7.74 5.87 5.45
8/29/2021 11:00:00 PM 24.43 75.974 0.224 7.73 5.89 5.46
8/29/2021 11:15:00 PM 24.43 75.974 0.224 7.73 6.04 5.58
8/29/2021 11:30:00 PM 24.43 75.974 0.224 7.73 5.88 5.48
8/29/2021 11:45:00 PM 24.43 75.974 0.224 7.74 5.68 5.57
8/30/2021 12:00:00 AM 24.42 75.956 0.224 7.74 5.7 5.52
8/30/2021 12:15:00 AM 24.42 75.956 0.224 7.73 5.7 5.42
8/30/2021 12:30:00 AM 24.42 75.956 0.224 7.74 5.5 5.43
8/30/2021 12:45:00 AM 24.42 75.956 0.225 7.74 5.8 5.55
8/30/2021 1:00:00 AM 24.42 75.956 0.225 7.74 5.74 5.48
8/30/2021 1:15:00 AM 24.41 75.938 0.224 7.74 5.59 5.39
8/30/2021 1:30:00 AM 24.41 75.938 0.225 7.72 5.7 5.29
8/30/2021 1:45:00 AM 24.41 75.938 0.225 7.73 5.58 5.3
8/30/2021 2:00:00 AM 24.41 75.938 0.225 7.73 5.61 5.26
8/30/2021 2:15:00 AM 24.41 75.938 0.225 7.73 5.57 5.23
8/30/2021 2:30:00 AM 24.4 75.92 0.225 7.73 5.59 5.3
8/30/2021 2:45:00 AM 24.4 75.92 0.225 7.72 5.59 5.3
8/30/2021 3:00:00 AM 24.4 75.92 0.225 7.71 5.51 5.25
8/30/2021 3:15:00 AM 24.4 75.92 0.225 7.72 5.69 5.27
8/30/2021 3:30:00 AM 24.39 75.902 0.225 7.72 5.44 5.31
8/30/2021 3:45:00 AM 24.39 75.902 0.225 7.73 5.36 5.32
8/30/2021 4:00:00 AM 24.39 75.902 0.225 7.73 5.39 5.21
8/30/2021 4:15:00 AM 24.39 75.902 0.225 7.71 5.34 5.32
8/30/2021 4:30:00 AM 24.38 75.884 0.225 7.72 5.3 5.24
8/30/2021 4:45:00 AM 24.38 75.884 0.225 7.73 5.44 5.24
8/30/2021 5:00:00 AM 24.38 75.884 0.225 7.72 5.31 5.19
8/30/2021 5:15:00 AM 24.38 75.884 0.225 7.72 5.43 5.01
8/30/2021 5:30:00 AM 24.37 75.866 0.225 7.73 5.16 4.99
8/30/2021 5:45:00 AM 24.31 75.758 0.225 7.71 5.49 5.16
8/30/2021 6:00:00 AM 24.25 75.65 0.225 7.71 5.47 5.14
8/30/2021 6:15:00 AM 24.18 75.524 0.225 7.71 5.57 5.19
8/30/2021 6:30:00 AM 24.12 75.416 0.225 7.7 5.66 5.17
8/30/2021 6:45:00 AM 24.05 75.29 0.225 7.7 5.55 5.09
8/30/2021 7:00:00 AM 24 75.2 0.225 7.7 5.55 5.03
8/30/2021 7:15:00 AM 23.95 75.11 0.225 7.7 5.46 5.05
8/30/2021 7:30:00 AM 23.91 75.038 0.225 7.7 5.48 5.02
8/30/2021 7:45:00 AM 23.87 74.966 0.225 7.7 5.42 4.94
8/30/2021 8:00:00 AM 23.85 74.93 0.225 7.7 5.34 4.88
8/30/2021 8:15:00 AM 23.83 74.894 0.225 7.7 5.38 4.87
8/30/2021 8:30:00 AM 23.82 74.876 0.225 7.7 5.41 4.79
8/30/2021 8:45:00 AM 23.81 74.858 0.225 7.69 5.16 4.77
8/30/2021 9:00:00 AM 23.81 74.858 0.225 7.7 5.21 4.76
8/30/2021 9:15:00 AM 23.81 74.858 0.225 7.7 5.1 4.66
8/30/2021 9:30:00 AM 23.83 74.894 0.225 7.7 5.1 4.59
8/30/2021 9:45:00 AM 23.84 74.912 0.225 7.69 5.05 4.54
8/30/2021 10:00:00 AM 23.85 74.93 0.225 7.7 5.05 4.56
8/30/2021 10:15:00 AM 23.87 74.966 0.225 7.7 4.91 4.52
8/30/2021 10:30:00 AM 23.9 75.02 0.225 7.69 5.21 4.48
8/30/2021 10:45:00 AM 23.95 75.11 0.225 7.69 5.22 4.52
8/30/2021 11:00:00 AM 23.99 75.182 0.226 7.69 5.17 4.55
8/30/2021 11:15:00 AM 24.03 75.254 0.225 7.69 5.2 4.57
8/30/2021 11:30:00 AM 24.07 75.326 0.226 7.7 6.01 4.7
8/30/2021 11:45:00 AM 24.09 75.362 0.226 7.71 5.54 4.83
8/30/2021 12:00:00 PM 24.11 75.398 0.226 7.71 5.59 4.81
8/30/2021 12:15:00 PM 24.13 75.434 0.226 7.71 5.89 4.78
8/30/2021 12:30:00 PM 24.15 75.47 0.226 7.7 6.34 4.81
8/30/2021 12:45:00 PM 24.18 75.524 0.226 7.71 5.87 4.68
8/30/2021 1:00:00 PM 24.21 75.578 0.226 7.71 5.58 4.84
8/30/2021 1:15:00 PM 24.25 75.65 0.226 7.72 7.19 5.04
8/30/2021 1:30:00 PM 24.29 75.722 0.226 7.71 6.06 5.03
8/30/2021 1:45:00 PM 24.33 75.794 0.226 7.73 6.01 5.1
8/30/2021 2:00:00 PM 24.37 75.866 0.226 7.73 6.34 5.11
8/30/2021 2:15:00 PM 24.41 75.938 0.226 7.74 6.28 5.38
8/30/2021 2:30:00 PM 24.42 75.956 0.226 7.8 8.6 6.64
8/30/2021 2:45:00 PM 24.44 75.992 0.226 7.8 8.77 6.61
8/30/2021 3:00:00 PM 24.45 76.01 0.226 7.79 8.24 6.29
8/30/2021 3:15:00 PM 24.46 76.028 0.226 7.79 8 6.26
8/30/2021 3:30:00 PM 24.47 76.046 0.226 7.8 7.49 6.33
8/30/2021 3:45:00 PM 24.47 76.046 0.226 7.79 8.05 6.2
8/30/2021 4:00:00 PM 24.48 76.064 0.226 7.78 8.53 6.15
8/30/2021 4:15:00 PM 24.48 76.064 0.226 7.79 8.07 6.23
8/30/2021 4:30:00 PM 24.48 76.064 0.226 7.79 7.52 6.17
8/30/2021 4:45:00 PM 24.48 76.064 0.226 7.79 7.37 6.13
8/30/2021 5:00:00 PM 24.47 76.046 0.226 7.8 7.27 6.1
8/30/2021 5:15:00 PM 24.47 76.046 0.226 7.78 7.26 6.04
8/30/2021 5:30:00 PM 24.47 76.046 0.226 7.78 7.16 6.04
8/30/2021 5:45:00 PM 24.47 76.046 0.226 7.78 6.85 5.97
8/30/2021 6:00:00 PM 24.47 76.046 0.226 7.78 6.99 5.92
8/30/2021 6:15:00 PM 24.47 76.046 0.226 7.78 7.06 5.9
8/30/2021 6:30:00 PM 24.46 76.028 0.226 7.78 6.88 5.97
8/30/2021 6:45:00 PM 24.46 76.028 0.226 7.78 6.73 5.95
8/30/2021 7:00:00 PM 24.46 76.028 0.226 7.78 7.69 5.86
8/30/2021 7:15:00 PM 24.46 76.028 0.226 7.78 6.83 5.82
8/30/2021 7:30:00 PM 24.46 76.028 0.226 7.79 6.69 5.76
8/30/2021 7:45:00 PM 24.46 76.028 0.226 7.78 6.66 5.75
8/30/2021 8:00:00 PM 24.45 76.01 0.226 7.79 6.6 5.7
8/30/2021 8:15:00 PM 24.45 76.01 0.226 7.78 6.4 5.72
8/30/2021 8:30:00 PM 24.45 76.01 0.226 7.77 6.46 5.66
8/30/2021 8:45:00 PM 24.45 76.01 0.226 7.78 6.48 5.62
8/30/2021 9:00:00 PM 24.44 75.992 0.226 7.77 6.54 5.6
8/30/2021 9:15:00 PM 24.44 75.992 0.226 7.78 6.27 5.53
8/30/2021 9:30:00 PM 24.44 75.992 0.226 7.77 6.65 5.52
8/30/2021 9:45:00 PM 24.44 75.992 0.226 7.78 6.3 5.55
8/30/2021 10:00:00 PM 24.44 75.992 0.226 7.77 6.29 5.54
8/30/2021 10:15:00 PM 24.43 75.974 0.227 7.78 6.41 5.41
8/30/2021 10:30:00 PM 24.43 75.974 0.227 7.77 6.08 5.46
8/30/2021 10:45:00 PM 24.43 75.974 0.227 7.77 6.07 5.44
8/30/2021 11:00:00 PM 24.43 75.974 0.227 7.77 6.19 5.36
8/30/2021 11:15:00 PM 24.42 75.956 0.226 7.77 6.05 5.35
8/30/2021 11:30:00 PM 24.42 75.956 0.227 7.77 6.1 5.41
8/30/2021 11:45:00 PM 24.42 75.956 0.227 7.76 5.9 5.3
8/31/2021 12:00:00 AM 24.42 75.956 0.227 7.77 6.06 5.38
8/31/2021 12:15:00 AM 24.41 75.938 0.227 7.77 6.21 5.36
8/31/2021 12:30:00 AM 24.41 75.938 0.227 7.77 5.96 5.27
8/31/2021 12:45:00 AM 24.41 75.938 0.227 7.76 5.97 5.26
8/31/2021 1:00:00 AM 24.41 75.938 0.227 7.76 5.96 5.14
8/31/2021 1:15:00 AM 24.4 75.92 0.227 7.76 5.9 5.18
8/31/2021 1:30:00 AM 24.4 75.92 0.227 7.75 6 5.13
8/31/2021 1:45:00 AM 24.4 75.92 0.227 7.78 5.85 5.11
8/31/2021 2:00:00 AM 24.4 75.92 0.227 7.76 5.74 5.1
8/31/2021 2:15:00 AM 24.39 75.902 0.227 7.76 5.85 5.01
8/31/2021 2:30:00 AM 24.39 75.902 0.227 7.75 5.85 5.01
8/31/2021 2:45:00 AM 24.39 75.902 0.227 7.76 5.77 4.94
8/31/2021 3:00:00 AM 24.39 75.902 0.227 7.76 5.72 4.92
8/31/2021 3:15:00 AM 24.38 75.884 0.227 7.76 5.71 4.92
8/31/2021 3:30:00 AM 24.38 75.884 0.227 7.75 5.71 4.96
8/31/2021 3:45:00 AM 24.38 75.884 0.227 7.75 5.64 4.89
8/31/2021 4:00:00 AM 24.37 75.866 0.227 7.74 5.64 4.71
8/31/2021 4:15:00 AM 24.35 75.83 0.227 7.74 5.76 4.77
8/31/2021 4:30:00 AM 24.35 75.83 0.227 7.75 5.8 4.87
8/31/2021 4:45:00 AM 24.36 75.848 0.227 7.74 5.63 4.7
8/31/2021 5:00:00 AM 24.37 75.866 0.227 7.74 5.52 4.54
8/31/2021 5:15:00 AM 24.36 75.848 0.227 7.74 5.6 4.48
8/31/2021 5:30:00 AM 24.36 75.848 0.227 7.73 5.62 4.44
8/31/2021 5:45:00 AM 24.35 75.83 0.227 7.74 5.66 4.54
8/31/2021 6:00:00 AM 24.34 75.812 0.227 7.73 5.9 4.73
8/31/2021 6:15:00 AM 24.33 75.794 0.227 7.73 5.99 4.87
8/31/2021 6:30:00 AM 24.31 75.758 0.227 7.73 6.07 4.88
8/31/2021 6:45:00 AM 24.3 75.74 0.227 7.73 5.74 4.88
8/31/2021 7:00:00 AM 24.28 75.704 0.227 7.73 6.04 4.91
8/31/2021 7:15:00 AM 24.26 75.668 0.228 7.73 5.97 4.84
8/31/2021 7:30:00 AM 24.24 75.632 0.228 7.73 6.08 4.8
8/31/2021 7:45:00 AM 24.22 75.596 0.228 7.72 5.8 4.73
8/31/2021 8:00:00 AM 24.2 75.56 0.228 7.72 6.05 4.84
8/31/2021 8:15:00 AM 24.18 75.524 0.228 7.71 6.45 4.76
8/31/2021 8:30:00 AM 24.18 75.524 0.228 7.7 6.04 4.69
8/31/2021 8:45:00 AM 24.17 75.506 0.228 7.71 6.1 4.79
8/31/2021 9:00:00 AM 24.17 75.506 0.228 7.72 6.01 4.73
8/31/2021 9:15:00 AM 24.16 75.488 0.228 7.71 5.97 4.7
8/31/2021 9:30:00 AM 24.16 75.488 0.228 7.72 5.92 4.64
8/31/2021 9:45:00 AM 24.15 75.47 0.229 7.71 6.1 4.68
8/31/2021 10:00:00 AM 24.15 75.47 0.228 7.72 5.94 4.63
8/31/2021 10:15:00 AM 24.15 75.47 0.228 7.72 5.82 4.59
8/31/2021 10:30:00 AM 24.14 75.452 0.228 7.71 5.85 4.57
8/31/2021 10:45:00 AM 24.14 75.452 0.228 7.72 5.86 4.49
8/31/2021 11:00:00 AM 24.14 75.452 0.229 7.72 5.74 4.47
8/31/2021 11:15:00 AM 24.14 75.452 0.228 7.73 5.7 4.46
8/31/2021 11:30:00 AM 24.14 75.452 0.229 7.7 5.75 4.38
8/31/2021 11:45:00 AM 24.14 75.452 0.229 7.71 5.67 4.34
8/31/2021 12:00:00 PM 24.13 75.434 0.229 7.71 5.65 4.38
8/31/2021 12:15:00 PM 24.13 75.434 0.229 7.7 5.56 4.19
8/31/2021 12:30:00 PM 24.15 75.47 0.229 7.69 5.45 4.12
8/31/2021 12:45:00 PM 24.3 75.74 0.232 7.7 5.64 4.31
8/31/2021 1:00:00 PM 24.45 76.01 0.233 7.71 6.27 4.62
8/31/2021 1:15:00 PM 24.57 76.226 0.234 7.73 6.22 4.76
8/31/2021 1:30:00 PM 24.66 76.388 0.234 7.72 6.54 4.85
8/31/2021 1:45:00 PM 24.72 76.496 0.235 7.74 6.44 4.99
8/31/2021 2:00:00 PM 24.78 76.604 0.237 7.76 6.69 5.22
8/31/2021 2:15:00 PM 24.82 76.676 0.238 7.77 7.19 5.45
8/31/2021 2:30:00 PM 24.87 76.766 0.243 7.87 8.83 6.61
8/31/2021 2:45:00 PM 24.9 76.82 0.246 7.9 6.88 6.89
8/31/2021 3:00:00 PM 24.92 76.856 0.248 7.9 6.71 6.78
8/31/2021 3:15:00 PM 24.92 76.856 0.246 7.89 6.47 6.54
8/31/2021 3:30:00 PM 24.93 76.874 0.245 7.87 6.63 6.6
8/31/2021 3:45:00 PM 24.93 76.874 0.245 7.88 6.11 6.56
8/31/2021 4:00:00 PM 24.93 76.874 0.245 7.87 6.09 6.46
8/31/2021 4:15:00 PM 24.93 76.874 0.245 7.86 6.11 6.42
8/31/2021 4:30:00 PM 24.92 76.856 0.245 7.86 5.98 6.37
8/31/2021 4:45:00 PM 24.92 76.856 0.245 7.87 5.66 6.35
8/31/2021 5:00:00 PM 24.92 76.856 0.246 7.86 5.79 6.34
8/31/2021 5:15:00 PM 24.91 76.838 0.246 7.86 5.63 6.31
8/31/2021 5:30:00 PM 24.91 76.838 0.246 7.86 5.55 6.32
8/31/2021 5:45:00 PM 24.9 76.82 0.246 7.85 5.57 6.25
8/31/2021 6:00:00 PM 24.9 76.82 0.246 7.86 5.62 6.24
8/31/2021 6:15:00 PM 24.9 76.82 0.246 7.86 5.39 6.22
8/31/2021 6:30:00 PM 24.89 76.802 0.246 7.86 5.38 6.22
8/31/2021 6:45:00 PM 24.89 76.802 0.246 7.86 5.3 6.16
8/31/2021 7:00:00 PM 24.88 76.784 0.247 7.86 5.36 6.18
8/31/2021 7:15:00 PM 24.88 76.784 0.247 7.87 5.37 6.15
8/31/2021 7:30:00 PM 24.87 76.766 0.247 7.86 5.36 6.12
8/31/2021 7:45:00 PM 24.87 76.766 0.247 7.86 5.39 6.06
8/31/2021 8:00:00 PM 24.86 76.748 0.247 7.86 5.23 6.03
8/31/2021 8:15:00 PM 24.86 76.748 0.247 7.86 5.1 6.04
8/31/2021 8:30:00 PM 24.85 76.73 0.247 7.86 4.97 6.01
8/31/2021 8:45:00 PM 24.85 76.73 0.247 7.86 5.13 6.04
8/31/2021 9:00:00 PM 24.84 76.712 0.247 7.86 5.05 5.96
8/31/2021 9:15:00 PM 24.84 76.712 0.247 7.85 5.05 5.91
8/31/2021 9:30:00 PM 24.84 76.712 0.247 7.85 5.04 5.93
8/31/2021 9:45:00 PM 24.83 76.694 0.247 7.86 4.85 5.88
8/31/2021 10:00:00 PM 24.83 76.694 0.247 7.86 5.25 5.89
8/31/2021 10:15:00 PM 24.82 76.676 0.247 7.85 4.96 5.82
8/31/2021 10:30:00 PM 24.82 76.676 0.247 7.86 4.88 5.81
8/31/2021 10:45:00 PM 24.81 76.658 0.247 7.85 5.09 5.83
8/31/2021 11:00:00 PM 24.81 76.658 0.247 7.85 4.79 5.75
8/31/2021 11:15:00 PM 24.81 76.658 0.247 7.85 4.9 5.75
8/31/2021 11:30:00 PM 24.8 76.64 0.247 7.85 4.96 5.73
8/31/2021 11:45:00 PM 24.8 76.64 0.247 7.85 4.97 5.7
9/1/2021 12:00:00 AM 24.79 76.622 0.248 7.84 4.74 5.73
9/1/2021 12:15:00 AM 24.79 76.622 0.247 7.84 4.88 5.66
9/1/2021 12:30:00 AM 24.79 76.622 0.247 7.85 4.82 5.63
9/1/2021 12:45:00 AM 24.78 76.604 0.247 7.85 4.79 5.61
9/1/2021 1:00:00 AM 24.78 76.604 0.248 7.84 4.66 5.58
9/1/2021 1:15:00 AM 24.77 76.586 0.248 7.85 4.74 5.58
9/1/2021 1:30:00 AM 24.77 76.586 0.248 7.85 4.75 5.57
9/1/2021 1:45:00 AM 24.76 76.568 0.248 7.84 4.7 5.52
9/1/2021 2:00:00 AM 24.76 76.568 0.248 7.84 4.7 5.53
9/1/2021 2:15:00 AM 24.76 76.568 0.248 7.84 4.62 5.52
9/1/2021 2:30:00 AM 24.75 76.55 0.248 7.84 4.7 5.51
9/1/2021 2:45:00 AM 24.75 76.55 0.248 7.83 4.66 5.47
9/1/2021 3:00:00 AM 24.74 76.532 0.248 7.84 4.59 5.42
9/1/2021 3:15:00 AM 24.74 76.532 0.248 7.84 4.68 5.47
9/1/2021 3:30:00 AM 24.74 76.532 0.248 7.84 4.55 5.51
9/1/2021 3:45:00 AM 24.73 76.514 0.248 7.84 4.55 5.43
9/1/2021 4:00:00 AM 24.73 76.514 0.248 7.84 4.53 5.43
9/1/2021 4:15:00 AM 24.72 76.496 0.248 7.84 4.59 5.37
9/1/2021 4:30:00 AM 24.72 76.496 0.248 7.84 4.56 5.38
9/1/2021 4:45:00 AM 24.72 76.496 0.248 7.83 4.52 5.33
9/1/2021 5:00:00 AM 24.71 76.478 0.248 7.83 4.78 5.31
9/1/2021 5:15:00 AM 24.69 76.442 0.248 7.81 4.53 5.34
9/1/2021 5:30:00 AM 24.66 76.388 0.249 7.82 5.02 5.56
9/1/2021 5:45:00 AM 24.63 76.334 0.249 7.81 4.85 5.38
9/1/2021 6:00:00 AM 24.62 76.316 0.249 7.81 4.72 5.28
9/1/2021 6:15:00 AM 24.61 76.298 0.249 7.81 4.69 5.24
9/1/2021 6:30:00 AM 24.59 76.262 0.249 7.81 4.71 5.2
9/1/2021 6:45:00 AM 24.58 76.244 0.249 7.81 4.7 5.25
9/1/2021 7:00:00 AM 24.55 76.19 0.25 7.81 5.04 5.27
9/1/2021 7:15:00 AM 24.52 76.136 0.25 7.8 4.98 5.25
9/1/2021 7:30:00 AM 24.48 76.064 0.249 7.8 4.99 5.24
9/1/2021 7:45:00 AM 24.44 75.992 0.25 7.8 4.96 5.19
9/1/2021 8:00:00 AM 24.4 75.92 0.25 7.8 4.95 5.17
9/1/2021 8:15:00 AM 24.36 75.848 0.25 7.8 4.95 5.14
9/1/2021 8:30:00 AM 24.31 75.758 0.25 7.8 5.32 5.19
9/1/2021 8:45:00 AM 24.26 75.668 0.25 7.8 5.15 5.16
9/1/2021 9:00:00 AM 24.22 75.596 0.25 7.8 4.95 5.11
9/1/2021 9:15:00 AM 24.18 75.524 0.25 7.8 5.02 5.06
9/1/2021 9:30:00 AM 24.14 75.452 0.25 7.79 5.16 4.99
9/1/2021 9:45:00 AM 24.1 75.38 0.25 7.8 5.12 5.04
9/1/2021 10:00:00 AM 24.06 75.308 0.25 7.8 5 5.08
9/1/2021 10:15:00 AM 24.02 75.236 0.25 7.79 5.11 5.04
9/1/2021 10:30:00 AM 23.99 75.182 0.25 7.8 5.12 5
9/1/2021 10:45:00 AM 23.95 75.11 0.25 7.8 5.12 5.03
9/1/2021 11:00:00 AM 23.91 75.038 0.25 7.8 5.65 5.02
9/1/2021 11:15:00 AM 23.86 74.948 0.25 7.8 5.49 5.04
9/1/2021 11:30:00 AM 23.81 74.858 0.25 7.79 5.26 4.97
9/1/2021 11:45:00 AM 23.76 74.768 0.25 7.79 5.23 4.94
9/1/2021 12:00:00 PM 23.72 74.696 0.25 7.8 5.15 4.93
9/1/2021 12:15:00 PM 23.68 74.624 0.25 7.79 5.14 4.91
9/1/2021 12:30:00 PM 23.65 74.57 0.25 7.79 5.06 4.9
9/1/2021 12:45:00 PM 23.61 74.498 0.25 7.79 5.41 4.92
9/1/2021 1:00:00 PM 23.58 74.444 0.25 7.79 5.3 4.86
9/1/2021 1:15:00 PM 23.55 74.39 0.25 7.79 5.55 4.9
9/1/2021 1:30:00 PM 23.51 74.318 0.25 7.79 5.31 4.81
9/1/2021 1:45:00 PM 23.49 74.282 0.25 7.8 5.31 4.82
9/1/2021 2:00:00 PM 23.46 74.228 0.25 7.8 5.26 4.82
9/1/2021 2:15:00 PM 23.41 74.138 0.249 7.79 5.82 5.16
9/1/2021 2:30:00 PM 23.38 74.084 0.249 7.8 5.44 5.03
9/1/2021 2:45:00 PM 23.36 74.048 0.249 7.81 5.47 5.15
9/1/2021 3:00:00 PM 23.35 74.03 0.249 7.81 5.62 5.12
9/1/2021 3:15:00 PM 23.34 74.012 0.249 7.8 5.85 5.09
9/1/2021 3:30:00 PM 23.33 73.994 0.249 7.81 5.82 5.12
9/1/2021 3:45:00 PM 23.32 73.976 0.249 7.81 6.24 5.13
9/1/2021 4:00:00 PM 23.32 73.976 0.249 7.81 5.71 5.11
9/1/2021 4:15:00 PM 23.32 73.976 0.249 7.81 5.77 5.11
9/1/2021 4:30:00 PM 23.31 73.958 0.249 7.82 6.11 5.16
9/1/2021 4:45:00 PM 23.31 73.958 0.248 7.83 6.92 5.52
9/1/2021 5:00:00 PM 23.31 73.958 0.246 7.9 7.69 6.44
9/1/2021 5:15:00 PM 23.31 73.958 0.244 7.93 10.87 7.44
9/1/2021 5:30:00 PM 23.31 73.958 0.243 7.95 10.38 7.5
9/1/2021 5:45:00 PM 23.31 73.958 0.243 7.94 11.58 7.63
9/1/2021 6:00:00 PM 23.3 73.94 0.243 7.96 11.74 7.64
9/1/2021 6:15:00 PM 23.3 73.94 0.243 7.95 12.13 7.69
9/1/2021 6:30:00 PM 23.3 73.94 0.243 7.96 12.03 7.67
9/1/2021 6:45:00 PM 23.3 73.94 0.242 7.96 12.24 7.68
9/1/2021 7:00:00 PM 23.3 73.94 0.243 7.96 12 7.7
9/1/2021 7:15:00 PM 23.3 73.94 0.243 7.98 12.13 7.67
9/1/2021 7:30:00 PM 23.3 73.94 0.242 7.95 11.85 7.59
9/1/2021 7:45:00 PM 23.3 73.94 0.243 7.94 12.08 7.6
9/1/2021 8:00:00 PM 23.3 73.94 0.243 7.94 12.04 7.57
9/1/2021 8:15:00 PM 23.3 73.94 0.243 7.94 11.79 7.51
9/1/2021 8:30:00 PM 23.29 73.922 0.243 7.93 11.38 7.48
9/1/2021 8:45:00 PM 23.29 73.922 0.243 7.92 10.93 7.48
9/1/2021 9:00:00 PM 23.29 73.922 0.243 7.92 11.39 7.43
9/1/2021 9:15:00 PM 23.29 73.922 0.243 7.92 11.44 7.4
9/1/2021 9:30:00 PM 23.29 73.922 0.243 7.92 11.16 7.41
9/1/2021 9:45:00 PM 23.29 73.922 0.243 7.91 11.07 7.37
9/1/2021 10:00:00 PM 23.29 73.922 0.243 7.91 10.79 7.36
9/1/2021 10:15:00 PM 23.27 73.886 0.242 7.9 12.8 7.33
9/1/2021 10:30:00 PM 23.26 73.868 0.242 7.89 14.06 7.34
9/1/2021 10:45:00 PM 23.26 73.868 0.242 7.91 14.01 7.44
9/1/2021 11:00:00 PM 23.26 73.868 0.242 7.91 13.16 7.35
9/1/2021 11:15:00 PM 23.27 73.886 0.242 7.9 13.26 7.3
9/1/2021 11:30:00 PM 23.26 73.868 0.242 7.88 13.58 7.3
9/1/2021 11:45:00 PM 23.26 73.868 0.242 7.9 13.13 7.34
9/2/2021 12:00:00 AM 23.25 73.85 0.242 7.89 13.11 7.37
9/2/2021 12:15:00 AM 23.25 73.85 0.242 7.89 13.59 7.32
9/2/2021 12:30:00 AM 23.25 73.85 0.242 7.88 13.48 7.27
9/2/2021 12:45:00 AM 23.25 73.85 0.242 7.88 13.41 7.24
9/2/2021 1:00:00 AM 23.25 73.85 0.242 7.87 12.78 7.22
9/2/2021 1:15:00 AM 23.24 73.832 0.242 7.88 13.32 7.23
9/2/2021 1:30:00 AM 23.24 73.832 0.242 7.88 12.95 7.23
9/2/2021 1:45:00 AM 23.24 73.832 0.242 7.88 12.55 7.2
9/2/2021 2:00:00 AM 23.24 73.832 0.242 7.85 12.48 7.17
9/2/2021 2:15:00 AM 23.23 73.814 0.242 7.87 13.54 7.16
9/2/2021 2:30:00 AM 23.23 73.814 0.242 7.87 13.15 7.19
9/2/2021 2:45:00 AM 23.23 73.814 0.242 7.88 12.59 7.19
9/2/2021 3:00:00 AM 23.22 73.796 0.242 7.87 12.58 7.19
9/2/2021 3:15:00 AM 23.22 73.796 0.241 7.86 13.09 7.17
9/2/2021 3:30:00 AM 23.22 73.796 0.241 7.87 12.71 7.16
9/2/2021 3:45:00 AM 23.21 73.778 0.241 7.87 13.09 7.18
9/2/2021 4:00:00 AM 23.21 73.778 0.241 7.87 12.58 7.2
9/2/2021 4:15:00 AM 23.21 73.778 0.241 7.88 12.77 7.17
9/2/2021 4:30:00 AM 23.2 73.76 0.241 7.87 12.91 7.18
9/2/2021 4:45:00 AM 23.2 73.76 0.241 7.88 12.24 7.18
9/2/2021 5:00:00 AM 23.2 73.76 0.24 7.88 12.74 7.15
9/2/2021 5:15:00 AM 23.17 73.706 0.237 7.86 13.36 7.17
9/2/2021 5:30:00 AM 20.28 68.504 0.143 7.46 61.17 8.33
9/2/2021 5:45:00 AM 19.8 67.64 0.131 7.39 59.69 8.45
9/2/2021 6:00:00 AM 19.62 67.316 0.126 7.35 57.4 8.5
9/2/2021 6:15:00 AM 19.54 67.172 0.124 7.34 48.38 8.5
9/2/2021 6:30:00 AM 19.49 67.082 0.125 7.35 46.75 8.49
9/2/2021 6:45:00 AM 19.44 66.992 0.122 7.32 46.85 8.52
9/2/2021 7:00:00 AM 19.41 66.938 0.122 7.32 48.94 8.54
9/2/2021 7:15:00 AM 19.39 66.902 0.121 7.3 50.71 8.57
9/2/2021 7:30:00 AM 19.38 66.884 0.12 7.29 50.96 8.6
9/2/2021 7:45:00 AM 19.36 66.848 0.121 7.29 52.14 8.62
9/2/2021 8:00:00 AM 19.37 66.866 0.122 7.3 57.17 8.61
9/2/2021 8:15:00 AM 19.38 66.884 0.123 7.31 57.51 8.61
9/2/2021 8:30:00 AM 19.37 66.866 0.124 7.31 58.51 8.62
9/2/2021 8:45:00 AM 19.39 66.902 0.124 7.32 52.09 8.59
9/2/2021 9:00:00 AM 19.4 66.92 0.126 7.33 54.01 8.61
9/2/2021 9:15:00 AM 19.42 66.956 0.127 7.32 56.08 8.6
9/2/2021 9:30:00 AM 19.44 66.992 0.128 7.33 52.74 8.6
9/2/2021 9:45:00 AM 19.46 67.028 0.129 7.34 49.66 8.57
9/2/2021 10:00:00 AM 19.48 67.064 0.129 7.34 44.22 8.53
9/2/2021 10:15:00 AM 19.51 67.118 0.13 7.34 43.1 8.52
9/2/2021 10:30:00 AM 19.54 67.172 0.131 7.34 41.36 8.49
9/2/2021 10:45:00 AM 19.56 67.208 0.131 7.34 38.03 8.44